BY5516 / G-FDZD 7700 Squawk Report (20th of July, 2018)

Time Lat Lon Altitude Heading Speed Vertical Rate
2018-07-20 11:06:39 GMT 39.901566 4.226631 850 189 136 -768
2018-07-20 11:06:35 GMT 39.904861 4.227288 900 189 137 -960
2018-07-20 11:06:30 GMT 39.907696 4.227905 975 190 136 -768
2018-07-20 11:06:25 GMT 39.910858 4.228542 1,025 190 141 -576
2018-07-20 11:06:14 GMT 39.917999 4.229975 1,150 189 145 -512
2018-07-20 11:06:11 GMT 39.919987 4.230408 1,175 189 147 -768
2018-07-20 11:06:03 GMT 39.925278 4.231506 1,250 190 150 -768
2018-07-20 11:06:00 GMT 39.927624 4.232046 1,300 190 152 -768
2018-07-20 11:05:56 GMT 39.929577 4.232483 1,325 190 153 -768
2018-07-20 11:05:51 GMT 39.933105 4.233215 1,400 190 157 -704
2018-07-20 11:05:42 GMT 39.939789 4.234680 1,525 190 161 -1088
2018-07-20 11:05:39 GMT 39.942566 4.235229 1,575 190 161 -1024
2018-07-20 11:05:03 GMT 39.969452 4.240479 2,100 189 171 -832
2018-07-20 11:04:53 GMT 39.977646 4.242004 2,250 189 170 -768
2018-07-20 11:04:42 GMT 39.985580 4.243469 2,400 189 168 -960
2018-07-20 11:04:30 GMT 39.994797 4.245217 2,600 188 167 -896
2018-07-20 11:04:21 GMT 40.001873 4.246590 2,750 190 167 -1024
2018-07-20 11:04:11 GMT 40.010010 4.248230 2,875 190 168 -832
2018-07-20 11:03:59 GMT 40.018890 4.250183 3,050 191 167 -832
2018-07-20 11:03:50 GMT 40.025940 4.251892 3,150 191 167 -832
2018-07-20 11:03:40 GMT 40.034134 4.254028 3,300 192 168 -832
2018-07-20 11:03:29 GMT 40.041779 4.255981 3,450 192 168 -1024
2018-07-20 11:03:13 GMT 40.054413 4.259033 3,725 188 167 -1280
2018-07-20 11:03:07 GMT 40.058853 4.259761 3,875 186 165 -1216
2018-07-20 11:03:04 GMT 40.060822 4.260010 3,875 186 165 -1216
2018-07-20 11:02:55 GMT 40.067978 4.260635 4,050 177 178 -256
2018-07-20 11:02:48 GMT 40.073593 4.260620 4,075 178 167 -384
2018-07-20 11:02:36 GMT 40.082382 4.260437 4,125 179 174 -320
2018-07-20 11:02:32 GMT 40.086132 4.260323 4,150 177 178 -256
2018-07-20 11:02:14 GMT 40.100555 4.256653 4,325 157 190 -576
2018-07-20 11:02:06 GMT 40.107834 4.252747 4,425 157 195 -768
2018-07-20 11:02:00 GMT 40.113365 4.249774 4,500 157 200 -576
2018-07-20 11:01:55 GMT 40.116943 4.247864 4,550 157 202 -448
2018-07-20 11:01:48 GMT 40.122894 4.244629 4,600 157 207 -576
2018-07-20 11:01:44 GMT 40.126053 4.242920 4,625 157 207 -512
2018-07-20 11:01:40 GMT 40.130123 4.240660 4,675 157 209 -448
2018-07-20 11:01:37 GMT 40.132828 4.239197 4,700 157 211 -448
2018-07-20 11:01:34 GMT 40.135525 4.237726 4,725 157 213 -384
2018-07-20 11:01:31 GMT 40.138828 4.235979 4,750 157 215 -512
2018-07-20 11:01:28 GMT 40.141018 4.234730 4,750 157 216 -640
2018-07-20 11:01:23 GMT 40.144913 4.232666 4,800 157 218 -704
2018-07-20 11:01:18 GMT 40.149765 4.229980 4,850 157 224 -896
2018-07-20 11:01:13 GMT 40.154709 4.227295 4,900 157 223 -704
2018-07-20 11:01:06 GMT 40.161777 4.223432 5,000 157 225 -960
2018-07-20 11:01:01 GMT 40.166016 4.221060 5,075 156 227 -960
2018-07-20 11:00:58 GMT 40.169266 4.219238 5,125 156 227 -1088
2018-07-20 11:00:55 GMT 40.172207 4.217626 5,175 156 227 -1152
2018-07-20 11:00:48 GMT 40.178772 4.214006 5,275 156 228 -768
2018-07-20 11:00:45 GMT 40.181519 4.212445 5,325 156 229 -704
2018-07-20 11:00:42 GMT 40.185009 4.210448 5,350 156 231 -768
2018-07-20 11:00:35 GMT 40.191925 4.206604 5,450 156 237 -1088
2018-07-20 11:00:31 GMT 40.195496 4.204529 5,500 156 233 -832
2018-07-20 11:00:20 GMT 40.206665 4.198242 5,650 156 237 -1088
2018-07-20 11:00:13 GMT 40.213943 4.194214 5,875 157 232 -1600
2018-07-20 11:00:09 GMT 40.217560 4.192261 5,875 157 235 -1408
2018-07-20 10:59:59 GMT 40.227631 4.186890 6,100 157 234 -1344
2018-07-20 10:59:47 GMT 40.239754 4.180298 6,375 157 231 -1472
2018-07-20 10:59:41 GMT 40.247086 4.176331 6,525 157 231 -1088
2018-07-20 10:59:38 GMT 40.248276 4.175720 6,550 157 231 -1088
2018-07-20 10:59:28 GMT 40.258163 4.170349 6,750 157 229 -1536
2018-07-20 10:59:17 GMT 40.268944 4.164380 6,900 156 232 -512
2018-07-20 10:59:06 GMT 40.281189 4.157532 6,975 156 242 -64
2018-07-20 10:58:55 GMT 40.292496 4.151184 7,000 156 250 -448
2018-07-20 10:58:46 GMT 40.302200 4.145752 7,050 156 256 -384
2018-07-20 10:58:42 GMT 40.307465 4.142822 7,100 156 257 -448
2018-07-20 10:58:39 GMT 40.309662 4.141602 7,100 156 257 -448
2018-07-20 10:58:34 GMT 40.316391 4.137939 7,150 157 264 -448
2018-07-20 10:58:22 GMT 40.328529 4.131296 7,225 157 272 -448
2018-07-20 10:58:18 GMT 40.333878 4.128357 7,275 157 275 -640
2018-07-20 10:58:14 GMT 40.337631 4.126282 7,300 157 278 -1088
2018-07-20 10:58:04 GMT 40.349991 4.119446 7,475 157 279 -1472
2018-07-20 10:57:47 GMT 40.370335 4.108262 7,850 157 281 -1280
2018-07-20 10:57:43 GMT 40.375175 4.105641 7,925 157 282 -1152
2018-07-20 10:57:36 GMT 40.385101 4.100220 8,100 157 287 -1280
2018-07-20 10:57:33 GMT 40.387527 4.098877 8,125 157 285 -1408
2018-07-20 10:57:26 GMT 40.396542 4.093905 8,300 157 286 -1280
2018-07-20 10:57:21 GMT 40.401718 4.091125 8,375 157 287 -1280
2018-07-20 10:57:11 GMT 40.414032 4.084351 8,575 157 289 -1344
2018-07-20 10:57:04 GMT 40.423683 4.079049 8,750 156 291 -1216
2018-07-20 10:56:58 GMT 40.429871 4.075562 8,850 156 292 -1216
2018-07-20 10:56:53 GMT 40.436111 4.072058 8,925 156 294 -1152
2018-07-20 10:56:50 GMT 40.440628 4.069436 9,000 156 295 -1216
2018-07-20 10:56:44 GMT 40.448170 4.065129 9,175 156 297 -1280
2018-07-20 10:56:40 GMT 40.452942 4.062378 9,200 156 300 -768
2018-07-20 10:56:33 GMT 40.462143 4.057129 9,275 156 303 -512
2018-07-20 10:56:27 GMT 40.469376 4.052979 9,325 156 308 -576
2018-07-20 10:56:23 GMT 40.474892 4.049835 9,375 156 310 -576
2018-07-20 10:56:20 GMT 40.478302 4.047913 9,400 157 320 -1664
2018-07-20 10:56:17 GMT 40.482338 4.045715 9,425 157 314 -1024
2018-07-20 10:56:12 GMT 40.489059 4.042053 9,625 157 320 -1664
2018-07-20 10:56:03 GMT 40.501190 4.035416 9,625 157 320 -1664
2018-07-20 10:56:00 GMT 40.506638 4.032544 9,975 157 317 -2048
2018-07-20 10:55:56 GMT 40.510967 4.030172 10,075 157 317 -2048
2018-07-20 10:55:48 GMT 40.522465 4.023992 10,325 157 322 -1600
2018-07-20 10:55:37 GMT 40.537411 4.015940 10,625 157 326 -1792
2018-07-20 10:55:29 GMT 40.550259 4.008824 10,850 156 329 -1472
2018-07-20 10:55:22 GMT 40.557613 4.004704 10,975 156 330 -1472
2018-07-20 10:55:19 GMT 40.563538 4.001343 11,075 156 334 -1408
2018-07-20 10:55:09 GMT 40.578873 3.992554 11,300 156 341 -576
2018-07-20 10:55:05 GMT 40.582901 3.990234 11,325 156 341 -576
2018-07-20 10:54:59 GMT 40.591362 3.985353 11,425 156 348 -704
2018-07-20 10:54:55 GMT 40.597549 3.981750 11,425 156 351 -704
2018-07-20 10:54:46 GMT 40.611374 3.973755 11,525 156 358 -704
2018-07-20 10:54:40 GMT 40.619339 3.969238 11,575 156 362 -832
2018-07-20 10:54:36 GMT 40.626801 3.965088 11,675 157 366 -1536
2018-07-20 10:54:33 GMT 40.629913 3.963318 11,750 157 366 -2816
2018-07-20 10:54:27 GMT 40.640244 3.957575 12,100 156 368 -2816
2018-07-20 10:54:24 GMT 40.645271 3.954828 12,225 156 369 -2944
2018-07-20 10:54:21 GMT 40.649693 3.952332 12,325 156 369 -3072
2018-07-20 10:54:16 GMT 40.658493 3.947400 12,625 156 369 -3520
2018-07-20 10:54:11 GMT 40.665756 3.943359 12,875 156 369 -3456
2018-07-20 10:54:04 GMT 40.676468 3.937378 13,200 157 371 -2944
2018-07-20 10:54:01 GMT 40.681210 3.934728 13,350 157 372 -3136
2018-07-20 10:53:54 GMT 40.693314 3.927987 13,750 156 374 -3136
2018-07-20 10:53:47 GMT 40.702904 3.922619 14,100 157 376 -2688
2018-07-20 10:53:44 GMT 40.709328 3.919123 14,200 158 376 -2944
2018-07-20 10:53:37 GMT 40.720406 3.913692 14,550 161 375 -2752
2018-07-20 10:53:33 GMT 40.727669 3.910571 14,725 163 375 -2112
2018-07-20 10:53:29 GMT 40.733368 3.908386 14,825 164 379 -1536
2018-07-20 10:53:21 GMT 40.746140 3.903748 15,075 164 380 -1664
2018-07-20 10:53:18 GMT 40.751587 3.901733 15,125 164 382 -1792
2018-07-20 10:53:10 GMT 40.766647 3.896301 15,375 164 386 -1856
2018-07-20 10:53:07 GMT 40.770126 3.895020 15,425 164 389 -1856
2018-07-20 10:53:02 GMT 40.778458 3.892090 15,575 164 390 -1792
2018-07-20 10:52:56 GMT 40.792145 3.887163 15,800 164 396 -1920
2018-07-20 10:52:52 GMT 40.797123 3.885415 15,900 164 397 -1920
2018-07-20 10:52:47 GMT 40.805283 3.882507 16,025 164 400 -1920
2018-07-20 10:52:41 GMT 40.815701 3.878798 16,200 164 404 -1920
2018-07-20 10:52:37 GMT 40.823273 3.876038 16,325 164 406 -1920
2018-07-20 10:52:34 GMT 40.828732 3.874116 16,425 164 408 -1920
2018-07-20 10:52:31 GMT 40.834553 3.871994 16,525 164 410 -1920
2018-07-20 10:52:26 GMT 40.843349 3.868873 16,675 164 412 -2112
2018-07-20 10:52:23 GMT 40.849262 3.866751 16,800 164 414 -2560
2018-07-20 10:52:20 GMT 40.854813 3.864746 16,900 164 414 -2624
2018-07-20 10:52:16 GMT 40.864067 3.861507 17,125 164 416 -2624
2018-07-20 10:52:13 GMT 40.869690 3.859497 17,250 164 417 -2560
2018-07-20 10:52:08 GMT 40.879753 3.855951 17,475 165 418 -2624
2018-07-20 10:52:03 GMT 40.886459 3.853579 17,725 165 418 -2624
2018-07-20 10:52:00 GMT 40.892464 3.851457 17,775 164 418 -2560
2018-07-20 10:51:53 GMT 40.907452 3.846151 18,375 164 420 -2432
2018-07-20 10:51:50 GMT 40.910797 3.844971 18,225 164 420 -2368
2018-07-20 10:51:47 GMT 40.916439 3.842968 18,300 164 421 -2304
2018-07-20 10:51:43 GMT 40.923981 3.840283 18,500 164 424 -2304
2018-07-20 10:51:40 GMT 40.931900 3.837402 18,600 164 424 -2304
2018-07-20 10:51:36 GMT 40.936432 3.835754 18,675 164 425 -2240
2018-07-20 10:51:32 GMT 40.946697 3.832044 18,875 164 427 -2304
2018-07-20 10:51:28 GMT 40.955124 3.828985 19,050 164 428 -2304
2018-07-20 10:51:25 GMT 40.958149 3.827861 19,100 164 429 -2304
2018-07-20 10:51:18 GMT 40.972767 3.822493 19,375 164 430 -2304
2018-07-20 10:51:11 GMT 40.987335 3.817125 19,675 164 432 -2304
2018-07-20 10:51:08 GMT 40.991199 3.815689 19,775 164 432 -2304
2018-07-20 10:51:05 GMT 40.996601 3.813692 19,850 164 432 -2368
2018-07-20 10:51:00 GMT 41.007355 3.809697 20,150 164 431 -2496
2018-07-20 10:50:56 GMT 41.014290 3.807137 20,200 164 431 -2496
2018-07-20 10:50:49 GMT 41.029312 3.801697 20,575 164 432 -2816
2018-07-20 10:50:46 GMT 41.033157 3.800293 20,625 164 432 -2816
2018-07-20 10:50:36 GMT 41.053299 3.792908 20,975 164 435 -1216
2018-07-20 10:50:25 GMT 41.075134 3.785034 21,200 164 438 -1216
2018-07-20 10:50:15 GMT 41.095104 3.777736 21,400 164 439 -1216
2018-07-20 10:50:04 GMT 41.116699 3.769897 21,625 164 440 -1216
2018-07-20 10:49:53 GMT 41.138260 3.761756 21,850 161 443 -1088
2018-07-20 10:49:42 GMT 41.160278 3.750916 21,975 156 448 -448
2018-07-20 10:49:34 GMT 41.174652 3.742126 22,075 152 452 -1280
2018-07-20 10:49:30 GMT 41.181335 3.737549 22,125 152 452 -1280
2018-07-20 10:49:21 GMT 41.197723 3.726379 22,300 152 453 -1280
2018-07-20 10:49:17 GMT 41.204781 3.721556 22,400 152 454 -1408
2018-07-20 10:49:11 GMT 41.216747 3.713379 22,550 152 454 -1728
2018-07-20 10:49:07 GMT 41.222351 3.709534 22,625 152 455 -2624
2018-07-20 10:49:00 GMT 41.236252 3.700021 22,950 152 457 -2752
2018-07-20 10:48:56 GMT 41.244873 3.694092 23,150 152 458 -2752
2018-07-20 10:48:51 GMT 41.255447 3.686890 23,400 152 459 -2752
2018-07-20 10:48:45 GMT 41.263733 3.681152 23,675 152 460 -2752
2018-07-20 10:48:42 GMT 41.272469 3.675176 23,825 152 461 -2688
2018-07-20 10:48:39 GMT 41.275864 3.672852 23,875 152 461 -2688
2018-07-20 10:48:33 GMT 41.288040 3.664490 24,150 152 463 -2688
2018-07-20 10:48:30 GMT 41.292618 3.661377 24,350 152 464 -2688
2018-07-20 10:48:27 GMT 41.298706 3.657227 24,400 152 464 -2688
2018-07-20 10:48:24 GMT 41.306351 3.651978 24,575 152 466 -2688
2018-07-20 10:48:21 GMT 41.312084 3.648023 24,700 152 466 -2752
2018-07-20 10:48:18 GMT 41.316692 3.644902 24,800 152 467 -2752
2018-07-20 10:48:12 GMT 41.327866 3.637207 25,050 152 469 -2752
2018-07-20 10:48:09 GMT 41.332848 3.633790 25,175 152 470 -2752
2018-07-20 10:48:06 GMT 41.339447 3.629272 25,325 152 474 -2240
2018-07-20 10:48:01 GMT 41.348351 3.623116 25,725 152 472 -2752
2018-07-20 10:47:58 GMT 41.356125 3.617810 25,725 152 472 -2752
2018-07-20 10:47:55 GMT 41.362362 3.613566 25,925 152 473 -2752
2018-07-20 10:47:52 GMT 41.365860 3.611145 25,925 152 473 -2752
2018-07-20 10:47:49 GMT 41.373642 3.605835 26,200 152 474 -2688
2018-07-20 10:47:45 GMT 41.381866 3.600270 26,300 152 475 -2688
2018-07-20 10:47:39 GMT 41.394012 3.591967 26,575 152 476 -2688
2018-07-20 10:47:33 GMT 41.402618 3.586100 26,775 152 475 -2624
2018-07-20 10:47:28 GMT 41.413940 3.578413 27,000 152 474 -2624
2018-07-20 10:47:22 GMT 41.425278 3.570681 27,275 152 473 -2688
2018-07-20 10:47:18 GMT 41.435394 3.563753 27,475 152 473 -2624
2018-07-20 10:47:15 GMT 41.439285 3.561068 27,575 152 473 -2624
2018-07-20 10:47:12 GMT 41.445511 3.556824 27,700 152 473 -2560
2018-07-20 10:47:06 GMT 41.456070 3.549606 27,925 152 474 -2368
2018-07-20 10:47:01 GMT 41.466965 3.542197 28,125 152 475 -1472
2018-07-20 10:46:54 GMT 41.479889 3.533353 28,250 152 475 -960
2018-07-20 10:46:49 GMT 41.489273 3.526923 28,350 152 476 -1024
2018-07-20 10:46:44 GMT 41.500214 3.519308 28,425 152 476 -896
2018-07-20 10:46:39 GMT 41.510818 3.512048 28,525 152 476 -704
2018-07-20 10:46:36 GMT 41.514729 3.509301 28,525 152 476 -704
2018-07-20 10:46:33 GMT 41.521362 3.504701 28,575 152 476 -832
2018-07-20 10:46:29 GMT 41.529575 3.499018 28,625 152 477 -832
2018-07-20 10:46:25 GMT 41.538189 3.493014 28,700 152 477 -832
2018-07-20 10:46:22 GMT 41.542892 3.489756 28,725 152 478 -768
2018-07-20 10:46:17 GMT 41.551502 3.483752 28,775 152 478 -768
2018-07-20 10:46:14 GMT 41.558578 3.478897 28,825 152 478 -704
2018-07-20 10:46:11 GMT 41.564484 3.474801 28,850 152 478 -704
2018-07-20 10:46:07 GMT 41.572311 3.469370 28,900 152 478 -704
2018-07-20 10:46:03 GMT 41.579018 3.464781 28,925 152 479 -704
2018-07-20 10:45:59 GMT 41.586884 3.459352 28,975 152 479 -768
2018-07-20 10:45:55 GMT 41.595932 3.453078 29,050 152 479 -768
2018-07-20 10:45:52 GMT 41.600693 3.449832 29,075 152 479 -768
2018-07-20 10:45:48 GMT 41.608158 3.444661 29,125 152 480 -768
2018-07-20 10:45:45 GMT 41.616486 3.438908 29,175 152 480 -768
2018-07-20 10:45:42 GMT 41.620819 3.435910 29,200 152 480 -768
2018-07-20 10:45:37 GMT 41.631454 3.428546 29,275 152 480 -768
2018-07-20 10:45:32 GMT 41.640930 3.421992 29,325 152 480 -768
2018-07-20 10:45:27 GMT 41.651184 3.414938 29,400 152 479 -704
2018-07-20 10:45:23 GMT 41.659103 3.409507 29,475 152 479 -704
2018-07-20 10:45:20 GMT 41.664997 3.405378 29,475 152 479 -704
2018-07-20 10:45:16 GMT 41.672470 3.400269 29,525 152 479 -704
2018-07-20 10:45:11 GMT 41.682362 3.393434 29,575 152 479 -768
2018-07-20 10:45:05 GMT 41.694187 3.385258 29,650 152 479 -768
2018-07-20 10:45:00 GMT 41.703232 3.378983 29,700 152 479 -704
2018-07-20 10:44:53 GMT 41.716995 3.369417 29,800 152 480 -768
2018-07-20 10:44:50 GMT 41.724865 3.363924 29,850 152 480 -768
2018-07-20 10:44:46 GMT 41.732346 3.358695 29,900 152 480 -768
2018-07-20 10:44:43 GMT 41.737885 3.354825 29,925 152 480 -768
2018-07-20 10:44:40 GMT 41.743763 3.350766 30,050 152 479 -704
2018-07-20 10:44:36 GMT 41.753262 3.344187 30,025 152 480 -704
2018-07-20 10:44:32 GMT 41.758755 3.340355 30,050 152 479 -704
2018-07-20 10:44:29 GMT 41.766998 3.334600 30,100 152 479 -768
2018-07-20 10:44:24 GMT 41.774872 3.329107 30,150 152 479 -768
2018-07-20 10:44:21 GMT 41.780773 3.325025 30,200 152 479 -768
2018-07-20 10:44:18 GMT 41.787460 3.320368 30,225 152 479 -768
2018-07-20 10:44:13 GMT 41.796112 3.314375 30,275 152 478 -768
2018-07-20 10:44:09 GMT 41.807098 3.306760 30,425 152 478 -704
2018-07-20 10:44:03 GMT 41.816944 3.299986 30,400 152 478 -704
2018-07-20 10:43:59 GMT 41.825958 3.293776 30,475 152 478 -704
2018-07-20 10:43:55 GMT 41.831051 3.290214 30,500 152 477 -704
2018-07-20 10:43:51 GMT 41.840881 3.283414 30,550 152 477 -704
2018-07-20 10:43:47 GMT 41.847530 3.278780 30,625 152 477 -704
2018-07-20 10:43:44 GMT 41.854202 3.274175 30,625 152 477 -704
2018-07-20 10:43:41 GMT 41.861633 3.269007 30,675 152 477 -704
2018-07-20 10:43:36 GMT 41.869904 3.263252 30,725 152 478 -704
2018-07-20 10:43:29 GMT 41.882023 3.254827 30,825 152 479 -704
2018-07-20 10:43:26 GMT 41.891098 3.248520 30,850 152 479 -704
2018-07-20 10:43:18 GMT 41.903252 3.240009 30,975 152 478 -704
2018-07-20 10:43:15 GMT 41.912292 3.233663 31,000 152 478 -704
2018-07-20 10:43:07 GMT 41.926762 3.223593 31,075 153 476 -640
2018-07-20 10:43:04 GMT 41.932663 3.219681 31,150 156 471 -640
2018-07-20 10:43:01 GMT 41.937050 3.216886 31,125 155 472 -640
2018-07-20 10:42:56 GMT 41.949013 3.209860 31,225 158 467 -960
2018-07-20 10:42:53 GMT 41.954647 3.206794 31,225 158 467 -960
2018-07-20 10:42:50 GMT 41.961071 3.203537 31,275 162 460 -1728
2018-07-20 10:42:46 GMT 41.970009 3.199449 31,775 162 460 -1792
2018-07-20 10:42:43 GMT 41.973267 3.198043 31,425 162 460 -1792
2018-07-20 10:42:40 GMT 41.979355 3.195461 31,500 162 460 -1792
2018-07-20 10:42:35 GMT 41.991096 3.190506 31,675 162 459 -1728
2018-07-20 10:42:31 GMT 42.000034 3.186738 31,800 162 459 -1728
2018-07-20 10:42:25 GMT 42.012184 3.181564 32,025 162 458 -1728
2018-07-20 10:42:22 GMT 42.017395 3.179356 32,050 162 457 -1728
2018-07-20 10:42:19 GMT 42.022247 3.177296 32,125 162 457 -1728
2018-07-20 10:42:14 GMT 42.033134 3.172685 32,325 162 455 -1728
2018-07-20 10:42:11 GMT 42.037930 3.170642 32,425 162 455 -1728
2018-07-20 10:42:08 GMT 42.043991 3.168120 32,425 162 454 -1728
2018-07-20 10:42:03 GMT 42.054382 3.163626 32,625 162 453 -1792
2018-07-20 10:41:59 GMT 42.064369 3.159336 32,800 162 452 -1792
2018-07-20 10:41:56 GMT 42.069118 3.157228 32,800 162 452 -1792
2018-07-20 10:41:53 GMT 42.075119 3.154699 32,900 162 451 -1728
2018-07-20 10:41:50 GMT 42.082664 3.151479 32,975 162 450 -1728
2018-07-20 10:41:47 GMT 42.086620 3.149755 33,050 162 450 -1728
2018-07-20 10:41:41 GMT 42.100479 3.143900 33,250 162 448 -1728
2018-07-20 10:41:38 GMT 42.105240 3.141903 33,300 162 448 -1728
2018-07-20 10:41:35 GMT 42.109573 3.140046 33,375 162 448 -1728
2018-07-20 10:41:32 GMT 42.116318 3.137221 33,550 162 448 -1728
2018-07-20 10:41:28 GMT 42.123817 3.134042 33,575 162 448 -1728
2018-07-20 10:41:22 GMT 42.136917 3.128544 33,775 162 448 -1728
2018-07-20 10:41:18 GMT 42.144836 3.125173 33,875 162 447 -1728
2018-07-20 10:41:13 GMT 42.154266 3.121178 34,025 162 446 -1792
2018-07-20 10:41:09 GMT 42.163742 3.117183 34,150 162 443 -1792
2018-07-20 10:41:06 GMT 42.166855 3.115872 34,200 162 443 -1792
2018-07-20 10:41:01 GMT 42.177795 3.111253 34,375 162 442 -1792
2018-07-20 10:40:58 GMT 42.185577 3.107945 34,475 162 441 -1792
2018-07-20 10:40:55 GMT 42.189083 3.106448 34,525 162 441 -1792
2018-07-20 10:40:51 GMT 42.197250 3.103013 34,675 162 434 -1664
2018-07-20 10:40:48 GMT 42.203838 3.100252 34,750 162 439 -1792
2018-07-20 10:40:45 GMT 42.209286 3.097953 34,825 162 439 -1792
2018-07-20 10:40:40 GMT 42.218948 3.093837 34,975 162 438 -1792
2018-07-20 10:40:35 GMT 42.228607 3.089777 35,125 162 435 -1792
2018-07-20 10:40:30 GMT 42.239731 3.085161 35,375 162 433 -1600
2018-07-20 10:40:27 GMT 42.243919 3.083390 35,350 162 433 -1600
2018-07-20 10:40:23 GMT 42.250443 3.080666 35,450 162 432 -1536
2018-07-20 10:40:18 GMT 42.260727 3.076363 35,575 162 431 -1536
2018-07-20 10:40:12 GMT 42.271385 3.071892 35,700 162 430 -1472
2018-07-20 10:40:07 GMT 42.282001 3.067421 35,900 162 427 -1536
2018-07-20 10:40:03 GMT 42.289589 3.064164 35,950 162 427 -1536
2018-07-20 10:40:00 GMT 42.293747 3.062439 36,000 162 427 -1536
2018-07-20 10:39:55 GMT 42.304276 3.057945 36,150 162 426 -1536
2018-07-20 10:39:52 GMT 42.309189 3.055860 36,325 162 425 -1600
2018-07-20 10:39:49 GMT 42.315536 3.053200 36,300 162 425 -1600
2018-07-20 10:39:44 GMT 42.326412 3.048642 36,450 162 424 -1600
2018-07-20 10:39:40 GMT 42.333908 3.045448 36,550 162 424 -1664
2018-07-20 10:39:37 GMT 42.337677 3.043916 36,675 162 424 -1664
2018-07-20 10:39:32 GMT 42.348896 3.039189 36,775 162 424 -1600
2018-07-20 10:39:29 GMT 42.354492 3.036783 36,850 162 424 -1472
2018-07-20 10:39:26 GMT 42.357513 3.035535 36,875 162 424 -1344
2018-07-20 10:39:23 GMT 42.363838 3.032865 36,950 162 424 -512
2018-07-20 10:39:20 GMT 42.369461 3.030479 36,975 162 424 -384
2018-07-20 10:39:17 GMT 42.375057 3.028075 37,000 162 424 0
2018-07-20 10:39:13 GMT 42.384430 3.024049 37,000 162 424 0
2018-07-20 10:39:10 GMT 42.388184 3.022489 37,000 162 425 0
2018-07-20 10:39:06 GMT 42.396423 3.018993 37,000 162 425 0
2018-07-20 10:39:03 GMT 42.401688 3.016746 37,000 162 425 0
2018-07-20 10:39:00 GMT 42.408463 3.013874 37,000 162 425 0
2018-07-20 10:38:56 GMT 42.416306 3.010509 37,000 162 425 0
2018-07-20 10:38:53 GMT 42.419331 3.009232 37,000 162 426 0
2018-07-20 10:38:50 GMT 42.425335 3.006677 37,000 162 426 0
2018-07-20 10:38:46 GMT 42.434319 3.002845 37,000 162 425 64
2018-07-20 10:38:43 GMT 42.438091 3.001248 37,000 163 425 64
2018-07-20 10:38:38 GMT 42.448242 2.997208 37,000 164 421 64
2018-07-20 10:38:33 GMT 42.459923 2.993136 37,000 168 417 64
2018-07-20 10:38:27 GMT 42.469746 2.990261 37,000 168 416 64
2018-07-20 10:38:22 GMT 42.477676 2.988219 37,000 170 414 64
2018-07-20 10:38:19 GMT 42.485229 2.986596 37,000 170 414 64
2018-07-20 10:38:16 GMT 42.490540 2.985535 37,000 173 410 0
2018-07-20 10:38:12 GMT 42.497677 2.984385 37,000 174 410 0
2018-07-20 10:38:06 GMT 42.508991 2.983044 37,000 176 406 0
2018-07-20 10:38:03 GMT 42.514996 2.982596 37,000 177 406 64
2018-07-20 10:37:59 GMT 42.521393 2.982226 37,000 178 405 64
2018-07-20 10:37:56 GMT 42.529984 2.982022 37,000 179 405 0
2018-07-20 10:37:53 GMT 42.534119 2.981914 37,000 179 405 0
2018-07-20 10:37:49 GMT 42.540115 2.981789 37,000 179 405 0
2018-07-20 10:37:44 GMT 42.550598 2.981540 37,000 179 406 -64
2018-07-20 10:37:41 GMT 42.555862 2.981415 37,000 179 406 0
2018-07-20 10:37:38 GMT 42.561859 2.981290 37,000 179 406 0
2018-07-20 10:37:34 GMT 42.568588 2.981165 37,000 179 406 0
2018-07-20 10:37:31 GMT 42.575745 2.981063 37,000 179 407 0
2018-07-20 10:37:27 GMT 42.581753 2.980936 37,000 179 407 0
2018-07-20 10:37:23 GMT 42.589291 2.980808 37,000 179 407 0
2018-07-20 10:37:20 GMT 42.595299 2.980616 37,000 179 407 -64
2018-07-20 10:37:15 GMT 42.604706 2.980416 37,000 179 408 -64
2018-07-20 10:37:11 GMT 42.613770 2.980229 37,000 179 408 -64
2018-07-20 10:37:05 GMT 42.623180 2.979978 37,000 179 408 0
2018-07-20 10:37:02 GMT 42.628830 2.979854 37,000 179 408 0
2018-07-20 10:36:59 GMT 42.635605 2.979729 37,000 179 408 0
2018-07-20 10:36:52 GMT 42.649578 2.979403 37,000 179 408 64
2018-07-20 10:36:49 GMT 42.655243 2.979230 37,000 179 408 64
2018-07-20 10:36:43 GMT 42.664661 2.979020 37,000 179 408 0
2018-07-20 10:36:39 GMT 42.672203 2.978828 37,000 179 408 0
2018-07-20 10:36:32 GMT 42.685005 2.978572 37,000 179 408 64
2018-07-20 10:36:29 GMT 42.692963 2.978356 37,000 179 408 64
2018-07-20 10:36:19 GMT 42.710701 2.977934 37,000 179 409 0
2018-07-20 10:36:13 GMT 42.721664 2.977669 37,000 179 409 0
2018-07-20 10:36:08 GMT 42.732239 2.977420 37,000 179 409 64
2018-07-20 10:36:00 GMT 42.745102 2.977108 37,000 179 409 64
2018-07-20 10:35:57 GMT 42.750782 2.976976 37,000 178 409 0
2018-07-20 10:35:53 GMT 42.758324 2.976784 37,000 178 409 0
2018-07-20 10:35:46 GMT 42.771217 2.976465 37,000 179 409 0
2018-07-20 10:35:38 GMT 42.787838 2.976081 37,000 179 409 0
2018-07-20 10:35:35 GMT 42.792400 2.975954 37,000 179 409 0
2018-07-20 10:35:27 GMT 42.809067 2.975570 37,000 178 410 64
2018-07-20 10:35:24 GMT 42.813217 2.975443 37,000 178 410 64
2018-07-20 10:35:20 GMT 42.821915 2.975202 37,000 178 410 64
2018-07-20 10:35:15 GMT 42.833321 2.974941 37,000 179 410 0
2018-07-20 10:35:06 GMT 42.849983 2.974548 37,000 179 410 0
2018-07-20 10:35:03 GMT 42.853409 2.974484 37,000 179 410 0
2018-07-20 10:34:59 GMT 42.861740 2.974357 37,000 179 411 0
2018-07-20 10:34:54 GMT 42.872360 2.974101 37,000 179 411 0
2018-07-20 10:34:51 GMT 42.877312 2.973960 37,000 179 411 0
2018-07-20 10:34:45 GMT 42.888718 2.973698 37,000 179 411 0
2018-07-20 10:34:42 GMT 42.894024 2.973567 37,000 179 411 0
2018-07-20 10:34:35 GMT 42.908844 2.973207 37,000 179 411 0
2018-07-20 10:34:31 GMT 42.914932 2.973079 37,000 179 411 0
2018-07-20 10:34:28 GMT 42.919464 2.972951 37,000 179 411 0
2018-07-20 10:34:25 GMT 42.927448 2.972783 37,000 179 411 0
2018-07-20 10:34:22 GMT 42.932011 2.972652 37,000 179 411 0
2018-07-20 10:34:19 GMT 42.936573 2.972586 37,000 179 411 0
2018-07-20 10:34:14 GMT 42.948769 2.972325 37,000 179 411 0
2018-07-20 10:34:09 GMT 42.957104 2.972129 37,000 179 411 64
2018-07-20 10:34:04 GMT 42.966972 2.971933 37,000 179 411 64
2018-07-20 10:34:00 GMT 42.973812 2.971802 37,000 179 412 64
2018-07-20 10:33:57 GMT 42.978374 2.971736 37,000 179 412 0
2018-07-20 10:33:53 GMT 42.988678 2.971482 37,000 179 412 0
2018-07-20 10:33:50 GMT 42.994389 2.971344 37,000 179 412 0
2018-07-20 10:33:44 GMT 43.005795 2.971082 37,000 179 412 0
2018-07-20 10:33:39 GMT 43.014175 2.970952 37,000 179 412 0
2018-07-20 10:33:36 GMT 43.017990 2.970821 37,000 179 412 0
2018-07-20 10:33:33 GMT 43.025986 2.970652 37,000 179 412 0
2018-07-20 10:33:30 GMT 43.031342 2.970588 37,000 179 412 0
2018-07-20 10:33:27 GMT 43.036652 2.970460 37,000 179 412 0
2018-07-20 10:33:22 GMT 43.047737 2.970167 37,000 179 413 0
2018-07-20 10:33:17 GMT 43.054962 2.970013 37,000 179 413 0
2018-07-20 10:33:13 GMT 43.063751 2.969840 37,000 179 413 0
2018-07-20 10:33:10 GMT 43.067917 2.969758 37,000 179 413 0
2018-07-20 10:33:05 GMT 43.077850 2.969566 37,000 179 413 0
2018-07-20 10:33:02 GMT 43.083939 2.969438 37,000 179 413 0
2018-07-20 10:32:59 GMT 43.088890 2.969317 37,000 179 413 0
2018-07-20 10:32:56 GMT 43.097317 2.969121 37,000 179 413 0
2018-07-20 10:32:50 GMT 43.107979 2.968924 37,000 179 413 0
2018-07-20 10:32:45 GMT 43.117149 2.968728 37,000 179 413 0
2018-07-20 10:32:39 GMT 43.128250 2.968480 37,000 179 413 0
2018-07-20 10:32:35 GMT 43.136627 2.968289 37,000 179 413 0
2018-07-20 10:32:32 GMT 43.140842 2.968205 37,000 179 413 0
2018-07-20 10:32:29 GMT 43.148479 2.968074 37,000 179 413 0
2018-07-20 10:32:25 GMT 43.154575 2.967943 37,000 179 413 0
2018-07-20 10:32:22 GMT 43.160294 2.967778 37,000 179 413 64
2018-07-20 10:32:18 GMT 43.167519 2.967616 37,000 179 413 64
2018-07-20 10:32:15 GMT 43.173615 2.967551 37,000 179 413 64
2018-07-20 10:32:11 GMT 43.180893 2.967394 37,000 179 413 0
2018-07-20 10:32:07 GMT 43.191166 2.967159 37,000 178 413 0
2018-07-20 10:32:03 GMT 43.195774 2.967028 37,000 178 413 0
2018-07-20 10:32:00 GMT 43.204155 2.966832 37,000 178 413 0
2018-07-20 10:31:56 GMT 43.209915 2.966692 37,000 178 413 64
2018-07-20 10:31:51 GMT 43.218678 2.966439 37,000 178 413 64
2018-07-20 10:31:45 GMT 43.233204 2.966047 37,000 178 413 0
2018-07-20 10:31:40 GMT 43.240093 2.965916 37,000 178 414 0
2018-07-20 10:31:35 GMT 43.252670 2.965542 37,000 178 414 0
2018-07-20 10:31:31 GMT 43.257645 2.965458 37,000 178 414 0
2018-07-20 10:31:27 GMT 43.265324 2.965262 37,000 178 414 0
2018-07-20 10:31:24 GMT 43.271423 2.965066 37,000 178 414 0
2018-07-20 10:31:21 GMT 43.277939 2.964903 37,000 178 414 0
2018-07-20 10:31:15 GMT 43.290554 2.964608 37,000 178 414 64
2018-07-20 10:31:09 GMT 43.298981 2.964347 37,000 178 414 64
2018-07-20 10:31:06 GMT 43.305080 2.964216 37,000 179 414 64
2018-07-20 10:31:03 GMT 43.310432 2.964085 37,000 179 414 64
2018-07-20 10:30:58 GMT 43.322678 2.963824 37,000 179 414 0
2018-07-20 10:30:54 GMT 43.330357 2.963627 37,000 179 414 0
2018-07-20 10:30:49 GMT 43.338783 2.963431 37,000 179 414 0
2018-07-20 10:30:46 GMT 43.345276 2.963243 37,000 179 414 0
2018-07-20 10:30:43 GMT 43.349121 2.963179 37,000 179 414 64
2018-07-20 10:30:38 GMT 43.359055 2.962923 37,000 179 414 64
2018-07-20 10:30:35 GMT 43.364059 2.962843 37,000 179 414 64
2018-07-20 10:30:32 GMT 43.370953 2.962646 37,000 178 415 0
2018-07-20 10:30:28 GMT 43.378586 2.962450 37,000 179 415 0
2018-07-20 10:30:25 GMT 43.384369 2.962285 37,000 179 415 0
2018-07-20 10:30:21 GMT 43.390877 2.962189 37,000 179 415 0
2018-07-20 10:30:17 GMT 43.398926 2.961965 37,000 179 415 0
2018-07-20 10:30:14 GMT 43.404282 2.961837 37,000 179 415 0
2018-07-20 10:30:10 GMT 43.413483 2.961646 37,000 179 415 0
2018-07-20 10:30:06 GMT 43.419617 2.961518 37,000 179 415 0
2018-07-20 10:30:00 GMT 43.432617 2.961263 37,000 179 415 0
2018-07-20 10:29:56 GMT 43.440685 2.961077 37,000 179 415 0
2018-07-20 10:29:53 GMT 43.447174 2.960879 37,000 179 415 0
2018-07-20 10:29:48 GMT 43.454086 2.960752 37,000 178 415 0
2018-07-20 10:29:42 GMT 43.468292 2.960358 37,000 178 415 64
2018-07-20 10:29:39 GMT 43.472111 2.960292 37,000 178 415 0
2018-07-20 10:29:35 GMT 43.481327 2.960031 37,000 178 415 0
2018-07-20 10:29:30 GMT 43.490158 2.959793 37,000 178 415 0
2018-07-20 10:29:27 GMT 43.495514 2.959666 37,000 178 415 0
2018-07-20 10:29:23 GMT 43.502426 2.959538 37,000 179 415 0
2018-07-20 10:29:20 GMT 43.510117 2.959346 37,000 179 415 64
2018-07-20 10:29:12 GMT 43.523163 2.959027 37,000 179 415 64
2018-07-20 10:29:08 GMT 43.531231 2.958854 37,000 179 415 64
2018-07-20 10:29:01 GMT 43.544678 2.958580 37,000 179 416 0
2018-07-20 10:28:58 GMT 43.550411 2.958461 37,000 179 416 0
2018-07-20 10:28:52 GMT 43.563080 2.958133 37,000 179 415 0
2018-07-20 10:28:49 GMT 43.569637 2.958003 37,000 179 415 0
2018-07-20 10:28:46 GMT 43.573452 2.957873 37,000 179 415 0
2018-07-20 10:28:41 GMT 43.583038 2.957686 37,000 179 415 0
2018-07-20 10:28:37 GMT 43.592632 2.957480 37,000 179 415 0
2018-07-20 10:28:31 GMT 43.602997 2.957238 37,000 179 415 0
2018-07-20 10:28:25 GMT 43.614883 2.956957 37,000 179 415 0
2018-07-20 10:28:20 GMT 43.624466 2.956791 37,000 179 415 0
2018-07-20 10:28:14 GMT 43.635956 2.956472 37,000 179 415 0
2018-07-20 10:28:10 GMT 43.643284 2.956303 37,000 179 415 0
2018-07-20 10:28:05 GMT 43.656693 2.956025 37,000 179 415 0
2018-07-20 10:28:02 GMT 43.658596 2.955976 37,000 179 415 0
2018-07-20 10:27:57 GMT 43.667767 2.955780 37,000 179 415 0
2018-07-20 10:27:53 GMT 43.677731 2.955518 37,000 178 415 0
2018-07-20 10:27:48 GMT 43.684666 2.955322 37,000 178 415 0
2018-07-20 10:27:41 GMT 43.698074 2.955003 37,000 178 415 0
2018-07-20 10:27:38 GMT 43.704208 2.954811 37,000 178 415 0
2018-07-20 10:27:35 GMT 43.709202 2.954734 37,000 178 415 0
2018-07-20 10:27:30 GMT 43.720699 2.954407 37,000 179 415 64
2018-07-20 10:27:27 GMT 43.725307 2.954341 37,000 179 415 64
2018-07-20 10:27:23 GMT 43.734100 2.954109 37,000 179 415 64
2018-07-20 10:27:17 GMT 43.743694 2.953884 37,000 179 415 0
2018-07-20 10:27:14 GMT 43.749435 2.953789 37,000 179 415 0
2018-07-20 10:27:10 GMT 43.757904 2.953598 37,000 178 415 0
2018-07-20 10:27:05 GMT 43.766327 2.953406 37,000 179 415 0
2018-07-20 10:27:02 GMT 43.774418 2.953230 37,000 179 415 0
2018-07-20 10:26:55 GMT 43.786709 2.952968 37,000 179 416 0
2018-07-20 10:26:52 GMT 43.794392 2.952837 37,000 179 416 0
2018-07-20 10:26:46 GMT 43.803223 2.952640 37,000 179 416 0
2018-07-20 10:26:42 GMT 43.811291 2.952445 37,000 179 416 0
2018-07-20 10:26:37 GMT 43.821671 2.952256 37,000 179 416 0
2018-07-20 10:26:32 GMT 43.830872 2.952001 37,000 178 417 0
2018-07-20 10:26:27 GMT 43.840523 2.951791 37,000 178 417 0
2018-07-20 10:26:24 GMT 43.847076 2.951618 37,000 178 419 0
2018-07-20 10:26:21 GMT 43.851700 2.951490 37,000 178 417 0
2018-07-20 10:26:17 GMT 43.859390 2.951298 37,000 178 417 0
2018-07-20 10:26:13 GMT 43.867126 2.951043 37,000 178 418 0
2018-07-20 10:26:09 GMT 43.874458 2.950875 37,000 178 418 0
2018-07-20 10:26:00 GMT 43.893402 2.950340 37,000 178 419 0
2018-07-20 10:25:56 GMT 43.900360 2.950148 37,000 178 419 0
2018-07-20 10:25:51 GMT 43.909233 2.949960 37,000 178 419 0
2018-07-20 10:25:48 GMT 43.916218 2.949764 37,000 178 419 0
2018-07-20 10:25:41 GMT 43.928646 2.949437 37,000 179 419 0
2018-07-20 10:25:38 GMT 43.935196 2.949254 37,000 179 419 0
2018-07-20 10:25:35 GMT 43.943356 2.949110 37,000 179 419 0
2018-07-20 10:25:30 GMT 43.950714 2.948935 37,000 179 419 0
2018-07-20 10:25:27 GMT 43.956116 2.948807 37,000 179 419 0
2018-07-20 10:25:23 GMT 43.966187 2.948615 37,000 179 419 0
2018-07-20 10:25:20 GMT 43.970078 2.948488 37,000 179 419 0
2018-07-20 10:25:13 GMT 43.986328 2.948168 37,000 179 419 0
2018-07-20 10:25:09 GMT 43.990952 2.948105 37,000 179 418 0
2018-07-20 10:25:04 GMT 44.001801 2.947849 37,000 179 418 0
2018-07-20 10:24:59 GMT 44.011463 2.947671 37,000 179 418 0
2018-07-20 10:24:53 GMT 44.021851 2.947466 37,000 179 418 64
2018-07-20 10:24:48 GMT 44.032272 2.947213 37,000 179 418 0
2018-07-20 10:24:43 GMT 44.041946 2.947019 37,000 179 417 0
2018-07-20 10:24:37 GMT 44.052750 2.946763 37,000 179 417 0
2018-07-20 10:24:32 GMT 44.063507 2.946508 37,000 179 417 0
2018-07-20 10:24:25 GMT 44.079288 2.946232 37,000 179 417 0
2018-07-20 10:24:21 GMT 44.083153 2.946167 37,000 179 416 0
2018-07-20 10:24:14 GMT 44.098560 2.945840 37,000 179 416 0
2018-07-20 10:24:10 GMT 44.104294 2.945677 37,000 179 416 0
2018-07-20 10:24:06 GMT 44.113541 2.945486 37,000 179 416 64
2018-07-20 10:24:03 GMT 44.121231 2.945294 37,000 179 415 64
2018-07-20 10:24:00 GMT 44.125076 2.945230 37,000 179 415 64
2018-07-20 10:23:54 GMT 44.135010 2.944975 37,000 179 415 0
2018-07-20 10:23:48 GMT 44.147324 2.944719 37,000 179 415 0
2018-07-20 10:23:44 GMT 44.154610 2.944532 37,000 179 415 0
2018-07-20 10:23:38 GMT 44.166855 2.944271 37,000 179 414 0
2018-07-20 10:23:33 GMT 44.175282 2.944074 37,000 179 414 0
2018-07-20 10:23:26 GMT 44.192085 2.943682 37,000 179 414 0
2018-07-20 10:23:23 GMT 44.195526 2.943551 37,000 179 414 0
2018-07-20 10:23:15 GMT 44.210037 2.943224 37,000 178 413 64
2018-07-20 10:23:12 GMT 44.216526 2.943063 37,000 178 413 0
2018-07-20 10:23:02 GMT 44.235611 2.942527 37,000 178 413 0
2018-07-20 10:22:54 GMT 44.250504 2.942113 37,000 178 412 0
2018-07-20 10:22:49 GMT 44.263077 2.941790 37,000 178 413 0
2018-07-20 10:22:43 GMT 44.272247 2.941522 37,000 178 412 64
2018-07-20 10:22:38 GMT 44.282166 2.941254 37,000 178 412 64
2018-07-20 10:22:30 GMT 44.295456 2.940870 37,000 178 412 0
2018-07-20 10:22:25 GMT 44.308792 2.940451 37,000 178 412 0
2018-07-20 10:22:20 GMT 44.314892 2.940317 37,000 178 411 64
2018-07-20 10:22:14 GMT 44.329323 2.939982 37,000 179 411 64
2018-07-20 10:22:10 GMT 44.335007 2.939824 37,000 179 411 64
2018-07-20 10:22:00 GMT 44.354004 2.939431 37,000 179 411 0
2018-07-20 10:21:49 GMT 44.374512 2.938908 37,000 179 411 0
2018-07-20 10:21:38 GMT 44.394241 2.938450 37,000 179 411 64
2018-07-20 10:21:27 GMT 44.416607 2.937972 37,000 179 411 0
2018-07-20 10:21:23 GMT 44.424591 2.937731 37,000 179 411 0
2018-07-20 10:21:18 GMT 44.433319 2.937570 37,000 179 410 0
2018-07-20 10:21:15 GMT 44.440521 2.937404 37,000 179 410 0
2018-07-20 10:21:06 GMT 44.456036 2.937101 37,000 179 409 64
2018-07-20 10:20:59 GMT 44.471214 2.936766 37,000 179 410 64
2018-07-20 10:20:56 GMT 44.474983 2.936699 37,000 179 409 64
2018-07-20 10:20:51 GMT 44.485550 2.936498 37,000 179 409 0
2018-07-20 10:20:41 GMT 44.510147 2.935965 37,000 179 409 64
2018-07-20 10:20:34 GMT 44.515808 2.935828 37,000 178 409 0
2018-07-20 10:20:27 GMT 44.532852 2.935377 37,000 178 409 0
2018-07-20 10:20:22 GMT 44.538483 2.935225 37,000 178 409 0
2018-07-20 10:20:15 GMT 44.554356 2.934823 37,000 178 409 0
2018-07-20 10:20:12 GMT 44.557800 2.934723 37,000 178 409 0
2018-07-20 10:20:04 GMT 44.577438 2.934134 37,000 178 409 0
2018-07-20 10:20:01 GMT 44.579308 2.934086 37,000 178 409 0
2018-07-20 10:19:49 GMT 44.600441 2.933484 37,000 178 408 64
2018-07-20 10:19:46 GMT 44.606445 2.933283 37,000 178 408 64
2018-07-20 10:19:39 GMT 44.622665 2.932892 37,000 179 408 64
2018-07-20 10:19:31 GMT 44.635483 2.932630 37,000 179 408 64
2018-07-20 10:19:28 GMT 44.644901 2.932345 37,000 179 408 64
2018-07-20 10:19:20 GMT 44.655029 2.932107 37,000 179 407 0
2018-07-20 10:19:17 GMT 44.660683 2.932010 37,000 179 407 0
2018-07-20 10:19:14 GMT 44.668221 2.931809 37,000 179 407 0
2018-07-20 10:19:10 GMT 44.674622 2.931649 37,000 179 407 0
2018-07-20 10:19:06 GMT 44.681396 2.931519 37,000 179 407 0
2018-07-20 10:19:03 GMT 44.689308 2.931340 37,000 179 407 0
2018-07-20 10:18:58 GMT 44.697552 2.931206 37,000 179 407 0
2018-07-20 10:18:55 GMT 44.702812 2.931072 37,000 179 407 64
2018-07-20 10:18:48 GMT 44.715611 2.930804 37,000 179 406 64
2018-07-20 10:18:44 GMT 44.722733 2.930668 37,000 179 407 0
2018-07-20 10:18:39 GMT 44.735504 2.930341 37,000 179 407 0
2018-07-20 10:18:36 GMT 44.737350 2.930268 37,000 179 407 0
2018-07-20 10:18:32 GMT 44.746033 2.930080 37,000 179 407 0
2018-07-20 10:18:25 GMT 44.758392 2.929732 37,000 178 407 0
2018-07-20 10:18:22 GMT 44.764023 2.929622 37,000 178 407 0
2018-07-20 10:18:15 GMT 44.778690 2.929263 37,000 179 407 0
2018-07-20 10:18:12 GMT 44.784348 2.929099 37,000 179 407 0
2018-07-20 10:18:06 GMT 44.794876 2.928837 37,000 179 407 0
2018-07-20 10:18:01 GMT 44.804249 2.928593 37,000 179 407 0
2018-07-20 10:17:57 GMT 44.811790 2.928459 37,000 179 407 0
2018-07-20 10:17:53 GMT 44.818909 2.928249 37,000 179 407 0
2018-07-20 10:17:46 GMT 44.831726 2.927987 37,000 179 407 0
2018-07-20 10:17:42 GMT 44.839233 2.927791 37,000 179 407 0
2018-07-20 10:17:39 GMT 44.844887 2.927655 37,000 179 407 0
2018-07-20 10:17:36 GMT 44.851639 2.927455 37,000 179 407 0
2018-07-20 10:17:32 GMT 44.858780 2.927333 37,000 179 407 0
2018-07-20 10:17:28 GMT 44.865555 2.927137 37,000 178 408 0
2018-07-20 10:17:21 GMT 44.879150 2.926810 37,000 178 408 64
2018-07-20 10:17:17 GMT 44.887066 2.926584 37,000 178 408 64
2018-07-20 10:17:10 GMT 44.900253 2.926222 37,000 179 408 0
2018-07-20 10:17:07 GMT 44.905918 2.926115 37,000 179 408 0
2018-07-20 10:17:03 GMT 44.912666 2.925914 37,000 179 408 0
2018-07-20 10:17:00 GMT 44.919464 2.925780 37,000 179 408 0
2018-07-20 10:16:54 GMT 44.931198 2.925502 37,000 179 409 0
2018-07-20 10:16:50 GMT 44.938751 2.925306 37,000 179 409 0
2018-07-20 10:16:43 GMT 44.950420 2.925043 37,000 179 409 0
2018-07-20 10:16:39 GMT 44.958755 2.924842 37,000 179 409 64
2018-07-20 10:16:33 GMT 44.969696 2.924587 37,000 179 409 64
2018-07-20 10:16:29 GMT 44.977654 2.924373 37,000 179 410 64
2018-07-20 10:16:23 GMT 44.989014 2.924105 37,000 178 410 0
2018-07-20 10:16:18 GMT 44.998489 2.923867 37,000 178 410 0
2018-07-20 10:16:13 GMT 45.008705 2.923569 37,000 179 410 0
2018-07-20 10:16:07 GMT 45.020065 2.923301 37,000 179 410 0
2018-07-20 10:16:04 GMT 45.026859 2.923167 37,000 179 410 0
2018-07-20 10:16:01 GMT 45.030678 2.923033 37,000 179 410 0
2018-07-20 10:15:56 GMT 45.039368 2.922886 37,000 179 410 0
2018-07-20 10:15:52 GMT 45.048832 2.922631 37,000 179 410 0
2018-07-20 10:15:49 GMT 45.053394 2.922497 37,000 179 410 0
2018-07-20 10:15:40 GMT 45.069317 2.922162 37,000 179 410 0
2018-07-20 10:15:35 GMT 45.079884 2.921894 37,000 178 410 0
2018-07-20 10:15:29 GMT 45.092777 2.921559 37,000 178 410 0
2018-07-20 10:15:17 GMT 45.113216 2.921023 37,000 179 409 0
2018-07-20 10:15:08 GMT 45.130966 2.920532 37,000 179 409 0
2018-07-20 10:15:03 GMT 45.140030 2.920336 37,000 179 409 0
2018-07-20 10:14:53 GMT 45.158981 2.919878 37,000 179 409 64
2018-07-20 10:14:45 GMT 45.174477 2.919483 37,000 179 409 0
2018-07-20 10:14:39 GMT 45.185837 2.919215 37,000 179 409 0
2018-07-20 10:14:34 GMT 45.195282 2.919028 37,000 179 409 0
2018-07-20 10:14:28 GMT 45.207367 2.918701 37,000 179 409 64
2018-07-20 10:14:23 GMT 45.216839 2.918478 37,000 179 409 64
2018-07-20 10:14:17 GMT 45.228153 2.918210 37,000 179 410 0
2018-07-20 10:14:13 GMT 45.234604 2.918047 37,000 179 410 0
2018-07-20 10:14:05 GMT 45.251999 2.917655 37,000 179 410 0
2018-07-20 10:14:00 GMT 45.260330 2.917459 37,000 179 410 0
2018-07-20 10:13:51 GMT 45.276611 2.917004 37,000 179 410 0
2018-07-20 10:13:43 GMT 45.293655 2.916609 37,000 179 410 0
2018-07-20 10:13:39 GMT 45.299332 2.916468 37,000 179 411 0
2018-07-20 10:13:33 GMT 45.311096 2.916151 37,000 179 412 0
2018-07-20 10:13:21 GMT 45.332802 2.915664 37,000 178 413 64
2018-07-20 10:13:16 GMT 45.343464 2.915329 37,000 178 413 0
2018-07-20 10:13:10 GMT 45.354538 2.915039 37,000 178 414 0
2018-07-20 10:13:07 GMT 45.361057 2.914860 37,000 178 415 0
2018-07-20 10:13:02 GMT 45.369484 2.914659 37,000 178 415 -64
2018-07-20 10:12:59 GMT 45.375229 2.914516 37,000 178 415 -64
2018-07-20 10:12:56 GMT 45.382141 2.914320 37,000 178 415 -64
2018-07-20 10:12:51 GMT 45.393227 2.914057 37,000 179 415 0
2018-07-20 10:12:45 GMT 45.402443 2.913789 37,000 179 416 64
2018-07-20 10:12:38 GMT 45.417805 2.913454 37,000 179 416 64
2018-07-20 10:12:35 GMT 45.422012 2.913339 37,000 179 416 64
2018-07-20 10:12:30 GMT 45.430481 2.913143 37,000 179 416 0
2018-07-20 10:12:26 GMT 45.440105 2.912918 37,000 179 416 0
2018-07-20 10:12:23 GMT 45.444305 2.912750 37,000 179 416 0
2018-07-20 10:12:19 GMT 45.451649 2.912583 37,000 179 416 0
2018-07-20 10:12:13 GMT 45.462799 2.912292 37,000 179 416 0
2018-07-20 10:12:08 GMT 45.473156 2.912047 37,000 179 416 0
2018-07-20 10:12:03 GMT 45.483536 2.911769 37,000 179 416 0
2018-07-20 10:11:59 GMT 45.490494 2.911639 37,000 179 416 0
2018-07-20 10:11:50 GMT 45.508537 2.911176 37,000 179 416 0
2018-07-20 10:11:47 GMT 45.515472 2.910975 37,000 178 416 0
2018-07-20 10:11:43 GMT 45.523155 2.910774 37,000 178 416 0
2018-07-20 10:11:39 GMT 45.529301 2.910640 37,000 178 416 64
2018-07-20 10:11:35 GMT 45.536591 2.910461 37,000 178 416 0
2018-07-20 10:11:28 GMT 45.551147 2.910037 37,000 178 415 0
2018-07-20 10:11:24 GMT 45.558441 2.909866 37,000 178 415 0
2018-07-20 10:11:20 GMT 45.565750 2.909635 37,000 179 415 0
2018-07-20 10:11:17 GMT 45.572266 2.909454 37,000 179 414 0
2018-07-20 10:11:12 GMT 45.584511 2.909180 37,000 179 414 0
2018-07-20 10:11:07 GMT 45.592888 2.908974 37,000 179 413 64
2018-07-20 10:11:02 GMT 45.603973 2.908697 37,000 179 413 0
2018-07-20 10:10:57 GMT 45.608952 2.908562 37,000 179 413 0
2018-07-20 10:10:54 GMT 45.615791 2.908424 37,000 179 412 0
2018-07-20 10:10:48 GMT 45.626862 2.908161 37,000 179 412 0
2018-07-20 10:10:45 GMT 45.634460 2.908027 37,000 179 412 0
2018-07-20 10:10:42 GMT 45.638260 2.907960 37,000 179 411 64
2018-07-20 10:10:35 GMT 45.653080 2.907600 37,000 179 411 0
2018-07-20 10:10:31 GMT 45.658768 2.907492 37,000 179 410 0
2018-07-20 10:10:24 GMT 45.673920 2.907090 37,000 179 409 0
2018-07-20 10:10:21 GMT 45.678825 2.906982 37,000 179 409 0
2018-07-20 10:10:13 GMT 45.693558 2.906621 37,000 178 408 0
2018-07-20 10:10:10 GMT 45.698822 2.906420 37,000 178 408 0
2018-07-20 10:10:03 GMT 45.713554 2.906090 37,000 178 408 0
2018-07-20 10:09:56 GMT 45.725609 2.905746 37,000 178 408 0
2018-07-20 10:09:52 GMT 45.733105 2.905540 37,000 178 407 64
2018-07-20 10:09:48 GMT 45.739902 2.905334 37,000 178 407 64
2018-07-20 10:09:40 GMT 45.754578 2.904946 37,000 178 407 0
2018-07-20 10:09:33 GMT 45.768482 2.904579 37,000 178 407 0
2018-07-20 10:09:29 GMT 45.776367 2.904343 37,000 179 407 64
2018-07-20 10:09:20 GMT 45.792553 2.903961 37,000 179 407 64
2018-07-20 10:09:16 GMT 45.799667 2.903807 37,000 179 407 64
2018-07-20 10:09:08 GMT 45.815876 2.903412 37,000 179 408 64
2018-07-20 10:09:05 GMT 45.821136 2.903275 37,000 179 408 64
2018-07-20 10:09:00 GMT 45.830566 2.903070 37,000 179 408 0
2018-07-20 10:08:57 GMT 45.838451 2.902931 37,000 179 408 0
2018-07-20 10:08:53 GMT 45.842968 2.902863 37,000 179 408 0
2018-07-20 10:08:49 GMT 45.851669 2.902802 37,000 179 408 0
2018-07-20 10:08:46 GMT 45.856560 2.902725 37,000 166 424 0
2018-07-20 10:08:41 GMT 45.865997 2.902668 37,000 179 409 0
2018-07-20 10:08:38 GMT 45.873180 2.902451 37,000 178 410 0
2018-07-20 10:08:34 GMT 45.879230 2.902176 37,000 176 411 0
2018-07-20 10:08:31 GMT 45.885681 2.901596 37,000 175 413 64
2018-07-20 10:08:28 GMT 45.891430 2.900871 37,000 174 415 0
2018-07-20 10:08:23 GMT 45.900192 2.899520 37,000 172 416 0
2018-07-20 10:08:16 GMT 45.913540 2.896477 37,000 168 422 0
2018-07-20 10:08:11 GMT 45.923859 2.893357 37,000 167 423 0
2018-07-20 10:08:06 GMT 45.936035 2.889270 37,000 166 424 0
2018-07-20 10:08:01 GMT 45.942902 2.886993 37,000 166 424 0
2018-07-20 10:07:57 GMT 45.950176 2.884529 37,000 166 424 0
2018-07-20 10:07:49 GMT 45.965790 2.879289 37,000 166 424 0
2018-07-20 10:07:46 GMT 45.970367 2.877748 37,000 166 424 64
2018-07-20 10:07:43 GMT 45.977280 2.875470 37,000 166 424 64
2018-07-20 10:07:37 GMT 45.988350 2.871758 37,000 166 424 64
2018-07-20 10:07:33 GMT 45.995983 2.869217 37,000 166 424 64
2018-07-20 10:07:27 GMT 46.007858 2.865288 37,000 166 424 0
2018-07-20 10:07:24 GMT 46.012436 2.863747 37,000 166 425 0
2018-07-20 10:07:21 GMT 46.019348 2.861470 37,000 166 425 64
2018-07-20 10:07:14 GMT 46.031971 2.857201 37,000 166 425 0
2018-07-20 10:07:03 GMT 46.053818 2.849947 37,000 166 425 0
2018-07-20 10:06:56 GMT 46.066086 2.845928 37,000 167 425 0
2018-07-20 10:06:53 GMT 46.073402 2.843536 37,000 167 426 64
2018-07-20 10:06:48 GMT 46.082619 2.840515 37,000 167 426 64
2018-07-20 10:06:42 GMT 46.092957 2.837085 37,000 167 428 64
2018-07-20 10:06:37 GMT 46.104126 2.833443 37,000 167 426 0
2018-07-20 10:06:31 GMT 46.114517 2.829984 37,000 167 426 0
2018-07-20 10:06:25 GMT 46.127216 2.825821 37,000 167 427 0
2018-07-20 10:06:21 GMT 46.134895 2.823280 37,000 167 427 0
2018-07-20 10:06:13 GMT 46.149124 2.818663 37,000 167 427 64
2018-07-20 10:06:10 GMT 46.154526 2.816921 37,000 167 427 0
2018-07-20 10:06:06 GMT 46.162216 2.814376 37,000 167 427 0
2018-07-20 10:06:00 GMT 46.174576 2.810423 37,000 167 427 0
2018-07-20 10:05:50 GMT 46.194580 2.804059 37,000 167 427 -64
2018-07-20 10:05:46 GMT 46.201538 2.801849 37,000 167 428 0
2018-07-20 10:05:39 GMT 46.215454 2.797494 37,000 167 427 0
2018-07-20 10:05:35 GMT 46.223534 2.794922 37,000 167 427 0
2018-07-20 10:05:28 GMT 46.235916 2.791077 37,000 167 427 0
2018-07-20 10:05:24 GMT 46.243240 2.788786 37,000 167 427 0
2018-07-20 10:05:17 GMT 46.257156 2.784431 37,000 167 427 0
2018-07-20 10:05:13 GMT 46.265625 2.781819 37,000 167 427 0
2018-07-20 10:05:07 GMT 46.277252 2.778201 37,000 167 427 64
2018-07-20 10:05:00 GMT 46.290752 2.774048 37,000 168 428 0
2018-07-20 10:04:57 GMT 46.296944 2.772125 37,000 168 428 0
2018-07-20 10:04:53 GMT 46.303928 2.769997 37,000 168 428 0
2018-07-20 10:04:50 GMT 46.310120 2.768074 37,000 168 428 0
2018-07-20 10:04:45 GMT 46.318638 2.765533 37,000 168 428 0
2018-07-20 10:04:38 GMT 46.332962 2.761186 37,000 168 428 0
2018-07-20 10:04:34 GMT 46.343033 2.758305 37,000 168 427 -64
2018-07-20 10:04:31 GMT 46.346523 2.757362 37,000 169 427 0
2018-07-20 10:04:26 GMT 46.358208 2.754616 37,000 174 423 64
2018-07-20 10:04:23 GMT 46.362072 2.753998 37,000 172 426 0
2018-07-20 10:04:15 GMT 46.378456 2.751801 37,000 172 426 0
2018-07-20 10:04:06 GMT 46.394485 2.748659 37,000 170 430 0
2018-07-20 10:04:03 GMT 46.401920 2.746857 37,000 170 429 0
2018-07-20 10:03:58 GMT 46.412861 2.744179 37,000 170 429 0
2018-07-20 10:03:53 GMT 46.421082 2.742161 37,000 170 430 0
2018-07-20 10:03:46 GMT 46.434834 2.738823 37,000 170 430 0
2018-07-20 10:03:41 GMT 46.443443 2.736763 37,000 170 430 0
2018-07-20 10:03:38 GMT 46.450104 2.735194 37,000 170 430 64
2018-07-20 10:03:35 GMT 46.455223 2.733948 37,000 170 430 0
2018-07-20 10:03:31 GMT 46.463470 2.731978 37,000 170 430 64
2018-07-20 10:03:27 GMT 46.472492 2.729828 37,000 170 430 0
2018-07-20 10:03:24 GMT 46.477985 2.728455 37,000 170 430 0
2018-07-20 10:03:20 GMT 46.485855 2.726601 37,000 170 430 0
2018-07-20 10:03:13 GMT 46.499168 2.723373 37,000 170 430 0
2018-07-20 10:03:10 GMT 46.505451 2.721863 37,000 170 430 0
2018-07-20 10:03:01 GMT 46.522339 2.717776 37,000 170 430 64
2018-07-20 10:02:58 GMT 46.528217 2.716370 37,000 170 430 0
2018-07-20 10:02:53 GMT 46.539204 2.713760 37,000 170 430 0
2018-07-20 10:02:48 GMT 46.547424 2.711747 37,000 170 429 64
2018-07-20 10:02:42 GMT 46.560745 2.708599 37,000 170 429 0
2018-07-20 10:02:39 GMT 46.565460 2.707460 37,000 170 429 64
2018-07-20 10:02:36 GMT 46.572117 2.705933 37,000 170 429 64
2018-07-20 10:02:26 GMT 46.591324 2.701364 37,000 170 429 0
2018-07-20 10:02:21 GMT 46.601864 2.698860 37,000 170 429 64
2018-07-20 10:02:15 GMT 46.612473 2.696340 37,000 170 429 0
2018-07-20 10:02:10 GMT 46.623413 2.693727 37,000 170 429 0
2018-07-20 10:02:07 GMT 46.628906 2.692387 37,000 170 429 0
2018-07-20 10:02:03 GMT 46.635956 2.690780 37,000 170 429 0
2018-07-20 10:02:00 GMT 46.644562 2.688703 37,000 170 428 64
2018-07-20 10:01:57 GMT 46.648834 2.687668 37,000 170 429 64
2018-07-20 10:01:49 GMT 46.664108 2.683947 37,000 170 429 0
2018-07-20 10:01:45 GMT 46.670761 2.682381 37,000 170 429 0
2018-07-20 10:01:39 GMT 46.684074 2.679153 37,000 170 428 0
2018-07-20 10:01:35 GMT 46.690704 2.677516 37,000 170 428 0
2018-07-20 10:01:28 GMT 46.704803 2.674166 37,000 170 428 0
2018-07-20 10:01:24 GMT 46.712631 2.672290 37,000 170 428 0
2018-07-20 10:01:19 GMT 46.723179 2.669746 37,000 170 428 -64
2018-07-20 10:01:15 GMT 46.732536 2.667480 37,000 170 428 -64
2018-07-20 10:01:10 GMT 46.739182 2.665859 37,000 170 428 0
2018-07-20 10:01:06 GMT 46.748566 2.663582 37,000 170 428 0
2018-07-20 10:01:02 GMT 46.755997 2.661781 37,000 170 428 0
2018-07-20 10:00:59 GMT 46.761108 2.660567 37,000 170 428 0
2018-07-20 10:00:55 GMT 46.770447 2.658289 37,000 170 428 0
2018-07-20 10:00:52 GMT 46.775551 2.657043 37,000 170 427 -64
2018-07-20 10:00:44 GMT 46.790771 2.653399 37,000 170 428 0
2018-07-20 10:00:41 GMT 46.797428 2.651756 37,000 170 427 -64
2018-07-20 10:00:32 GMT 46.814941 2.647504 37,025 170 427 -64
2018-07-20 10:00:24 GMT 46.830551 2.643686 37,025 170 427 0
2018-07-20 10:00:21 GMT 46.835999 2.642346 37,025 170 425 832
2018-07-20 10:00:09 GMT 46.859299 2.636652 36,975 170 425 896
2018-07-20 10:00:03 GMT 46.870926 2.633835 36,825 170 425 896
2018-07-20 10:00:00 GMT 46.875595 2.632736 36,675 170 425 1024
2018-07-20 09:59:57 GMT 46.882198 2.631085 36,800 170 425 1024
2018-07-20 09:59:50 GMT 46.896118 2.627704 36,675 170 425 1024
2018-07-20 09:59:45 GMT 46.906219 2.625239 36,600 170 425 1088
2018-07-20 09:59:38 GMT 46.918213 2.622299 36,500 170 425 960
2018-07-20 09:59:33 GMT 46.927914 2.619887 36,425 170 425 1024
2018-07-20 09:59:28 GMT 46.938400 2.617355 36,275 170 425 832
2018-07-20 09:59:24 GMT 46.945744 2.615521 36,275 170 425 832
2018-07-20 09:59:20 GMT 46.953094 2.613785 36,250 170 424 640
2018-07-20 09:59:17 GMT 46.960052 2.612068 36,200 170 423 960
2018-07-20 09:59:10 GMT 46.973969 2.608704 36,075 170 423 832
2018-07-20 09:59:06 GMT 46.981312 2.606858 36,025 170 422 960
2018-07-20 09:58:58 GMT 46.995529 2.603416 35,875 170 421 1024
2018-07-20 09:58:55 GMT 47.001709 2.601906 35,875 170 422 896
2018-07-20 09:58:47 GMT 47.017868 2.597923 35,075 170 423 1728
2018-07-20 09:58:44 GMT 47.022446 2.596825 35,700 170 420 896
2018-07-20 09:58:37 GMT 47.036270 2.593391 35,600 170 420 1024
2018-07-20 09:58:34 GMT 47.043182 2.591675 35,550 170 420 960
2018-07-20 09:58:27 GMT 47.056183 2.588516 35,425 170 419 960
2018-07-20 09:58:23 GMT 47.063095 2.586800 35,375 170 419 960
2018-07-20 09:58:13 GMT 47.082916 2.581993 35,225 170 418 960
2018-07-20 09:58:06 GMT 47.097427 2.578560 35,100 170 417 1152
2018-07-20 09:58:01 GMT 47.105804 2.576500 34,975 170 417 1152
2018-07-20 09:57:56 GMT 47.114914 2.574303 34,925 170 417 1216
2018-07-20 09:57:52 GMT 47.123291 2.572243 34,850 170 417 1408
2018-07-20 09:57:48 GMT 47.129765 2.570660 34,775 170 417 1408
2018-07-20 09:57:44 GMT 47.138145 2.568618 34,650 170 417 1536
2018-07-20 09:57:39 GMT 47.146866 2.566544 34,550 170 418 1600
2018-07-20 09:57:35 GMT 47.154903 2.564603 34,425 170 418 1664
2018-07-20 09:57:32 GMT 47.162537 2.562702 34,325 170 419 1536
2018-07-20 09:57:28 GMT 47.168243 2.561325 34,200 170 419 1536
2018-07-20 09:57:25 GMT 47.172821 2.560158 34,200 170 419 1536
2018-07-20 09:57:22 GMT 47.179733 2.558510 34,100 170 419 1536
2018-07-20 09:57:18 GMT 47.190048 2.555941 33,975 170 421 1792
2018-07-20 09:57:14 GMT 47.195450 2.554673 33,800 170 421 1792
2018-07-20 09:57:10 GMT 47.201935 2.553017 33,800 170 421 1792
2018-07-20 09:57:06 GMT 47.210022 2.551082 33,675 170 422 1728
2018-07-20 09:57:02 GMT 47.218872 2.548897 33,550 170 423 1728
2018-07-20 09:56:57 GMT 47.227757 2.546715 33,225 170 423 1664
2018-07-20 09:56:50 GMT 47.240479 2.543541 33,225 170 423 1664
2018-07-20 09:56:46 GMT 47.249771 2.541275 33,100 170 425 1856
2018-07-20 09:56:40 GMT 47.261398 2.538391 32,925 170 426 1856
2018-07-20 09:56:35 GMT 47.270306 2.536152 32,775 170 426 1856
2018-07-20 09:56:25 GMT 47.289810 2.531363 32,475 170 429 1792
2018-07-20 09:56:22 GMT 47.295639 2.529877 32,375 170 429 1792
2018-07-20 09:56:19 GMT 47.302288 2.528264 32,275 170 430 1856
2018-07-20 09:56:12 GMT 47.314857 2.525095 32,050 170 431 1856
2018-07-20 09:56:09 GMT 47.321503 2.523422 31,975 170 431 1856
2018-07-20 09:56:03 GMT 47.333664 2.520376 31,800 170 432 1920
2018-07-20 09:56:00 GMT 47.341141 2.518478 31,675 170 435 1984
2018-07-20 09:55:57 GMT 47.345490 2.517418 31,600 170 433 1984
2018-07-20 09:55:51 GMT 47.356155 2.514771 31,425 170 434 1984
2018-07-20 09:55:48 GMT 47.362850 2.513052 31,325 170 435 1984
2018-07-20 09:55:42 GMT 47.374374 2.510170 31,125 170 435 1984
2018-07-20 09:55:38 GMT 47.383072 2.507973 37,975 170 437 2048
2018-07-20 09:55:31 GMT 47.397400 2.504402 30,750 170 437 1984
2018-07-20 09:55:27 GMT 47.402985 2.503029 30,650 170 438 2048
2018-07-20 09:55:20 GMT 47.418137 2.499184 30,400 170 440 1984
2018-07-20 09:55:15 GMT 47.427750 2.496780 30,250 170 440 1984
2018-07-20 09:55:11 GMT 47.436584 2.494583 30,025 170 440 1472
2018-07-20 09:55:06 GMT 47.445374 2.492386 29,925 170 440 1536
2018-07-20 09:55:02 GMT 47.455032 2.489983 29,850 170 440 1536
2018-07-20 09:54:59 GMT 47.459400 2.488896 29,675 170 440 1536
2018-07-20 09:54:53 GMT 47.473042 2.485445 29,650 170 439 1536
2018-07-20 09:54:47 GMT 47.483826 2.482773 29,375 170 438 1536
2018-07-20 09:54:42 GMT 47.493801 2.480304 29,350 170 439 1472
2018-07-20 09:54:39 GMT 47.500626 2.478584 29,300 170 438 1536
2018-07-20 09:54:36 GMT 47.506989 2.477005 29,225 170 438 1536
2018-07-20 09:54:28 GMT 47.522964 2.473022 29,025 170 437 1536
2018-07-20 09:54:25 GMT 47.527725 2.471786 28,700 170 436 1536
2018-07-20 09:54:20 GMT 47.537292 2.469383 28,700 170 436 1536
2018-07-20 09:54:17 GMT 47.544827 2.467487 28,725 170 436 1472
2018-07-20 09:54:14 GMT 47.550797 2.466019 28,675 170 436 1600
2018-07-20 09:54:04 GMT 47.570244 2.461149 28,225 170 435 1664
2018-07-20 09:54:01 GMT 47.574989 2.459952 28,225 170 435 1600
2018-07-20 09:53:57 GMT 47.582951 2.457980 27,925 170 434 1600
2018-07-20 09:53:54 GMT 47.589283 2.456360 28,150 170 434 1600
2018-07-20 09:53:51 GMT 47.595978 2.454689 28,050 170 434 1472
2018-07-20 09:53:48 GMT 47.603897 2.452698 27,950 170 433 1472
2018-07-20 09:53:44 GMT 47.610214 2.451118 27,875 170 433 1600
2018-07-20 09:53:40 GMT 47.617680 2.449247 27,650 170 431 1536
2018-07-20 09:53:37 GMT 47.623581 2.447754 27,700 170 432 1600
2018-07-20 09:53:30 GMT 47.638550 2.443977 27,500 170 430 1728
2018-07-20 09:53:25 GMT 47.647564 2.441711 27,375 170 430 1792
2018-07-20 09:53:13 GMT 47.670235 2.436077 27,050 170 427 1664
2018-07-20 09:53:02 GMT 47.690918 2.430862 26,775 170 426 1408
2018-07-20 09:52:53 GMT 47.709946 2.426077 26,550 170 423 1408
2018-07-20 09:52:47 GMT 47.720352 2.423447 26,425 170 419 1472
2018-07-20 09:52:43 GMT 47.728043 2.421524 26,325 170 421 1408
2018-07-20 09:52:36 GMT 47.741089 2.418228 26,150 170 418 1472
2018-07-20 09:52:32 GMT 47.749466 2.416168 26,050 170 417 1472
2018-07-20 09:52:29 GMT 47.755196 2.414739 25,975 170 415 1344
2018-07-20 09:52:23 GMT 47.766907 2.411774 25,850 170 414 1408
2018-07-20 09:52:17 GMT 47.780502 2.408340 25,675 170 408 1472
2018-07-20 09:52:13 GMT 47.786106 2.406921 25,600 170 410 1536
2018-07-20 09:52:03 GMT 47.804817 2.402203 25,375 170 408 1472
2018-07-20 09:51:57 GMT 47.814453 2.399738 25,250 170 406 1536
2018-07-20 09:51:52 GMT 47.823715 2.397423 25,100 170 404 1664
2018-07-20 09:51:43 GMT 47.842480 2.392696 24,800 170 402 2048
2018-07-20 09:51:33 GMT 47.860775 2.388047 24,475 170 400 2304
2018-07-20 09:51:30 GMT 47.864777 2.387054 24,400 170 400 2240
2018-07-20 09:51:21 GMT 47.881531 2.382797 24,075 170 399 2304
2018-07-20 09:51:12 GMT 47.899750 2.378265 23,700 170 399 2304
2018-07-20 09:51:01 GMT 47.918655 2.373528 22,875 164 396 2368
2018-07-20 09:50:50 GMT 47.936783 2.368996 22,875 164 396 2368
2018-07-20 09:50:47 GMT 47.942242 2.367624 22,875 164 396 2368
2018-07-20 09:50:43 GMT 47.949829 2.365700 22,650 168 397 2304
2018-07-20 09:50:39 GMT 47.957062 2.363708 22,500 168 397 2368
2018-07-20 09:50:36 GMT 47.964203 2.361305 22,350 165 398 2176
2018-07-20 09:50:31 GMT 47.972763 2.357941 21,175 164 396 2304
2018-07-20 09:50:28 GMT 47.978737 2.355441 22,050 164 396 2368
2018-07-20 09:50:25 GMT 47.981579 2.354243 22,000 164 396 2368
2018-07-20 09:50:20 GMT 47.991447 2.350159 21,775 164 395 2176
2018-07-20 09:50:17 GMT 47.996017 2.348190 21,300 164 394 2176
2018-07-20 09:50:09 GMT 48.011093 2.341849 21,375 164 392 2240
2018-07-20 09:50:05 GMT 48.021194 2.337616 21,175 164 389 2240
2018-07-20 09:49:59 GMT 48.027466 2.335007 20,900 164 389 2240
2018-07-20 09:49:56 GMT 48.033691 2.332397 20,750 164 386 2112
2018-07-20 09:49:53 GMT 48.039581 2.329876 20,800 164 387 2304
2018-07-20 09:49:49 GMT 48.045773 2.327271 20,675 164 387 2176
2018-07-20 09:49:41 GMT 48.059189 2.321617 20,400 164 383 2048
2018-07-20 09:49:35 GMT 48.070770 2.316742 19,650 164 380 2432
2018-07-20 09:49:30 GMT 48.078186 2.313515 20,000 164 380 2432
2018-07-20 09:49:27 GMT 48.082947 2.311523 19,900 164 374 2816
2018-07-20 09:49:23 GMT 48.090694 2.308256 19,750 164 364 2880
2018-07-20 09:49:19 GMT 48.095398 2.306213 19,600 164 377 2432
2018-07-20 09:49:16 GMT 48.101452 2.303678 19,475 164 374 2816
2018-07-20 09:49:12 GMT 48.108807 2.300509 19,275 164 376 2688
2018-07-20 09:49:07 GMT 48.116814 2.297129 19,075 164 375 2816
2018-07-20 09:49:02 GMT 48.125793 2.293259 18,825 164 374 2880
2018-07-20 09:48:57 GMT 48.133118 2.290169 18,625 164 374 2944
2018-07-20 09:48:51 GMT 48.144093 2.285508 18,100 164 373 2560
2018-07-20 09:48:46 GMT 48.150421 2.282822 18,125 164 374 2624
2018-07-20 09:48:43 GMT 48.155403 2.280719 18,000 164 373 2560
2018-07-20 09:48:40 GMT 48.162712 2.277567 17,800 164 371 2880
2018-07-20 09:48:34 GMT 48.172256 2.273536 17,525 164 371 2880
2018-07-20 09:48:29 GMT 48.180176 2.270156 17,250 164 364 2880
2018-07-20 09:48:25 GMT 48.186768 2.267339 17,125 164 370 2624
2018-07-20 09:48:17 GMT 48.199581 2.261883 16,625 164 368 2944
2018-07-20 09:48:13 GMT 48.204842 2.259642 16,600 164 368 2688
2018-07-20 09:48:05 GMT 48.218575 2.253787 15,475 164 365 2880
2018-07-20 09:47:55 GMT 48.237381 2.245764 15,675 164 364 2944
2018-07-20 09:47:49 GMT 48.244171 2.242901 15,475 164 364 2944
2018-07-20 09:47:43 GMT 48.254143 2.238609 15,025 164 360 2752
2018-07-20 09:47:39 GMT 48.259960 2.236151 15,025 164 360 2752
2018-07-20 09:47:34 GMT 48.269852 2.231915 14,600 164 356 2944
2018-07-20 09:47:30 GMT 48.275230 2.229574 14,600 164 356 2944
2018-07-20 09:47:25 GMT 48.284725 2.225527 14,350 163 352 2880
2018-07-20 09:47:21 GMT 48.289444 2.223464 14,225 163 353 2816
2018-07-20 09:47:15 GMT 48.299156 2.219311 13,925 163 351 2880
2018-07-20 09:47:12 GMT 48.304138 2.217142 13,775 163 350 2880
2018-07-20 09:47:06 GMT 48.313496 2.213095 13,500 163 348 2752
2018-07-20 09:47:02 GMT 48.320896 2.209914 13,275 163 347 3008
2018-07-20 09:46:55 GMT 48.329819 2.205998 13,000 164 346 3328
2018-07-20 09:46:51 GMT 48.337234 2.203040 12,725 166 345 3136
2018-07-20 09:46:40 GMT 48.353764 2.197988 12,150 171 344 3840
2018-07-20 09:46:29 GMT 48.371201 2.194730 11,475 173 347 2624
2018-07-20 09:46:22 GMT 48.381741 2.192857 11,250 173 338 1024
2018-07-20 09:46:18 GMT 48.388630 2.191700 11,175 173 339 1024
2018-07-20 09:46:10 GMT 48.401573 2.189387 11,025 173 329 960
2018-07-20 09:46:07 GMT 48.405487 2.188744 10,975 173 325 896
2018-07-20 09:46:02 GMT 48.412327 2.187580 10,925 173 319 960
2018-07-20 09:45:58 GMT 48.418442 2.186491 10,850 173 314 1088
2018-07-20 09:45:52 GMT 48.426758 2.185051 10,725 173 293 960
2018-07-20 09:45:47 GMT 48.432903 2.184039 10,650 173 300 768
2018-07-20 09:45:43 GMT 48.438126 2.183110 10,625 173 295 832
2018-07-20 09:45:37 GMT 48.446449 2.181653 10,500 173 286 2304
2018-07-20 09:45:31 GMT 48.456665 2.179800 10,175 173 282 3456
2018-07-20 09:45:25 GMT 48.463161 2.178618 9,775 173 282 3328
2018-07-20 09:45:22 GMT 48.467056 2.177969 9,750 173 282 3520
2018-07-20 09:45:15 GMT 48.475681 2.176449 9,375 173 283 3328
2018-07-20 09:45:10 GMT 48.483505 2.175004 9,075 173 284 2944
2018-07-20 09:45:04 GMT 48.489788 2.173920 8,875 173 283 1920
2018-07-20 09:44:59 GMT 48.498074 2.172474 8,700 173 279 1408
2018-07-20 09:44:55 GMT 48.501705 2.171824 8,550 173 279 1472
2018-07-20 09:44:50 GMT 48.508362 2.170595 8,500 173 278 1536
2018-07-20 09:44:44 GMT 48.516510 2.169149 8,325 173 278 1536
2018-07-20 09:44:38 GMT 48.523678 2.167848 8,200 173 278 1536
2018-07-20 09:44:35 GMT 48.527775 2.167126 8,100 173 278 1536
2018-07-20 09:44:32 GMT 48.531097 2.166490 8,050 173 278 1536
2018-07-20 09:44:25 GMT 48.541855 2.164588 7,850 173 273 1536
2018-07-20 09:44:22 GMT 48.543915 2.164166 7,800 172 278 1536
2018-07-20 09:44:18 GMT 48.550507 2.162969 7,675 173 275 1536
2018-07-20 09:44:15 GMT 48.553288 2.162500 7,525 173 274 1536
2018-07-20 09:44:12 GMT 48.557335 2.161705 7,525 173 273 1536
2018-07-20 09:44:04 GMT 48.568130 2.159729 7,325 172 273 1536
2018-07-20 09:44:00 GMT 48.571907 2.159030 7,250 172 272 1472
2018-07-20 09:43:53 GMT 48.581821 2.157151 7,050 172 270 1472
2018-07-20 09:43:50 GMT 48.584564 2.156630 7,000 172 269 1472
2018-07-20 09:43:43 GMT 48.593445 2.154870 6,825 172 268 1408
2018-07-20 09:43:39 GMT 48.597649 2.154043 6,750 172 268 1408
2018-07-20 09:43:34 GMT 48.605255 2.152475 6,600 172 268 1408
2018-07-20 09:43:31 GMT 48.607986 2.151947 6,550 172 268 1472
2018-07-20 09:43:28 GMT 48.610916 2.151369 6,500 172 268 1472
2018-07-20 09:43:21 GMT 48.619537 2.149869 6,325 175 266 1984
2018-07-20 09:43:17 GMT 48.624939 2.149517 6,150 181 265 2944
2018-07-20 09:43:10 GMT 48.634644 2.151208 5,725 192 263 3392
2018-07-20 09:43:07 GMT 48.636753 2.152019 5,625 198 262 3328
2018-07-20 09:43:01 GMT 48.643505 2.156067 5,175 214 260 3136
2018-07-20 09:42:57 GMT 48.648811 2.161126 5,050 218 260 3200
2018-07-20 09:42:49 GMT 48.654629 2.168716 4,300 228 258 2944
2018-07-20 09:42:45 GMT 48.657936 2.173920 4,500 231 258 2816
2018-07-20 09:42:39 GMT 48.662521 2.182688 4,200 235 257 3072
2018-07-20 09:42:34 GMT 48.665897 2.190038 3,925 236 256 3392
2018-07-20 09:42:29 GMT 48.669666 2.198278 3,625 236 255 3264
2018-07-20 09:42:24 GMT 48.673004 2.205576 3,375 236 254 3008
2018-07-20 09:42:18 GMT 48.677582 2.215435 3,075 235 251 2368
2018-07-20 09:42:13 GMT 48.680283 2.221140 2,925 235 246 2176
2018-07-20 09:42:08 GMT 48.683441 2.227830 2,775 235 241 1792
2018-07-20 09:42:02 GMT 48.687241 2.235999 2,575 235 234 2240
2018-07-20 09:41:59 GMT 48.689713 2.241352 2,425 236 230 2624
2018-07-20 09:41:51 GMT 48.693832 2.250296 1,900 236 225 1408
2018-07-20 09:41:47 GMT 48.696293 2.255811 2,025 237 221 1088
2018-07-20 09:41:41 GMT 48.699924 2.263834 1,900 236 205 1152
2018-07-20 09:41:37 GMT 48.702393 2.269381 1,825 236 204 1152
2018-07-20 09:41:30 GMT 48.705505 2.276353 1,725 236 194 1344
2018-07-20 09:41:27 GMT 48.707336 2.280367 1,575 237 188 1088
2018-07-20 09:41:23 GMT 48.709145 2.284506 1,575 237 188 1088
2018-07-20 09:41:19 GMT 48.711098 2.289276 1,525 240 177 1152
2018-07-20 09:41:15 GMT 48.712280 2.292480 1,450 244 168 2368
2018-07-20 09:41:06 GMT 48.715393 2.301847 1,150 244 168 2432
2018-07-20 09:40:56 GMT 48.719292 2.313851 700 244 167 2304
2018-07-20 09:40:23 GMT 48.729790 2.344623 0 241 105
2018-07-20 09:40:08 GMT 48.732151 2.351327 0 241 45
2018-07-20 09:40:00 GMT 48.732685 2.352800 0 241 17
2018-07-20 09:39:49 GMT 48.732849 2.353730 0 298 10
2018-07-20 09:39:36 GMT 48.732536 2.354402 0 19 7
2018-07-20 09:39:27 GMT 48.732330 2.354613 0 19 5
2018-07-20 09:39:13 GMT 48.732185 2.354742 0 19 3
2018-07-20 09:39:07 GMT 48.732124 2.354772 0 19 3
2018-07-20 09:38:44 GMT 48.731709 2.354670 0 19 6
2018-07-20 09:38:35 GMT 48.731396 2.354526 0 19 10
2018-07-20 09:38:26 GMT 48.730934 2.354296 0 16 11
2018-07-20 09:38:01 GMT 48.729847 2.353749 0 19 11
2018-07-20 09:37:51 GMT 48.729366 2.353486 0 19 11
2018-07-20 09:37:28 GMT 48.728371 2.353008 0 16 10
2018-07-20 09:37:18 GMT 48.727962 2.352809 0 16 9
2018-07-20 09:36:59 GMT 48.727219 2.352538 0 354 8
2018-07-20 09:33:32 GMT 48.725086 2.353369 0 0
2018-07-20 09:32:56 GMT 48.725086 2.353381 0 0
2018-07-20 09:32:49 GMT 48.725086 2.353369 0 0
2018-07-20 09:32:40 GMT 48.725086 2.353381 0 0
2018-07-20 09:32:22 GMT 48.725132 2.353351 0 2
2018-07-20 09:32:18 GMT 48.725193 2.353315 0 3
We lost coverage of the aircraft here for a total of 36 minutes
2018-07-20 08:56:00 GMT 48.725296 2.351942 250 0 0 0
2018-07-20 08:55:35 GMT 48.725327 2.351919 250 0 0 0
2018-07-20 08:55:27 GMT 48.725296 2.351942 250 0 0 0
2018-07-20 08:54:43 GMT 48.725327 2.351919 250 0 0 0
2018-07-20 08:53:59 GMT 48.725296 2.351942 250 0 0 0
2018-07-20 08:53:33 GMT 48.725327 2.351919 250 0 0 0
2018-07-20 08:53:27 GMT 48.725296 2.351942 250 0 0 0
2018-07-20 08:53:05 GMT 48.725327 2.351919 250 0 0 0
2018-07-20 08:52:52 GMT 48.725296 2.351942 250 0 0 0
2018-07-20 08:52:42 GMT 48.725327 2.351919 250 0 0 0
2018-07-20 08:52:02 GMT 48.725296 2.351942 250 0 0 0
2018-07-20 08:51:48 GMT 48.725327 2.351919 250 0 0 0
2018-07-20 08:51:19 GMT 48.725296 2.351942 250 0 0 0
2018-07-20 08:50:53 GMT 48.725327 2.351919 250 0 0 0
2018-07-20 08:50:47 GMT 48.725296 2.351942 250 0 0 0
2018-07-20 08:50:01 GMT 48.725327 2.351919 250 0 0 0
2018-07-20 08:48:54 GMT 48.725327 2.351919 250 0 0 0
2018-07-20 08:48:27 GMT 48.725296 2.351942 250 0 0 0
2018-07-20 08:47:13 GMT 48.725296 2.351942 250 0 0 0
2018-07-20 08:46:37 GMT 48.725327 2.351919 250 0 0 0
2018-07-20 08:46:32 GMT 48.725296 2.351942 250 0 0 0
2018-07-20 08:46:13 GMT 48.725327 2.351919 250 0 0 0
2018-07-20 08:45:10 GMT 48.725327 2.351919 250 0 0 0
2018-07-20 08:44:26 GMT 48.725296 2.351942 250 0 0 0
2018-07-20 08:44:23 GMT 48.725327 2.351919 250 0 0 0
2018-07-20 08:44:01 GMT 48.725296 2.351942 250 0 0 0
2018-07-20 08:43:51 GMT 48.725327 2.351919 250 0 0 0
2018-07-20 08:43:28 GMT 48.725296 2.351942 250 0 0 0
2018-07-20 08:43:04 GMT 48.725327 2.351919 250 0 0 0
2018-07-20 08:42:44 GMT 48.725296 2.351942 250 0 0 0
2018-07-20 08:42:36 GMT 48.725327 2.351919 250 0 0 0
2018-07-20 08:42:13 GMT 48.725296 2.351942 250 0 0 0
2018-07-20 08:41:30 GMT 48.725327 2.351919 250 0 0 0
2018-07-20 08:40:57 GMT 48.725296 2.351942 250 0 0 0
2018-07-20 08:40:39 GMT 48.725327 2.351919 250 0 0 0
2018-07-20 08:40:08 GMT 48.725296 2.351942 250 0 0 0
2018-07-20 08:39:45 GMT 48.725327 2.351919 250 0 0 0
2018-07-20 08:39:13 GMT 48.725296 2.351942 250 0 0 0
2018-07-20 08:38:56 GMT 48.725327 2.351919 250 0 0 0
2018-07-20 08:38:43 GMT 48.725296 2.351942 250 0 0 0
2018-07-20 08:38:30 GMT 48.725327 2.351919 250 0 0 0
2018-07-20 08:38:02 GMT 48.725296 2.351942 250 0 0 0
2018-07-20 08:37:34 GMT 48.725327 2.351919 250 0 0 0
2018-07-20 08:37:21 GMT 48.725296 2.351942 250 0 0 0
2018-07-20 08:36:58 GMT 48.725327 2.351919 250 0 0 0
2018-07-20 08:35:51 GMT 48.725327 2.351919 250 0 0 0
2018-07-20 08:35:45 GMT 48.725342 2.351942 250 0 0 0
2018-07-20 08:35:33 GMT 48.725296 2.351942 250 0 0 0
2018-07-20 08:35:17 GMT 48.725327 2.351919 250 0 0 0
2018-07-20 08:35:10 GMT 48.725296 2.351942 250 0 0 0
2018-07-20 08:35:00 GMT 48.725327 2.351919 250 0 0 0
2018-07-20 08:34:50 GMT 48.725296 2.351942 250 0 0 0
2018-07-20 08:33:41 GMT 48.725296 2.351942 250 0 0 0
2018-07-20 08:32:34 GMT 48.725327 2.351919 250 0 0 0
2018-07-20 08:32:18 GMT 48.725296 2.351942 250 0 0 0
2018-07-20 08:31:59 GMT 48.725327 2.351919 250 0 0 0
2018-07-20 08:31:56 GMT 48.725296 2.351942 250 0 0 0
2018-07-20 08:31:40 GMT 48.725327 2.351919 250 0 0 0
2018-07-20 08:31:11 GMT 48.725296 2.351942 250 0 0 0
2018-07-20 08:30:52 GMT 48.725327 2.351919 250 0 0 0
2018-07-20 08:30:20 GMT 48.725342 2.351942 250 0 1022 0
2018-07-20 08:30:06 GMT 48.725296 2.351942 250 0 0 0
2018-07-20 08:29:55 GMT 48.725327 2.351919 250 0 0 0
2018-07-20 08:29:21 GMT 48.725296 2.351942 250 0 0 0
2018-07-20 08:28:40 GMT 48.725327 2.351919 250 0 0 0
2018-07-20 08:28:23 GMT 48.725296 2.351942 250 0 0 0
2018-07-20 08:28:14 GMT 48.725327 2.351919 250 0 0 0
2018-07-20 08:27:45 GMT 48.725296 2.351942 250 0 0 0
2018-07-20 08:27:36 GMT 48.725327 2.351919 250 0 0 0
2018-07-20 08:27:23 GMT 48.725296 2.351942 250 0 0 0
2018-07-20 08:27:11 GMT 48.725327 2.351919 250 0 0 0
2018-07-20 08:26:56 GMT 48.725296 2.351942 250 0 0 0
2018-07-20 08:26:49 GMT 48.725327 2.351919 250 0 0 0
2018-07-20 08:26:27 GMT 48.725296 2.351942 250 0 0 0
2018-07-20 08:26:09 GMT 48.725327 2.351919 250 0 0 0
2018-07-20 08:25:58 GMT 48.725296 2.351942 250 0 0 0
2018-07-20 08:25:46 GMT 48.725327 2.351919 250 0 0 0
2018-07-20 08:25:33 GMT 48.725296 2.351942 250 0 0 0
2018-07-20 08:25:03 GMT 48.725327 2.351919 250 0 0 0
2018-07-20 08:24:49 GMT 48.725296 2.351942 250 0 0 0
2018-07-20 08:24:40 GMT 48.725327 2.351919 250 0 0 0
2018-07-20 08:23:58 GMT 48.725296 2.351942 250 0 0 0
2018-07-20 08:23:04 GMT 48.725327 2.351919 250 0 0 0
2018-07-20 08:22:52 GMT 48.725296 2.351942 250 0 0 0
2018-07-20 08:21:45 GMT 48.725296 2.351942 250 0 0 0
2018-07-20 08:21:15 GMT 48.725327 2.351919 250 0 0 0
2018-07-20 08:20:48 GMT 48.725296 2.351942 250 0 0 0
2018-07-20 08:20:42 GMT 48.725327 2.351919 250 0 0 0
2018-07-20 08:20:31 GMT 48.725296 2.351942 250 0 0 0
2018-07-20 08:20:10 GMT 48.725327 2.351919 250 0 0 0
2018-07-20 08:19:59 GMT 48.725296 2.351942 250 0 0 0
2018-07-20 08:19:27 GMT 48.725327 2.351919 250 0 0 0
2018-07-20 08:18:54 GMT 48.725296 2.351942 250 0 0 0
2018-07-20 08:18:44 GMT 48.725327 2.351919 250 0 0 0
2018-07-20 08:18:31 GMT 48.725296 2.351942 250 0 0 0
2018-07-20 08:17:59 GMT 48.725327 2.351919 250 0 0 0
2018-07-20 08:17:43 GMT 48.725296 2.351942 250 0 0 0
2018-07-20 08:17:36 GMT 48.725281 2.351919 250 0 0 0
2018-07-20 08:17:23 GMT 48.725296 2.351942 250 0 0 0
2018-07-20 08:16:26 GMT 48.725281 2.351919 250 0 0 0
2018-07-20 08:16:09 GMT 48.725296 2.351942 250 0 0 0
2018-07-20 08:15:02 GMT 48.725296 2.351942 250 0 0 0
2018-07-20 08:14:55 GMT 48.725327 2.351919 250 0 0 0
2018-07-20 08:14:23 GMT 48.725296 2.351942 250 0 0 0
2018-07-20 08:14:08 GMT 48.725327 2.351919 250 0 0 0
2018-07-20 08:13:15 GMT 48.725296 2.351942 250 0 0 0
2018-07-20 08:12:59 GMT 48.725342 2.351942 250 0 0 0
2018-07-20 08:12:50 GMT 48.725327 2.351919 250 0 0 0
2018-07-20 08:12:40 GMT 48.725342 2.351942 250 0 0 0
2018-07-20 08:12:31 GMT 48.725296 2.351942 250 0 0 0
2018-07-20 08:12:20 GMT 48.725327 2.351919 250 0 0 0
2018-07-20 08:12:07 GMT 48.725296 2.351942 250 0 0 0
2018-07-20 08:11:59 GMT 48.725327 2.351919 250 0 0 0
2018-07-20 08:11:32 GMT 48.725296 2.351942 250 0 0 0
2018-07-20 08:11:11 GMT 48.725327 2.351919 250 0 0 0
2018-07-20 08:10:53 GMT 48.725296 2.351942 250 0 0 0
2018-07-20 08:10:43 GMT 48.725327 2.351919 250 0 0 0
2018-07-20 08:10:32 GMT 48.725315 2.351972 0 300 0 0
2018-07-20 08:10:12 GMT 48.725319 2.351978 0 300 0 0
2018-07-20 08:10:00 GMT 48.725315 2.351972 0 300 0 0
2018-07-20 08:09:48 GMT 48.725319 2.351978 0 300 0 0
2018-07-20 08:09:40 GMT 48.725353 2.351942 0 300 0 0
2018-07-20 08:09:16 GMT 48.725487 2.352958 0 300 11 0
2018-07-20 08:09:06 GMT 48.724915 2.353451 0 343 19 0
2018-07-20 08:08:48 GMT 48.723423 2.354580 0 303 22 0
2018-07-20 08:08:43 GMT 48.723198 2.355176 0 289 21 0
2018-07-20 08:08:35 GMT 48.723167 2.356477 0 255 22 0
2018-07-20 08:08:23 GMT 48.723480 2.358194 0 255 24 0
2018-07-20 08:08:12 GMT 48.723782 2.359838 0 253 21 0
2018-07-20 08:06:48 GMT 48.721710 2.370811 0 258 40 0
2018-07-20 08:06:23 GMT 48.724068 2.383752 0 253 130 0
2018-07-20 08:06:07 GMT 48.727158 2.400440 325 255 149 -640
2018-07-20 08:05:55 GMT 48.729069 2.410921 450 255 150 -704
2018-07-20 08:05:45 GMT 48.731068 2.421907 600 255 149 -768
2018-07-20 08:05:39 GMT 48.732101 2.427697 675 255 148 -512
2018-07-20 08:05:35 GMT 48.733017 2.432486 725 255 149 -896
2018-07-20 08:05:28 GMT 48.734188 2.439182 825 255 150 -896
2018-07-20 08:05:24 GMT 48.734940 2.443472 925 255 151 -832
2018-07-20 08:05:19 GMT 48.735958 2.448939 950 254 151 -960
2018-07-20 08:05:13 GMT 48.737091 2.454388 1,025 254 151 -896
2018-07-20 08:05:10 GMT 48.737724 2.457830 1,075 255 150 -896
2018-07-20 08:05:06 GMT 48.738422 2.461516 1,125 255 151 -832
2018-07-20 08:05:02 GMT 48.739105 2.465445 1,175 256 152 -832
2018-07-20 08:04:58 GMT 48.739773 2.469322 1,300 256 151 -832
2018-07-20 08:04:53 GMT 48.740658 2.474164 1,300 256 151 -832
2018-07-20 08:04:50 GMT 48.741077 2.476622 1,325 255 152 -704
2018-07-20 08:04:46 GMT 48.742126 2.482206 1,425 255 152 -832
2018-07-20 08:04:43 GMT 48.742893 2.486090 1,500 255 156 -832
2018-07-20 08:04:39 GMT 48.743591 2.489671 1,500 255 156 -832
2018-07-20 08:04:30 GMT 48.745174 2.498305 1,600 255 159 -832
2018-07-20 08:04:26 GMT 48.745964 2.502714 1,700 255 164 -896
2018-07-20 08:04:22 GMT 48.746849 2.507557 1,725 255 166 -896
2018-07-20 08:04:17 GMT 48.747711 2.512277 1,800 255 169 -960
2018-07-20 08:04:13 GMT 48.748852 2.518471 1,875 255 174 -832
2018-07-20 08:04:10 GMT 48.749271 2.520784 1,900 255 173 -832
2018-07-20 08:04:07 GMT 48.749954 2.524320 1,950 255 176 -768
2018-07-20 08:04:01 GMT 48.751236 2.531504 2,050 256 178 -960
2018-07-20 08:03:57 GMT 48.752151 2.536785 2,100 256 178 -896
2018-07-20 08:03:51 GMT 48.753414 2.543769 2,200 255 177 -896
2018-07-20 08:03:47 GMT 48.754623 2.550659 2,275 255 177 -896
2018-07-20 08:03:40 GMT 48.755630 2.556364 2,325 255 177 -832
2018-07-20 08:03:35 GMT 48.756813 2.562850 2,425 255 176 -832
2018-07-20 08:03:30 GMT 48.757931 2.568994 2,475 255 177 -832
2018-07-20 08:03:25 GMT 48.759018 2.574956 2,550 255 178 -896
2018-07-20 08:03:21 GMT 48.759750 2.578829 2,650 255 179 -960
2018-07-20 08:03:17 GMT 48.760620 2.583618 2,675 255 179 -960
2018-07-20 08:03:14 GMT 48.761444 2.587985 2,725 254 180 -960
2018-07-20 08:03:11 GMT 48.762165 2.591617 2,800 253 181 -896
2018-07-20 08:03:08 GMT 48.762863 2.595238 2,875 253 181 -768
2018-07-20 08:03:05 GMT 48.763702 2.599351 2,875 253 181 -704
2018-07-20 08:03:02 GMT 48.764282 2.601999 2,900 253 181 -576
2018-07-20 08:02:58 GMT 48.765240 2.606579 2,925 253 182 -192
2018-07-20 08:02:53 GMT 48.766586 2.613517 2,925 255 185 0
2018-07-20 08:02:46 GMT 48.768127 2.621789 2,925 255 187 64
2018-07-20 08:02:42 GMT 48.769009 2.627106 2,925 295 226 -768
2018-07-20 08:02:36 GMT 48.769958 2.634676 2,925 266 193 0
2018-07-20 08:02:32 GMT 48.770325 2.640592 2,925 269 195 -64
2018-07-20 08:02:27 GMT 48.769985 2.648645 2,925 279 203 -192
2018-07-20 08:02:22 GMT 48.768963 2.654210 2,950 292 212 -384
2018-07-20 08:02:18 GMT 48.767166 2.660593 2,975 295 215 -768
2018-07-20 08:02:14 GMT 48.765938 2.664691 3,025 295 220 -192
2018-07-20 08:02:11 GMT 48.764465 2.669466 3,025 295 221 -320
2018-07-20 08:02:06 GMT 48.762268 2.676861 3,075 295 225 -896
2018-07-20 08:02:01 GMT 48.759930 2.684567 3,150 295 226 -448
2018-07-20 08:01:56 GMT 48.757965 2.691298 3,200 295 232 -704
2018-07-20 08:01:53 GMT 48.756302 2.696927 3,200 295 232 -704
2018-07-20 08:01:50 GMT 48.755310 2.700172 3,250 296 233 -896
2018-07-20 08:01:45 GMT 48.752808 2.708130 3,300 299 236 -576
2018-07-20 08:01:39 GMT 48.749771 2.715806 3,375 306 239 -576
2018-07-20 08:01:32 GMT 48.744003 2.725314 3,400 318 245 -320
2018-07-20 08:01:29 GMT 48.741310 2.728440 3,425 329 250 -640
2018-07-20 08:01:22 GMT 48.735210 2.733572 3,500 337 252 -704
2018-07-20 08:01:18 GMT 48.730370 2.736318 3,550 342 255 -576
2018-07-20 08:01:13 GMT 48.725018 2.738993 3,600 344 257 -768
2018-07-20 08:01:08 GMT 48.718082 2.741812 3,700 350 258 -1152
2018-07-20 08:00:57 GMT 48.705002 2.742075 3,900 10 258 -1152
2018-07-20 08:00:53 GMT 48.699646 2.740222 3,975 20 258 -1088
2018-07-20 08:00:46 GMT 48.693874 2.736680 4,050 22 258 -1088
2018-07-20 08:00:43 GMT 48.689732 2.732994 4,175 35 258 -960
2018-07-20 08:00:38 GMT 48.685455 2.727849 4,225 40 258 -1024
2018-07-20 08:00:35 GMT 48.683075 2.724328 4,275 48 257 -1152
2018-07-20 08:00:32 GMT 48.680923 2.720454 4,375 60 256 -1024
2018-07-20 08:00:27 GMT 48.677124 2.711440 4,450 61 256 -896
2018-07-20 08:00:24 GMT 48.675438 2.706684 4,475 62 256 -640
2018-07-20 08:00:21 GMT 48.674320 2.703432 4,500 62 258 -768
2018-07-20 08:00:16 GMT 48.671631 2.695383 4,575 63 260 -1216
2018-07-20 08:00:12 GMT 48.668976 2.687636 4,750 63 260 -1536
2018-07-20 08:00:08 GMT 48.666595 2.680523 4,800 63 260 -1408
2018-07-20 08:00:04 GMT 48.664398 2.674044 4,900 63 262 -640
2018-07-20 08:00:00 GMT 48.662777 2.669172 4,925 63 262 -640
2018-07-20 07:59:56 GMT 48.660587 2.662667 4,975 63 262 -704
2018-07-20 07:59:53 GMT 48.658722 2.657072 5,000 63 264 -576
2018-07-20 07:59:50 GMT 48.657211 2.652424 5,025 63 267 -320
2018-07-20 07:59:47 GMT 48.655144 2.646043 5,050 63 268 -448
2018-07-20 07:59:40 GMT 48.651558 2.635273 5,125 63 271 -768
2018-07-20 07:59:36 GMT 48.649323 2.628479 5,175 63 273 -512
2018-07-20 07:59:30 GMT 48.645458 2.616770 5,225 63 278 -576
2018-07-20 07:59:25 GMT 48.643524 2.610873 5,275 63 280 -704
2018-07-20 07:59:21 GMT 48.640617 2.602097 5,325 63 283 -832
2018-07-20 07:59:18 GMT 48.639084 2.597492 5,375 63 284 -832
2018-07-20 07:59:15 GMT 48.637081 2.591472 5,400 63 285 -832
2018-07-20 07:59:09 GMT 48.633133 2.579674 5,525 63 288 -960
2018-07-20 07:59:05 GMT 48.631210 2.573970 5,575 63 289 -896
2018-07-20 07:58:57 GMT 48.626907 2.560871 5,725 63 291 -1920
2018-07-20 07:58:54 GMT 48.625031 2.555026 6,150 62 297 -1664
2018-07-20 07:58:47 GMT 48.620319 2.540805 6,025 63 292 -1664
2018-07-20 07:58:40 GMT 48.616013 2.527982 6,225 62 296 -1728
2018-07-20 07:58:36 GMT 48.613895 2.521724 6,325 62 296 -2048
2018-07-20 07:58:33 GMT 48.612175 2.516592 6,400 62 296 -2048
2018-07-20 07:58:28 GMT 48.608780 2.506573 6,600 62 297 -2304
2018-07-20 07:58:24 GMT 48.606216 2.499249 6,850 62 297 -1664
2018-07-20 07:58:21 GMT 48.603561 2.491511 6,850 62 297 -1664
2018-07-20 07:58:17 GMT 48.601513 2.485584 6,900 62 299 -640
2018-07-20 07:58:14 GMT 48.599747 2.480380 6,950 62 304 -448
2018-07-20 07:58:10 GMT 48.596741 2.471713 6,975 62 306 -256
2018-07-20 07:58:05 GMT 48.594406 2.464881 6,975 62 310 0
2018-07-20 07:58:02 GMT 48.592155 2.458335 6,975 62 314 0
2018-07-20 07:57:58 GMT 48.589458 2.450529 6,975 62 317 0
2018-07-20 07:57:54 GMT 48.586758 2.442579 6,975 62 323 0
2018-07-20 07:57:50 GMT 48.584057 2.434556 6,975 63 326 64
2018-07-20 07:57:45 GMT 48.580471 2.423931 6,975 63 331 128
2018-07-20 07:57:42 GMT 48.578430 2.417767 6,975 63 341 0
2018-07-20 07:57:34 GMT 48.572372 2.399645 6,975 63 345 0
2018-07-20 07:57:30 GMT 48.570511 2.394034 6,975 63 356 -256
2018-07-20 07:57:25 GMT 48.566319 2.381287 6,975 63 355 -192
2018-07-20 07:57:22 GMT 48.563389 2.372396 7,000 63 361 -640
2018-07-20 07:57:18 GMT 48.561340 2.366036 7,025 64 363 -832
2018-07-20 07:57:13 GMT 48.557098 2.352694 7,125 66 368 -1600
2018-07-20 07:57:05 GMT 48.552658 2.335510 7,375 67 368 -1856
2018-07-20 07:57:01 GMT 48.550140 2.322622 7,625 74 370 -2304
2018-07-20 07:56:49 GMT 48.545326 2.296215 8,125 74 373 -2496
2018-07-20 07:56:46 GMT 48.543880 2.288192 8,125 74 373 -2496
2018-07-20 07:56:42 GMT 48.541695 2.276194 8,375 74 374 -2496
2018-07-20 07:56:39 GMT 48.540527 2.269663 8,425 74 374 -2560
2018-07-20 07:56:29 GMT 48.536316 2.246493 8,825 74 375 -2560
2018-07-20 07:56:20 GMT 48.531593 2.220756 9,275 74 375 -3264
2018-07-20 07:56:11 GMT 48.527405 2.197627 9,700 74 376 -1728
2018-07-20 07:56:08 GMT 48.526283 2.191556 9,800 74 377 -1536
2018-07-20 07:55:58 GMT 48.521713 2.166631 10,100 74 380 -1344
2018-07-20 07:55:54 GMT 48.520142 2.157946 10,100 74 380 -1344
2018-07-20 07:55:49 GMT 48.517593 2.144165 10,225 74 381 -1280
2018-07-20 07:55:45 GMT 48.515762 2.133953 10,300 74 381 -1344
2018-07-20 07:55:39 GMT 48.512691 2.117037 10,475 74 383 -1344
2018-07-20 07:55:36 GMT 48.511391 2.109809 10,500 74 384 -1344
2018-07-20 07:55:28 GMT 48.507935 2.090712 10,700 74 384 -1344
2018-07-20 07:55:25 GMT 48.506313 2.081909 10,750 74 384 -1344
2018-07-20 07:55:17 GMT 48.502808 2.062824 10,900 74 384 -1088
2018-07-20 07:55:14 GMT 48.501297 2.054584 10,950 74 383 -768
2018-07-20 07:55:09 GMT 48.498402 2.038614 11,000 74 383 0
2018-07-20 07:55:06 GMT 48.497471 2.033483 11,000 74 382 0
2018-07-20 07:55:03 GMT 48.496353 2.027267 11,000 74 382 0
2018-07-20 07:54:56 GMT 48.493000 2.008836 11,000 74 382 0
2018-07-20 07:54:53 GMT 48.491325 1.999584 11,000 74 382 0
2018-07-20 07:54:47 GMT 48.488617 1.984652 11,000 74 383 0
2018-07-20 07:54:43 GMT 48.486298 1.971829 11,000 74 383 0
2018-07-20 07:54:36 GMT 48.483032 1.953806 11,000 74 383 0
2018-07-20 07:54:32 GMT 48.481270 1.944002 11,000 74 383 0
2018-07-20 07:54:26 GMT 48.478848 1.930630 11,000 74 384 0
2018-07-20 07:54:23 GMT 48.477360 1.922391 11,000 74 384 0
2018-07-20 07:54:20 GMT 48.476242 1.916175 11,000 74 384 0
2018-07-20 07:54:16 GMT 48.473637 1.901719 11,000 74 384 0
2018-07-20 07:54:10 GMT 48.471401 1.889359 11,000 74 384 0
2018-07-20 07:54:03 GMT 48.467861 1.869700 11,000 74 384 0
2018-07-20 07:54:00 GMT 48.466461 1.861971 11,000 74 384 0
2018-07-20 07:53:55 GMT 48.464512 1.851124 11,000 74 383 0
2018-07-20 07:53:52 GMT 48.463207 1.843896 11,000 74 383 0
2018-07-20 07:53:49 GMT 48.461533 1.834645 11,000 74 383 0
2018-07-20 07:53:42 GMT 48.458130 1.815702 11,000 74 382 64
2018-07-20 07:53:38 GMT 48.456619 1.807462 11,000 74 382 64
2018-07-20 07:53:34 GMT 48.454502 1.795686 11,000 74 382 0
2018-07-20 07:53:31 GMT 48.453384 1.789543 11,000 74 382 0
2018-07-20 07:53:28 GMT 48.451477 1.779279 11,000 74 382 0
2018-07-20 07:53:23 GMT 48.448868 1.764896 11,000 74 382 0
2018-07-20 07:53:20 GMT 48.447937 1.759764 11,000 74 383 0
2018-07-20 07:53:16 GMT 48.446075 1.749500 11,000 74 383 64
2018-07-20 07:53:12 GMT 48.444168 1.739237 11,000 74 384 0
2018-07-20 07:53:06 GMT 48.441559 1.724781 11,000 74 385 0
2018-07-20 07:53:00 GMT 48.438583 1.708797 11,000 74 385 -576
2018-07-20 07:52:56 GMT 48.436478 1.697458 11,050 74 385 -960
2018-07-20 07:52:50 GMT 48.433823 1.683021 11,350 74 386 -896
2018-07-20 07:52:43 GMT 48.430340 1.663850 11,375 74 388 -960
2018-07-20 07:52:39 GMT 48.428806 1.655538 11,300 74 387 -896
2018-07-20 07:52:32 GMT 48.425407 1.636818 11,425 74 387 -1024
2018-07-20 07:52:29 GMT 48.423916 1.628506 11,450 74 388 -960
2018-07-20 07:52:23 GMT 48.420959 1.612385 11,550 74 390 -896
2018-07-20 07:52:20 GMT 48.419586 1.605060 11,600 74 390 -896
2018-07-20 07:52:17 GMT 48.418442 1.598792 11,775 74 390 -832
2018-07-20 07:52:13 GMT 48.415970 1.585200 11,725 74 389 -768
2018-07-20 07:52:08 GMT 48.413452 1.571679 11,775 74 390 -640
2018-07-20 07:52:02 GMT 48.411022 1.558613 11,825 74 389 -640
2018-07-20 07:51:58 GMT 48.409115 1.548205 11,875 74 389 -640
2018-07-20 07:51:55 GMT 48.407867 1.541466 11,900 74 390 -640
2018-07-20 07:51:52 GMT 48.405807 1.530497 11,950 74 390 -640
2018-07-20 07:51:49 GMT 48.404831 1.525293 12,150 74 390 -704
2018-07-20 07:51:46 GMT 48.403481 1.517993 12,050 74 392 -704
2018-07-20 07:51:41 GMT 48.400547 1.502308 12,075 74 392 -704
2018-07-20 07:51:37 GMT 48.398438 1.491253 12,125 74 396 -640
2018-07-20 07:51:33 GMT 48.396778 1.482287 12,150 74 397 -640
2018-07-20 07:51:29 GMT 48.394867 1.472309 12,200 74 396 -640
2018-07-20 07:51:22 GMT 48.391376 1.453737 12,275 74 398 -640
2018-07-20 07:51:19 GMT 48.389748 1.445208 12,325 74 397 -576
2018-07-20 07:51:12 GMT 48.386444 1.427659 12,375 74 398 -640
2018-07-20 07:51:08 GMT 48.384064 1.414912 12,425 74 398 -640
2018-07-20 07:51:00 GMT 48.380402 1.395757 12,500 74 399 -640
2018-07-20 07:50:55 GMT 48.378063 1.383482 12,675 74 401 -640
2018-07-20 07:50:51 GMT 48.375778 1.371108 12,600 74 401 -640
2018-07-20 07:50:45 GMT 48.372246 1.352403 12,700 74 401 -704
2018-07-20 07:50:42 GMT 48.371220 1.347054 12,700 74 401 -704
2018-07-20 07:50:35 GMT 48.367401 1.327828 12,800 62 402 -832
2018-07-20 07:50:27 GMT 48.361130 1.305824 12,900 61 402 -832
2018-07-20 07:50:23 GMT 48.357880 1.297021 12,950 60 402 -768
2018-07-20 07:50:16 GMT 48.351517 1.280541 13,050 60 404 -768
2018-07-20 07:50:13 GMT 48.347988 1.271306 13,100 59 404 -832
2018-07-20 07:50:06 GMT 48.342178 1.256244 13,175 60 404 -832
2018-07-20 07:50:03 GMT 48.339569 1.249413 13,200 60 404 -832
2018-07-20 07:49:54 GMT 48.331512 1.228445 13,325 59 406 -768
2018-07-20 07:49:50 GMT 48.327164 1.217229 13,375 59 406 -832
2018-07-20 07:49:44 GMT 48.321690 1.203075 13,475 59 407 -768
2018-07-20 07:49:40 GMT 48.317917 1.193318 13,725 59 408 -832
2018-07-20 07:49:34 GMT 48.310913 1.175185 13,600 59 408 -768
2018-07-20 07:49:29 GMT 48.307892 1.167368 13,650 59 408 -832
2018-07-20 07:49:25 GMT 48.302418 1.153203 13,725 59 408 -768
2018-07-20 07:49:21 GMT 48.298969 1.144385 13,775 59 409 -896
2018-07-20 07:49:13 GMT 48.291595 1.125183 13,875 60 409 -960
2018-07-20 07:49:10 GMT 48.289307 1.119338 14,075 60 410 -1152
2018-07-20 07:49:04 GMT 48.283840 1.105066 14,025 60 408 -1088
2018-07-20 07:49:00 GMT 48.278580 1.091260 14,575 60 410 -1152
2018-07-20 07:48:57 GMT 48.277679 1.088773 14,575 60 410 -1152
2018-07-20 07:48:54 GMT 48.274857 1.081358 14,200 60 412 -1344
2018-07-20 07:48:49 GMT 48.269348 1.066941 14,325 60 415 -2304
2018-07-20 07:48:45 GMT 48.265408 1.056422 14,500 60 416 -2176
2018-07-20 07:48:40 GMT 48.261429 1.045814 14,700 60 419 -1920
2018-07-20 07:48:36 GMT 48.257771 1.036256 14,750 60 419 -2048
2018-07-20 07:48:33 GMT 48.254562 1.027574 14,875 60 422 -2432
2018-07-20 07:48:30 GMT 48.251675 1.019922 14,975 60 426 -2176
2018-07-20 07:48:24 GMT 48.245529 1.003514 15,200 60 427 -3136
2018-07-20 07:48:19 GMT 48.241104 0.991657 15,400 60 427 -3072
2018-07-20 07:48:12 GMT 48.234146 0.973065 15,750 60 427 -3136
2018-07-20 07:48:09 GMT 48.230255 0.962712 15,950 60 428 -2944
2018-07-20 07:48:06 GMT 48.228493 0.958051 16,525 60 431 -2752
2018-07-20 07:48:02 GMT 48.224998 0.948727 16,825 60 428 -3200
2018-07-20 07:47:55 GMT 48.218170 0.930669 16,800 60 431 -2688
2018-07-20 07:47:51 GMT 48.214062 0.919816 16,825 60 429 -2752
2018-07-20 07:47:48 GMT 48.210148 0.909480 17,550 60 433 -2752
2018-07-20 07:47:45 GMT 48.207821 0.903264 17,050 60 430 -2816
2018-07-20 07:47:42 GMT 48.204704 0.894952 17,600 60 432 -2688
2018-07-20 07:47:33 GMT 48.195099 0.869469 17,625 60 432 -2752
2018-07-20 07:47:26 GMT 48.188225 0.851224 18,075 60 434 -2688
2018-07-20 07:47:23 GMT 48.186222 0.845947 18,175 60 435 -2688
2018-07-20 07:47:20 GMT 48.183056 0.837563 18,175 60 435 -2688
2018-07-20 07:47:15 GMT 48.178528 0.825454 18,450 60 438 -2432
2018-07-20 07:47:12 GMT 48.175980 0.818626 18,650 60 439 -2368
2018-07-20 07:47:06 GMT 48.169601 0.801641 18,650 59 450 -2816
2018-07-20 07:47:01 GMT 48.164978 0.789396 18,875 60 443 -2560
2018-07-20 07:46:53 GMT 48.156464 0.766983 19,225 60 445 -2624
2018-07-20 07:46:50 GMT 48.153214 0.758400 19,375 60 447 -2624
2018-07-20 07:46:42 GMT 48.144974 0.736977 19,800 59 449 -2752
2018-07-20 07:46:39 GMT 48.141018 0.726717 19,900 59 450 -2944
2018-07-20 07:46:31 GMT 48.133255 0.706833 20,350 59 452 -2688
2018-07-20 07:46:28 GMT 48.130737 0.700310 20,350 59 452 -2688
2018-07-20 07:46:24 GMT 48.126728 0.690026 20,600 59 454 -2816
2018-07-20 07:46:20 GMT 48.121700 0.677068 20,850 59 454 -3072
2018-07-20 07:46:16 GMT 48.117462 0.666152 20,925 59 455 -3136
2018-07-20 07:46:13 GMT 48.114483 0.658546 21,250 59 456 -2752
2018-07-20 07:46:10 GMT 48.111328 0.650391 21,200 60 456 -2560
2018-07-20 07:46:04 GMT 48.105221 0.634531 21,575 60 459 -3328
2018-07-20 07:46:00 GMT 48.100983 0.623545 21,700 59 459 -3328
2018-07-20 07:45:57 GMT 48.097778 0.615303 21,925 60 460 -3200
2018-07-20 07:45:53 GMT 48.093723 0.604811 22,025 59 461 -3136
2018-07-20 07:45:50 GMT 48.089676 0.594360 22,525 60 462 -3200
2018-07-20 07:45:46 GMT 48.086040 0.584952 22,400 59 463 -3200
2018-07-20 07:45:42 GMT 48.081341 0.572768 23,100 60 465 -3264
2018-07-20 07:45:39 GMT 48.078140 0.564423 22,800 60 465 -3264
2018-07-20 07:45:36 GMT 48.075989 0.558861 22,900 60 467 -3136
2018-07-20 07:45:33 GMT 48.071686 0.547668 23,100 60 467 -3136
2018-07-20 07:45:29 GMT 48.067188 0.535936 23,325 60 469 -2816
2018-07-20 07:45:25 GMT 48.062485 0.523541 23,525 60 469 -2816
2018-07-20 07:45:21 GMT 48.058823 0.513954 23,700 60 471 -3392
2018-07-20 07:45:18 GMT 48.055801 0.506058 24,025 60 469 -4736
2018-07-20 07:45:15 GMT 48.053192 0.499260 24,025 60 468 -5376
2018-07-20 07:45:12 GMT 48.049545 0.489737 24,350 59 465 -5824
2018-07-20 07:45:09 GMT 48.046326 0.481476 24,625 59 463 -5568
2018-07-20 07:45:06 GMT 48.043026 0.473187 26,125 59 462 -5376
2018-07-20 07:45:03 GMT 48.039230 0.464035 25,275 57 459 -5248
2018-07-20 07:45:00 GMT 48.036648 0.458257 25,400 54 457 -5248
2018-07-20 07:44:57 GMT 48.030598 0.446214 26,125 49 453 -5056
2018-07-20 07:44:54 GMT 48.027290 0.440510 26,050 46 451 -4864
2018-07-20 07:44:51 GMT 48.024452 0.436002 26,150 46 451 -4864
2018-07-20 07:44:48 GMT 48.019051 0.428256 26,450 41 447 -4480
2018-07-20 07:44:45 GMT 48.014675 0.422622 26,650 39 446 -4352
2018-07-20 07:44:42 GMT 48.009750 0.417068 27,125 14 433 -1344
2018-07-20 07:44:39 GMT 48.004349 0.411507 27,150 30 440 -3776
2018-07-20 07:44:35 GMT 47.997639 0.405719 27,800 21 436 -2944
2018-07-20 07:44:32 GMT 47.992611 0.401917 27,575 21 436 -2944
2018-07-20 07:44:29 GMT 47.986313 0.397842 27,650 20 435 -2752
2018-07-20 07:44:25 GMT 47.977573 0.393254 27,850 15 433 -1536
2018-07-20 07:44:20 GMT 47.969849 0.390155 27,950 12 432 -640
2018-07-20 07:44:16 GMT 47.960861 0.387268 28,000 10 434 0
2018-07-20 07:44:12 GMT 47.953365 0.385226 28,000 10 434 0
2018-07-20 07:44:08 GMT 47.946243 0.383254 28,000 10 435 0
2018-07-20 07:44:04 GMT 47.937538 0.380859 28,000 10 438 64
2018-07-20 07:44:01 GMT 47.931564 0.379234 27,975 10 439 128
2018-07-20 07:43:57 GMT 47.924377 0.377243 27,975 10 442 -64
2018-07-20 07:43:54 GMT 47.915939 0.374873 27,975 10 447 -64
2018-07-20 07:43:50 GMT 47.909821 0.373192 28,000 10 448 0
2018-07-20 07:43:47 GMT 47.903694 0.371563 28,000 10 449 64
2018-07-20 07:43:44 GMT 47.898018 0.369943 28,000 10 449 64
2018-07-20 07:43:41 GMT 47.889824 0.367690 28,000 10 451 0
2018-07-20 07:43:38 GMT 47.885727 0.366563 28,000 10 451 0
2018-07-20 07:43:35 GMT 47.879562 0.364883 28,000 10 451 0
2018-07-20 07:43:32 GMT 47.870544 0.362343 28,000 10 452 0
2018-07-20 07:43:29 GMT 47.866425 0.361244 28,000 11 457 0
2018-07-20 07:43:25 GMT 47.858185 0.358910 28,000 10 453 -64
2018-07-20 07:43:21 GMT 47.851593 0.357056 28,000 10 454 -64
2018-07-20 07:43:18 GMT 47.843739 0.354872 28,000 10 455 0
2018-07-20 07:43:14 GMT 47.835068 0.352386 28,000 10 455 0
2018-07-20 07:43:11 GMT 47.829254 0.350739 28,000 10 455 0
2018-07-20 07:43:08 GMT 47.822662 0.348885 28,000 10 455 64
2018-07-20 07:43:03 GMT 47.813942 0.346492 28,000 10 455 0
2018-07-20 07:42:59 GMT 47.804398 0.343803 28,000 11 462 0
2018-07-20 07:42:56 GMT 47.796936 0.341675 28,000 11 462 0
2018-07-20 07:42:53 GMT 47.792816 0.340508 28,000 10 457 0
2018-07-20 07:42:50 GMT 47.785355 0.338379 28,000 10 457 64
2018-07-20 07:42:47 GMT 47.779121 0.336562 28,000 10 457 0
2018-07-20 07:42:43 GMT 47.771255 0.334259 28,000 11 457 0
2018-07-20 07:42:39 GMT 47.762970 0.331856 28,000 11 459 0
2018-07-20 07:42:36 GMT 47.757568 0.330294 28,000 11 457 0
2018-07-20 07:42:33 GMT 47.750473 0.328285 28,000 11 457 0
2018-07-20 07:42:29 GMT 47.742580 0.325998 28,000 11 458 0
2018-07-20 07:42:26 GMT 47.737598 0.324519 28,150 11 467 -1152
2018-07-20 07:42:22 GMT 47.727219 0.321556 28,000 11 458 0
2018-07-20 07:42:19 GMT 47.721405 0.319908 28,000 11 459 0
2018-07-20 07:42:16 GMT 47.716415 0.318466 28,000 11 460 0
2018-07-20 07:42:11 GMT 47.706825 0.315646 28,000 11 460 64
2018-07-20 07:42:08 GMT 47.698883 0.313385 28,000 10 461 0
2018-07-20 07:42:05 GMT 47.690067 0.310857 28,000 11 463 -64
2018-07-20 07:42:00 GMT 47.682083 0.308510 28,000 11 463 -64
2018-07-20 07:41:57 GMT 47.675354 0.306587 28,000 11 464 -128
2018-07-20 07:41:54 GMT 47.669025 0.304730 28,500 10 469 -2752
2018-07-20 07:41:50 GMT 47.660599 0.302335 28,025 11 467 -1024
2018-07-20 07:41:47 GMT 47.653805 0.300363 28,100 11 467 -1024
2018-07-20 07:41:44 GMT 47.646168 0.298110 28,100 11 467 -1024
2018-07-20 07:41:40 GMT 47.638535 0.295927 28,175 10 468 -1728
2018-07-20 07:41:35 GMT 47.629177 0.293250 28,300 10 468 -2048
2018-07-20 07:41:30 GMT 47.618145 0.290081 28,600 10 469 -2752
2018-07-20 07:41:25 GMT 47.606228 0.286701 28,750 10 468 -3264
2018-07-20 07:41:20 GMT 47.596870 0.284025 28,975 10 467 -3648
2018-07-20 07:41:17 GMT 47.591354 0.282417 29,225 10 466 -3392
2018-07-20 07:41:14 GMT 47.585403 0.280701 30,875 342 469 -3456
2018-07-20 07:41:11 GMT 47.576111 0.278023 29,600 10 466 -2816
2018-07-20 07:41:06 GMT 47.567642 0.275620 29,875 3 470 -1472
2018-07-20 07:41:03 GMT 47.560822 0.273766 31,500 332 464 -3392
2018-07-20 07:41:00 GMT 47.554825 0.272324 30,000 6 469 -1792
2018-07-20 07:40:57 GMT 47.546219 0.270744 30,075 5 470 -1600
2018-07-20 07:40:53 GMT 47.539749 0.270081 32,000 324 459 -3328
2018-07-20 07:40:50 GMT 47.533218 0.269989 30,325 354 471 -2368
2018-07-20 07:40:47 GMT 47.527554 0.270292 30,300 356 472 -2112
2018-07-20 07:40:43 GMT 47.515823 0.272324 30,525 351 471 -2688
2018-07-20 07:40:40 GMT 47.509872 0.274040 30,650 348 470 -3008
2018-07-20 07:40:35 GMT 47.501019 0.277546 30,875 342 469 -3456
2018-07-20 07:40:31 GMT 47.494080 0.281044 32,775 307 452 -3264
2018-07-20 07:40:27 GMT 47.485336 0.286469 31,425 333 464 -3392
2018-07-20 07:40:24 GMT 47.477325 0.292617 31,550 331 463 -3392
2018-07-20 07:40:21 GMT 47.472565 0.296768 31,700 329 462 -3392
2018-07-20 07:40:17 GMT 47.466202 0.303085 31,900 324 459 -3328
2018-07-20 07:40:14 GMT 47.461124 0.308814 32,350 320 457 -3328
2018-07-20 07:40:09 GMT 47.453537 0.318744 32,350 312 454 -3136
2018-07-20 07:40:06 GMT 47.449440 0.324942 32,750 308 453 -3200
2018-07-20 07:40:03 GMT 47.443130 0.335770 35,225 309 453 -3200
2018-07-20 07:39:59 GMT 47.440155 0.341743 35,325 294 439 -3200
2018-07-20 07:39:56 GMT 47.436684 0.349379 33,050 299 448 -3712
2018-07-20 07:39:53 GMT 47.433929 0.356232 33,175 299 448 -3712
2018-07-20 07:39:50 GMT 47.429443 0.369209 36,100 294 434 -2880
2018-07-20 07:39:47 GMT 47.427750 0.374771 33,575 294 444 -3136
2018-07-20 07:39:44 GMT 47.425652 0.381986 33,800 294 443 -3200
2018-07-20 07:39:41 GMT 47.423218 0.390358 33,875 294 443 -3200
2018-07-20 07:39:38 GMT 47.420483 0.399804 34,075 294 443 -3328
2018-07-20 07:39:34 GMT 47.417549 0.409734 34,250 294 442 -3200
2018-07-20 07:39:31 GMT 47.414795 0.419128 34,450 294 441 -3136
2018-07-20 07:39:28 GMT 47.412663 0.426284 34,650 294 441 -3136
2018-07-20 07:39:25 GMT 47.410381 0.434030 34,925 294 440 -3200
2018-07-20 07:39:20 GMT 47.405319 0.451057 35,050 294 439 -3200
2018-07-20 07:39:17 GMT 47.403584 0.457130 35,175 294 439 -3200
2018-07-20 07:39:14 GMT 47.401024 0.465933 35,325 294 439 -3136
2018-07-20 07:39:10 GMT 47.397995 0.476326 35,525 294 438 -3200
2018-07-20 07:39:07 GMT 47.395432 0.485115 35,750 294 436 -3200
2018-07-20 07:39:04 GMT 47.393188 0.492737 35,850 294 437 -3200
2018-07-20 07:38:59 GMT 47.389202 0.506357 36,225 294 434 -2752
2018-07-20 07:38:56 GMT 47.386780 0.514503 36,275 294 433 -2432
2018-07-20 07:38:53 GMT 47.384171 0.523155 36,375 294 433 -2112
2018-07-20 07:38:49 GMT 47.380280 0.536064 36,550 294 432 -1024
2018-07-20 07:38:46 GMT 47.377842 0.544175 36,600 294 432 -1024
2018-07-20 07:38:43 GMT 47.376213 0.549528 36,625 294 432 -832
2018-07-20 07:38:39 GMT 47.373001 0.560303 36,725 294 432 -832
2018-07-20 07:38:36 GMT 47.370720 0.567768 37,000 295 430 0
2018-07-20 07:38:33 GMT 47.368111 0.576360 36,775 294 431 -832
2018-07-20 07:38:27 GMT 47.363270 0.592417 36,850 295 431 -832
2018-07-20 07:38:23 GMT 47.360012 0.603121 36,900 295 430 -768
2018-07-20 07:38:17 GMT 47.355171 0.619178 36,975 295 430 -384
2018-07-20 07:38:14 GMT 47.352081 0.629311 37,000 295 429 0
2018-07-20 07:38:05 GMT 47.345306 0.651695 37,000 295 430 0
2018-07-20 07:38:02 GMT 47.343384 0.658081 37,000 295 430 0
2018-07-20 07:37:53 GMT 47.335152 0.685307 37,000 295 430 0
2018-07-20 07:37:50 GMT 47.333038 0.692276 37,000 295 430 0
2018-07-20 07:37:44 GMT 47.328186 0.708275 37,000 295 431 64
2018-07-20 07:37:41 GMT 47.326122 0.715238 37,000 295 430 0
2018-07-20 07:37:33 GMT 47.318954 0.738760 37,000 295 430 -64
2018-07-20 07:37:30 GMT 47.317200 0.744598 37,000 295 430 0
2018-07-20 07:37:23 GMT 47.311020 0.764923 37,000 295 430 0
2018-07-20 07:37:20 GMT 47.308411 0.773438 37,000 295 431 0
2018-07-20 07:37:15 GMT 47.304337 0.786790 37,000 295 431 64
2018-07-20 07:37:12 GMT 47.302708 0.792142 37,000 295 431 64
2018-07-20 07:37:09 GMT 47.300144 0.800734 37,000 295 431 64
2018-07-20 07:37:02 GMT 47.293583 0.822073 37,000 295 431 64
2018-07-20 07:36:57 GMT 47.290833 0.831184 37,000 295 431 64
2018-07-20 07:36:53 GMT 47.287216 0.842995 36,975 294 432 0
2018-07-20 07:36:50 GMT 47.284012 0.853706 37,000 280 424 0
2018-07-20 07:36:46 GMT 47.281769 0.861259 37,000 294 432 -64
2018-07-20 07:36:40 GMT 47.277420 0.877602 37,000 290 429 0
2018-07-20 07:36:37 GMT 47.275314 0.887558 37,000 285 426 0
2018-07-20 07:36:30 GMT 47.272842 0.905685 37,000 278 423 0
2018-07-20 07:36:27 GMT 47.272121 0.916513 37,000 273 421 0
2018-07-20 07:36:21 GMT 47.272217 0.934753 37,000 266 419 0
2018-07-20 07:36:18 GMT 47.272797 0.943245 37,000 253 415 0
2018-07-20 07:36:15 GMT 47.273621 0.951073 37,000 259 417 -64
2018-07-20 07:36:11 GMT 47.274994 0.959862 37,000 256 415 0
2018-07-20 07:36:08 GMT 47.276592 0.967994 37,000 251 414 0
2018-07-20 07:36:05 GMT 47.279114 0.978058 37,000 212 415 0
2018-07-20 07:36:00 GMT 47.283783 0.992134 37,000 241 413 0
2018-07-20 07:35:57 GMT 47.286320 0.998418 37,000 237 412 0
2018-07-20 07:35:53 GMT 47.290421 1.007172 37,000 233 413 0
2018-07-20 07:35:50 GMT 47.293488 1.012855 37,000 227 413 0
2018-07-20 07:35:47 GMT 47.299168 1.021940 37,000 227 413 0
2018-07-20 07:35:42 GMT 47.303638 1.028067 37,000 220 413 -64
2018-07-20 07:35:38 GMT 47.308990 1.034405 37,000 214 414 0
2018-07-20 07:35:34 GMT 47.317326 1.042504 37,000 211 415 0
2018-07-20 07:35:29 GMT 47.325119 1.048576 37,000 203 417 -64
2018-07-20 07:35:18 GMT 47.344894 1.058395 37,025 192 422 64
2018-07-20 07:35:10 GMT 47.359634 1.061417 37,000 169 435 0
2018-07-20 07:35:07 GMT 47.365128 1.061829 37,000 182 427 0
2018-07-20 07:35:00 GMT 47.381699 1.062515 37,000 182 428 64
2018-07-20 07:34:57 GMT 47.386459 1.062653 37,000 181 428 64
2018-07-20 07:34:52 GMT 47.397953 1.062575 37,000 176 430 0
2018-07-20 07:34:47 GMT 47.405865 1.062223 37,000 177 430 0
2018-07-20 07:34:43 GMT 47.413422 1.061623 37,000 176 430 0
2018-07-20 07:34:39 GMT 47.421787 1.060674 37,000 174 432 0
2018-07-20 07:34:36 GMT 47.427750 1.059769 37,000 173 432 0
2018-07-20 07:34:32 GMT 47.437271 1.058052 37,000 171 434 64
2018-07-20 07:34:27 GMT 47.445576 1.056237 37,000 169 435 0
2018-07-20 07:34:24 GMT 47.450371 1.055110 37,000 169 435 0
2018-07-20 07:34:21 GMT 47.457447 1.053068 37,000 168 436 0
2018-07-20 07:34:18 GMT 47.463409 1.051254 37,000 166 438 64
2018-07-20 07:34:14 GMT 47.471237 1.048508 37,000 165 439 -64
2018-07-20 07:34:06 GMT 47.487331 1.042434 37,000 165 439 -64
2018-07-20 07:34:02 GMT 47.497147 1.038620 37,000 165 439 64
2018-07-20 07:33:56 GMT 47.508560 1.034264 37,000 165 439 0
2018-07-20 07:33:52 GMT 47.514450 1.032028 37,000 165 439 -64
2018-07-20 07:33:45 GMT 47.529373 1.026329 37,000 165 439 64
2018-07-20 07:33:42 GMT 47.534088 1.024475 37,000 165 440 0
2018-07-20 07:33:38 GMT 47.541565 1.021658 37,000 165 439 64
2018-07-20 07:33:34 GMT 47.550179 1.018348 37,000 165 440 0
2018-07-20 07:33:31 GMT 47.555717 1.016235 37,000 165 440 0
2018-07-20 07:33:25 GMT 47.567497 1.011728 37,000 165 440 0
2018-07-20 07:33:22 GMT 47.575363 1.008700 37,000 165 440 0
2018-07-20 07:33:19 GMT 47.578903 1.007309 37,000 165 440 0
2018-07-20 07:33:15 GMT 47.587555 1.003944 37,000 165 440 64
2018-07-20 07:33:10 GMT 47.596592 1.000460 37,000 165 440 -64
2018-07-20 07:33:05 GMT 47.607578 0.996164 37,000 165 440 64
2018-07-20 07:33:02 GMT 47.613117 0.994051 37,000 165 440 64
2018-07-20 07:32:58 GMT 47.619781 0.991447 37,000 165 440 64
2018-07-20 07:32:54 GMT 47.628433 0.988083 37,000 165 440 0
2018-07-20 07:32:48 GMT 47.639420 0.983826 37,000 165 440 0
2018-07-20 07:32:44 GMT 47.647705 0.980600 37,000 165 440 0
2018-07-20 07:32:40 GMT 47.656769 0.977097 37,000 165 440 0
2018-07-20 07:32:37 GMT 47.660660 0.975586 37,000 165 440 0
2018-07-20 07:32:33 GMT 47.670517 0.971797 37,000 165 440 0
2018-07-20 07:32:28 GMT 47.678787 0.968582 37,000 165 440 0
2018-07-20 07:32:23 GMT 47.689415 0.964473 37,000 165 440 0
2018-07-20 07:32:19 GMT 47.698818 0.960811 37,000 165 440 64
2018-07-20 07:32:16 GMT 47.702778 0.959332 37,000 165 440 64
2018-07-20 07:32:12 GMT 47.710236 0.956429 37,000 165 440 64
2018-07-20 07:32:07 GMT 47.722046 0.951897 37,000 165 440 64
2018-07-20 07:32:02 GMT 47.729919 0.948875 37,000 165 440 64
2018-07-20 07:31:58 GMT 47.738571 0.945511 37,000 165 440 64
2018-07-20 07:31:54 GMT 47.745232 0.942923 37,000 165 440 0
2018-07-20 07:31:51 GMT 47.751160 0.940636 37,000 165 440 0
2018-07-20 07:31:48 GMT 47.759811 0.937271 37,000 165 440 64
2018-07-20 07:31:45 GMT 47.764133 0.935599 37,000 165 440 64
2018-07-20 07:31:42 GMT 47.770416 0.933134 37,000 165 440 0
2018-07-20 07:31:39 GMT 47.776337 0.930817 37,000 165 440 0
2018-07-20 07:31:35 GMT 47.783386 0.928070 37,000 165 440 0
2018-07-20 07:31:32 GMT 47.791260 0.925049 37,000 165 440 0
2018-07-20 07:31:29 GMT 47.796799 0.922920 37,000 165 440 0
2018-07-20 07:31:25 GMT 47.802677 0.920598 37,000 165 440 0
2018-07-20 07:31:21 GMT 47.812920 0.916654 37,000 165 440 64
2018-07-20 07:31:18 GMT 47.816036 0.915386 37,000 165 440 64
2018-07-20 07:31:15 GMT 47.823532 0.912483 37,000 165 440 0
2018-07-20 07:31:12 GMT 47.828655 0.910527 37,000 165 440 0
2018-07-20 07:31:09 GMT 47.837311 0.907217 37,000 165 440 0
2018-07-20 07:31:05 GMT 47.844818 0.904312 37,000 165 441 0
2018-07-20 07:31:01 GMT 47.852303 0.901372 37,000 165 441 0
2018-07-20 07:30:58 GMT 47.857002 0.899611 37,000 165 441 0
2018-07-20 07:30:54 GMT 47.864502 0.896690 37,000 165 441 0
2018-07-20 07:30:50 GMT 47.871994 0.893836 37,000 165 441 0
2018-07-20 07:30:46 GMT 47.879860 0.890738 37,000 165 441 0
2018-07-20 07:30:43 GMT 47.885403 0.888625 37,000 165 441 0
2018-07-20 07:30:38 GMT 47.896435 0.884329 37,000 165 441 0
2018-07-20 07:30:35 GMT 47.901134 0.882498 37,000 165 441 0
2018-07-20 07:30:32 GMT 47.907074 0.880211 37,000 165 441 0
2018-07-20 07:30:28 GMT 47.916916 0.876371 37,000 165 441 0
2018-07-20 07:30:22 GMT 47.927952 0.872075 37,000 165 441 0
2018-07-20 07:30:18 GMT 47.934631 0.869499 37,000 165 440 64
2018-07-20 07:30:14 GMT 47.943684 0.865948 37,000 165 440 64
2018-07-20 07:30:09 GMT 47.953537 0.862083 37,000 165 440 64
2018-07-20 07:30:04 GMT 47.962585 0.858553 37,000 165 440 64
2018-07-20 07:30:01 GMT 47.969707 0.855807 37,000 165 441 64
2018-07-20 07:29:58 GMT 47.974823 0.853775 37,000 165 441 64
2018-07-20 07:29:54 GMT 47.983067 0.850595 37,000 165 441 64
2018-07-20 07:29:49 GMT 47.992950 0.846703 37,000 165 441 64
2018-07-20 07:29:46 GMT 47.998848 0.844398 37,000 165 441 64
2018-07-20 07:29:43 GMT 48.003597 0.842567 37,000 165 441 64
2018-07-20 07:29:40 GMT 48.010254 0.839973 37,000 165 441 64
2018-07-20 07:29:37 GMT 48.015015 0.838120 37,000 165 441 0
2018-07-20 07:29:32 GMT 48.026047 0.833794 37,000 165 441 0
2018-07-20 07:29:28 GMT 48.035114 0.830242 37,000 165 441 0
2018-07-20 07:29:25 GMT 48.039459 0.828506 37,000 165 441 0
2018-07-20 07:29:22 GMT 48.045353 0.826228 37,000 165 441 0
2018-07-20 07:29:18 GMT 48.054806 0.822496 37,000 165 441 0
2018-07-20 07:29:15 GMT 48.060745 0.820198 37,000 165 441 0
2018-07-20 07:29:10 GMT 48.068619 0.817177 37,000 165 441 0
2018-07-20 07:29:07 GMT 48.075333 0.814608 37,000 165 441 0
2018-07-20 07:29:01 GMT 48.087952 0.809678 37,000 165 441 0
2018-07-20 07:28:58 GMT 48.095024 0.806932 37,000 165 441 0
2018-07-20 07:28:55 GMT 48.101311 0.804467 37,000 165 441 64
2018-07-20 07:28:50 GMT 48.107639 0.801932 37,000 165 441 0
2018-07-20 07:28:46 GMT 48.119064 0.797470 37,000 165 441 0
2018-07-20 07:28:42 GMT 48.126541 0.794537 37,000 165 440 0
2018-07-20 07:28:39 GMT 48.132431 0.792183 37,000 165 440 0
2018-07-20 07:28:35 GMT 48.138367 0.789889 37,000 165 440 64
2018-07-20 07:28:30 GMT 48.149002 0.785728 37,000 165 440 0
2018-07-20 07:28:27 GMT 48.153309 0.783973 37,000 165 440 0
2018-07-20 07:28:24 GMT 48.159641 0.781508 37,000 165 440 0
2018-07-20 07:28:20 GMT 48.169044 0.777789 37,000 165 440 0
2018-07-20 07:28:17 GMT 48.172623 0.776367 37,000 165 440 0
2018-07-20 07:28:14 GMT 48.181274 0.772987 37,000 165 440 0
2018-07-20 07:28:08 GMT 48.191483 0.768902 37,000 165 440 64
2018-07-20 07:28:05 GMT 48.197800 0.766437 37,000 165 440 0
2018-07-20 07:28:02 GMT 48.203293 0.764254 37,000 165 440 0
2018-07-20 07:27:59 GMT 48.209610 0.761719 37,000 165 440 0
2018-07-20 07:27:56 GMT 48.215504 0.759430 37,000 165 441 0
2018-07-20 07:27:52 GMT 48.222977 0.756507 37,000 165 441 0
2018-07-20 07:27:49 GMT 48.231285 0.753214 37,000 165 441 0
2018-07-20 07:27:46 GMT 48.234009 0.752141 37,000 165 441 0
2018-07-20 07:27:42 GMT 48.244263 0.748056 37,000 165 441 0
2018-07-20 07:27:39 GMT 48.248978 0.746225 37,000 165 441 0
2018-07-20 07:27:36 GMT 48.254517 0.744042 37,000 165 440 0
2018-07-20 07:27:33 GMT 48.260426 0.741649 37,000 165 440 0
2018-07-20 07:27:29 GMT 48.270264 0.737774 37,000 165 440 0
2018-07-20 07:27:26 GMT 48.273785 0.736373 37,000 165 440 64
2018-07-20 07:27:23 GMT 48.278915 0.734323 37,000 165 440 0
2018-07-20 07:27:19 GMT 48.287193 0.731097 37,000 165 440 0
2018-07-20 07:27:16 GMT 48.293476 0.728567 37,000 165 440 0
2018-07-20 07:27:13 GMT 48.300201 0.725943 37,000 165 440 0
2018-07-20 07:27:09 GMT 48.308075 0.722774 37,000 165 440 64
2018-07-20 07:27:06 GMT 48.313961 0.720472 37,000 165 440 64
2018-07-20 07:27:02 GMT 48.321442 0.717492 37,000 165 440 0
2018-07-20 07:26:57 GMT 48.333652 0.712666 37,000 165 441 0
2018-07-20 07:26:52 GMT 48.340347 0.710027 37,000 165 441 0
2018-07-20 07:26:48 GMT 48.350601 0.706012 37,000 165 441 64
2018-07-20 07:26:45 GMT 48.353714 0.704815 37,000 165 441 64
2018-07-20 07:26:42 GMT 48.361633 0.701646 37,000 165 441 0
2018-07-20 07:26:39 GMT 48.367126 0.699533 37,000 165 441 0
2018-07-20 07:26:35 GMT 48.375000 0.696435 37,000 165 441 0
2018-07-20 07:26:32 GMT 48.381317 0.693970 37,000 165 441 0
2018-07-20 07:26:28 GMT 48.388023 0.691344 37,000 165 441 0
2018-07-20 07:26:25 GMT 48.395893 0.688236 37,000 165 441 0
2018-07-20 07:26:21 GMT 48.402225 0.685778 37,000 165 441 64
2018-07-20 07:26:15 GMT 48.413681 0.681293 37,000 165 441 0
2018-07-20 07:26:12 GMT 48.419586 0.678984 37,000 165 441 64
2018-07-20 07:26:09 GMT 48.424713 0.676997 37,000 165 441 64
2018-07-20 07:26:02 GMT 48.441654 0.670238 37,000 165 441 0
2018-07-20 07:25:59 GMT 48.445221 0.668828 37,000 165 441 -64
2018-07-20 07:25:54 GMT 48.455853 0.664601 37,000 165 442 0
2018-07-20 07:25:50 GMT 48.464951 0.661011 37,000 165 442 0
2018-07-20 07:25:47 GMT 48.470444 0.658757 37,000 165 441 0
2018-07-20 07:25:44 GMT 48.476379 0.656433 37,000 165 441 0
2018-07-20 07:25:41 GMT 48.480339 0.654843 37,000 165 441 -64
2018-07-20 07:25:38 GMT 48.485878 0.652675 37,000 165 441 -64
2018-07-20 07:25:35 GMT 48.495327 0.648916 37,000 165 441 -64
2018-07-20 07:25:31 GMT 48.499649 0.647137 37,000 165 441 64
2018-07-20 07:25:28 GMT 48.507942 0.643857 37,000 165 441 64
2018-07-20 07:25:25 GMT 48.514664 0.641151 37,000 165 441 0
2018-07-20 07:25:20 GMT 48.522537 0.637982 37,000 165 441 0
2018-07-20 07:25:17 GMT 48.528473 0.635617 37,000 165 441 0
2018-07-20 07:25:13 GMT 48.535549 0.632726 37,000 165 441 0
2018-07-20 07:25:10 GMT 48.541489 0.630376 37,000 165 441 0
2018-07-20 07:25:07 GMT 48.548584 0.627488 37,000 165 441 0
2018-07-20 07:25:01 GMT 48.561996 0.622136 37,000 165 441 0
2018-07-20 07:24:58 GMT 48.564785 0.621017 37,000 165 441 0
2018-07-20 07:24:55 GMT 48.572250 0.617981 37,000 165 441 64
2018-07-20 07:24:50 GMT 48.583328 0.613544 37,000 165 441 0
2018-07-20 07:24:45 GMT 48.590424 0.610657 37,000 164 443 0
2018-07-20 07:24:42 GMT 48.597927 0.607645 37,000 165 442 0
2018-07-20 07:24:38 GMT 48.604214 0.605043 37,000 165 442 0
2018-07-20 07:24:35 GMT 48.611755 0.602065 37,000 165 442 64
2018-07-20 07:24:30 GMT 48.620041 0.598755 37,000 165 442 64
2018-07-20 07:24:27 GMT 48.626328 0.596153 37,000 165 442 0
2018-07-20 07:24:23 GMT 48.634239 0.592973 37,000 165 442 0
2018-07-20 07:24:19 GMT 48.643341 0.589318 37,000 165 442 0
2018-07-20 07:24:16 GMT 48.650066 0.586612 37,000 165 442 0
2018-07-20 07:24:12 GMT 48.656754 0.583895 37,000 165 443 64
2018-07-20 07:24:09 GMT 48.665058 0.580613 37,000 165 442 0
2018-07-20 07:24:06 GMT 48.670990 0.578191 37,000 165 442 0
2018-07-20 07:24:01 GMT 48.678909 0.575022 37,000 165 442 0
2018-07-20 07:23:56 GMT 48.690380 0.570494 37,000 165 442 0
2018-07-20 07:23:51 GMT 48.698685 0.567134 37,000 165 442 0
2018-07-20 07:23:46 GMT 48.708584 0.563194 37,000 165 443 64
2018-07-20 07:23:42 GMT 48.716080 0.560232 37,000 165 443 64
2018-07-20 07:23:38 GMT 48.723621 0.557267 37,000 165 443 0
2018-07-20 07:23:34 GMT 48.735855 0.552345 37,000 165 443 0
2018-07-20 07:23:31 GMT 48.738235 0.551429 37,000 165 443 0
2018-07-20 07:23:27 GMT 48.744987 0.548738 37,000 165 443 0
2018-07-20 07:23:24 GMT 48.751694 0.546077 37,000 165 443 0
2018-07-20 07:23:19 GMT 48.760815 0.542450 37,000 165 442 0
2018-07-20 07:23:16 GMT 48.767937 0.539559 37,000 165 442 0
2018-07-20 07:23:13 GMT 48.774269 0.537029 37,000 165 442 0
2018-07-20 07:23:09 GMT 48.780991 0.534316 37,000 164 443 0
2018-07-20 07:23:06 GMT 48.787308 0.531781 37,000 164 443 0
2018-07-20 07:23:00 GMT 48.799595 0.526766 37,000 164 443 0
2018-07-20 07:22:56 GMT 48.807507 0.523585 37,000 164 443 0
2018-07-20 07:22:53 GMT 48.813000 0.521345 37,000 164 443 0
2018-07-20 07:22:50 GMT 48.820541 0.518259 37,000 164 443 0
2018-07-20 07:22:45 GMT 48.828415 0.515019 37,000 164 443 0
2018-07-20 07:22:41 GMT 48.836334 0.511780 37,000 164 443 0
2018-07-20 07:22:38 GMT 48.841492 0.509636 37,000 164 443 64
2018-07-20 07:22:35 GMT 48.848614 0.506744 37,000 164 443 -64
2018-07-20 07:22:31 GMT 48.855690 0.503781 37,000 164 443 0
2018-07-20 07:22:27 GMT 48.863983 0.500371 37,000 164 443 0
2018-07-20 07:22:24 GMT 48.869144 0.498288 37,000 164 443 0
2018-07-20 07:22:21 GMT 48.875839 0.495512 37,000 164 443 64
2018-07-20 07:22:18 GMT 48.882595 0.492795 37,000 164 443 64
2018-07-20 07:22:14 GMT 48.890076 0.489737 37,000 164 443 64
2018-07-20 07:22:09 GMT 48.900753 0.485350 37,000 164 443 0
2018-07-20 07:22:06 GMT 48.905499 0.483471 37,000 164 443 0
2018-07-20 07:22:03 GMT 48.911407 0.481004 37,000 164 443 0
2018-07-20 07:21:58 GMT 48.920929 0.477131 37,000 164 443 0
2018-07-20 07:21:53 GMT 48.931961 0.472623 37,000 164 443 0
2018-07-20 07:21:48 GMT 48.941067 0.468943 37,000 164 443 0
2018-07-20 07:21:44 GMT 48.948978 0.465690 37,000 164 443 64
2018-07-20 07:21:41 GMT 48.955311 0.463160 37,000 164 443 0
2018-07-20 07:21:38 GMT 48.963970 0.459619 37,000 164 443 0
2018-07-20 07:21:35 GMT 48.967529 0.458116 37,000 165 442 0
2018-07-20 07:21:31 GMT 48.974258 0.455427 37,000 165 442 0
2018-07-20 07:21:27 GMT 48.985336 0.450945 37,000 165 442 0
2018-07-20 07:21:22 GMT 48.992844 0.447904 37,000 165 442 0
2018-07-20 07:21:16 GMT 49.005524 0.442763 37,000 164 443 0
2018-07-20 07:21:13 GMT 49.011017 0.440510 37,000 164 443 0
2018-07-20 07:21:10 GMT 49.015362 0.438730 37,000 165 442 0
2018-07-20 07:21:06 GMT 49.027233 0.433960 37,000 165 442 0
2018-07-20 07:21:01 GMT 49.034355 0.431069 37,000 165 442 0
2018-07-20 07:20:58 GMT 49.039059 0.429117 37,000 165 442 0
2018-07-20 07:20:55 GMT 49.047363 0.425791 37,000 165 442 0
2018-07-20 07:20:50 GMT 49.056061 0.422340 37,000 165 442 0
2018-07-20 07:20:47 GMT 49.062008 0.420010 37,000 165 442 0
2018-07-20 07:20:44 GMT 49.068340 0.417480 37,000 165 442 0
2018-07-20 07:20:40 GMT 49.075058 0.414804 37,000 164 440 0
2018-07-20 07:20:37 GMT 49.082539 0.411843 37,000 164 440 0
2018-07-20 07:20:34 GMT 49.090073 0.408818 37,000 165 441 0
2018-07-20 07:20:30 GMT 49.095943 0.406422 37,000 164 441 0
2018-07-20 07:20:26 GMT 49.105042 0.402762 37,000 165 441 0
2018-07-20 07:20:23 GMT 49.111725 0.400061 37,000 164 440 0
2018-07-20 07:20:20 GMT 49.114471 0.398888 37,000 164 440 0
2018-07-20 07:20:17 GMT 49.123550 0.395219 37,000 164 441 0
2018-07-20 07:20:14 GMT 49.127460 0.393629 37,000 164 441 0
2018-07-20 07:20:11 GMT 49.133377 0.391212 37,000 164 441 0
2018-07-20 07:20:08 GMT 49.138092 0.389240 37,000 164 441 0
2018-07-20 07:20:05 GMT 49.145187 0.386353 37,000 164 440 0
2018-07-20 07:20:02 GMT 49.152237 0.383395 37,000 164 441 0
2018-07-20 07:19:59 GMT 49.155811 0.381992 37,000 164 440 0
2018-07-20 07:19:56 GMT 49.162888 0.379028 37,000 164 440 0
2018-07-20 07:19:53 GMT 49.169125 0.376426 37,000 164 440 64
2018-07-20 07:19:50 GMT 49.175034 0.374028 37,000 164 440 0
2018-07-20 07:19:47 GMT 49.178970 0.372408 37,000 164 440 0
2018-07-20 07:19:43 GMT 49.187187 0.369054 37,000 164 440 0
2018-07-20 07:19:40 GMT 49.195847 0.365512 37,000 164 440 0
2018-07-20 07:19:37 GMT 49.199757 0.363850 37,000 164 440 64
2018-07-20 07:19:32 GMT 49.211533 0.359007 37,000 164 440 64
2018-07-20 07:19:28 GMT 49.217773 0.356477 37,000 164 440 64
2018-07-20 07:19:25 GMT 49.223694 0.354027 37,000 164 440 64
2018-07-20 07:19:22 GMT 49.227966 0.352285 37,000 164 440 0
2018-07-20 07:19:19 GMT 49.235836 0.349033 37,000 164 440 0
2018-07-20 07:19:15 GMT 49.243286 0.345999 37,000 164 440 0
2018-07-20 07:19:10 GMT 49.255432 0.340938 37,000 164 440 0
2018-07-20 07:19:06 GMT 49.261719 0.338336 37,000 164 440 -64
2018-07-20 07:19:03 GMT 49.268372 0.335576 37,000 164 440 64
2018-07-20 07:18:59 GMT 49.276615 0.332120 37,000 164 440 0
2018-07-20 07:18:55 GMT 49.280914 0.330365 37,000 164 440 64
2018-07-20 07:18:52 GMT 49.287964 0.327407 37,000 164 440 64
2018-07-20 07:18:49 GMT 49.295792 0.324167 37,000 164 440 64
2018-07-20 07:18:46 GMT 49.300121 0.322362 37,000 164 440 0
2018-07-20 07:18:43 GMT 49.304443 0.320575 37,000 164 440 0
2018-07-20 07:18:39 GMT 49.314228 0.316507 37,000 164 440 0
2018-07-20 07:18:36 GMT 49.321701 0.313392 37,000 164 440 0
2018-07-20 07:18:33 GMT 49.325592 0.311772 37,000 164 440 64
2018-07-20 07:18:30 GMT 49.331501 0.309352 37,000 164 440 0
2018-07-20 07:18:27 GMT 49.338181 0.306631 37,000 164 440 0
2018-07-20 07:18:24 GMT 49.342850 0.304659 37,000 164 440 0
2018-07-20 07:18:20 GMT 49.350307 0.301618 37,000 164 440 -64
2018-07-20 07:18:17 GMT 49.358551 0.298180 37,000 164 440 64
2018-07-20 07:18:14 GMT 49.362083 0.296703 37,000 164 440 0
2018-07-20 07:18:11 GMT 49.369160 0.293812 37,000 164 440 0
2018-07-20 07:18:07 GMT 49.375854 0.291067 37,000 164 440 0
2018-07-20 07:18:03 GMT 49.383312 0.287957 37,000 164 440 0
2018-07-20 07:17:59 GMT 49.392334 0.284236 37,000 165 440 0
2018-07-20 07:17:55 GMT 49.398998 0.281525 37,000 165 440 0
2018-07-20 07:17:52 GMT 49.406075 0.278561 37,000 165 440 0
2018-07-20 07:17:49 GMT 49.411972 0.276137 37,000 165 440 0
2018-07-20 07:17:46 GMT 49.421021 0.272418 37,000 164 441 0
2018-07-20 07:17:42 GMT 49.426117 0.270362 37,000 165 440 0
2018-07-20 07:17:38 GMT 49.433990 0.267069 37,000 165 440 0
2018-07-20 07:17:34 GMT 49.441040 0.264178 37,000 165 440 64
2018-07-20 07:17:30 GMT 49.448914 0.260998 37,000 165 440 64
2018-07-20 07:17:27 GMT 49.455963 0.258034 37,000 165 440 0
2018-07-20 07:17:24 GMT 49.461891 0.255655 37,000 165 440 64
2018-07-20 07:17:21 GMT 49.466595 0.253725 37,000 165 440 64
2018-07-20 07:17:18 GMT 49.473267 0.250951 37,000 164 440 64
2018-07-20 07:17:13 GMT 49.486240 0.245634 37,000 164 440 0
2018-07-20 07:17:09 GMT 49.491734 0.243407 37,000 164 440 0
2018-07-20 07:17:06 GMT 49.496063 0.241627 37,000 164 440 0
2018-07-20 07:17:02 GMT 49.502720 0.238804 37,000 164 440 0
2018-07-20 07:16:58 GMT 49.512123 0.234944 37,000 164 440 0
2018-07-20 07:16:53 GMT 49.523109 0.230342 37,000 164 440 0
2018-07-20 07:16:50 GMT 49.527065 0.228709 37,000 164 440 64
2018-07-20 07:16:47 GMT 49.534885 0.225442 37,000 164 440 0
2018-07-20 07:16:44 GMT 49.538795 0.223809 37,000 164 440 0
2018-07-20 07:16:41 GMT 49.545872 0.220914 37,000 164 440 0
2018-07-20 07:16:38 GMT 49.552948 0.217945 37,000 164 440 0
2018-07-20 07:16:32 GMT 49.565094 0.212860 37,000 164 440 0
2018-07-20 07:16:29 GMT 49.567844 0.211710 37,000 164 440 -64
2018-07-20 07:16:26 GMT 49.576504 0.208146 37,000 164 440 -64
2018-07-20 07:16:23 GMT 49.579239 0.207006 37,000 164 440 0
2018-07-20 07:16:20 GMT 49.587444 0.203470 37,000 164 440 64
2018-07-20 07:16:17 GMT 49.594894 0.200356 37,000 165 440 0
2018-07-20 07:16:13 GMT 49.600014 0.198199 37,000 164 440 0
2018-07-20 07:16:09 GMT 49.607483 0.195080 37,000 164 440 64
2018-07-20 07:16:06 GMT 49.614910 0.191964 37,000 164 440 0
2018-07-20 07:16:03 GMT 49.620403 0.189663 37,000 164 440 0
2018-07-20 07:16:00 GMT 49.626686 0.186990 37,000 164 440 0
2018-07-20 07:15:57 GMT 49.630646 0.185357 37,000 164 441 0
2018-07-20 07:15:53 GMT 49.639256 0.181720 37,000 164 441 0
2018-07-20 07:15:49 GMT 49.647537 0.178311 37,000 164 441 0
2018-07-20 07:15:46 GMT 49.654991 0.175187 37,000 164 441 0
2018-07-20 07:15:43 GMT 49.657745 0.174047 37,000 164 441 -64
2018-07-20 07:15:40 GMT 49.665234 0.170956 37,000 163 441 0
2018-07-20 07:15:37 GMT 49.669933 0.169026 37,000 161 441 0
2018-07-20 07:15:34 GMT 49.678986 0.165229 37,000 163 441 0
2018-07-20 07:15:28 GMT 49.688324 0.160892 37,000 161 441 0
2018-07-20 07:15:25 GMT 49.695679 0.157149 37,000 161 441 0
2018-07-20 07:15:22 GMT 49.700729 0.154604 37,000 161 442 0
2018-07-20 07:15:19 GMT 49.706524 0.151656 37,000 161 441 0
2018-07-20 07:15:16 GMT 49.712357 0.148677 37,000 161 441 0
2018-07-20 07:15:13 GMT 49.717758 0.145930 37,000 161 441 0
2018-07-20 07:15:10 GMT 49.724716 0.142316 37,000 161 441 0
2018-07-20 07:15:07 GMT 49.730118 0.139570 37,000 161 441 64
2018-07-20 07:15:04 GMT 49.734787 0.137185 37,000 161 441 64
2018-07-20 07:15:01 GMT 49.742523 0.133282 37,000 161 441 0
2018-07-20 07:14:57 GMT 49.748329 0.130277 37,000 161 441 0
2018-07-20 07:14:54 GMT 49.755264 0.126788 37,000 161 442 64
2018-07-20 07:14:50 GMT 49.761108 0.123813 37,000 161 441 64
2018-07-20 07:14:47 GMT 49.769230 0.119736 37,000 161 441 0
2018-07-20 07:14:44 GMT 49.775024 0.116730 37,000 161 441 0
2018-07-20 07:14:38 GMT 49.786266 0.111051 37,000 161 441 0
2018-07-20 07:14:35 GMT 49.792831 0.107695 37,000 161 441 0
2018-07-20 07:14:31 GMT 49.799397 0.104296 37,000 161 441 0
2018-07-20 07:14:28 GMT 49.805969 0.100973 37,000 161 441 0
2018-07-20 07:14:24 GMT 49.812973 0.097359 37,000 161 441 0
2018-07-20 07:14:21 GMT 49.818764 0.094423 37,000 161 441 0
2018-07-20 07:14:17 GMT 49.826488 0.090415 37,000 161 441 0
2018-07-20 07:14:14 GMT 49.831890 0.087668 37,000 161 441 64
2018-07-20 07:14:11 GMT 49.837692 0.084638 37,000 161 441 0
2018-07-20 07:14:08 GMT 49.843140 0.081892 37,000 161 441 64
2018-07-20 07:14:05 GMT 49.850464 0.078092 37,000 161 441 -64
2018-07-20 07:14:02 GMT 49.854328 0.076088 37,000 161 441 0
2018-07-20 07:13:58 GMT 49.861313 0.072450 37,000 161 441 0
2018-07-20 07:13:55 GMT 49.869415 0.068303 37,000 161 441 64
2018-07-20 07:13:52 GMT 49.874863 0.065484 37,000 161 441 64
2018-07-20 07:13:48 GMT 49.882957 0.061316 37,000 161 441 0
2018-07-20 07:13:45 GMT 49.887222 0.059124 37,000 161 441 0
2018-07-20 07:13:42 GMT 49.893402 0.055871 37,000 161 441 0
2018-07-20 07:13:39 GMT 49.900787 0.052111 37,000 161 442 0
2018-07-20 07:13:36 GMT 49.904652 0.050107 37,000 161 442 0
2018-07-20 07:13:33 GMT 49.910431 0.047053 37,000 161 441 0
2018-07-20 07:13:30 GMT 49.916656 0.043873 37,000 161 442 0
2018-07-20 07:13:26 GMT 49.923615 0.040259 37,000 161 442 0
2018-07-20 07:13:23 GMT 49.929016 0.037440 37,000 161 442 0
2018-07-20 07:13:20 GMT 49.937191 0.033256 37,000 161 443 0
2018-07-20 07:13:17 GMT 49.942200 0.030574 37,000 161 443 0
2018-07-20 07:13:14 GMT 49.949574 0.026798 37,000 161 443 64
2018-07-20 07:13:11 GMT 49.954975 0.023977 37,000 161 443 64
2018-07-20 07:13:06 GMT 49.962749 0.019968 37,000 161 443 64
2018-07-20 07:13:02 GMT 49.972012 0.015069 37,000 161 442 0
2018-07-20 07:12:59 GMT 49.978592 0.011637 37,000 161 443 0
2018-07-20 07:12:55 GMT 49.985977 0.007794 37,000 161 443 0
2018-07-20 07:12:52 GMT 49.990631 0.005419 37,000 161 442 0
2018-07-20 07:12:49 GMT 49.996822 0.002227 37,000 161 442 0
2018-07-20 07:12:46 GMT 50.004551 -0.001782 37,000 161 442 0
2018-07-20 07:12:43 GMT 50.009998 -0.004602 37,000 161 442 0
2018-07-20 07:12:40 GMT 50.014252 -0.006794 37,000 161 442 0
2018-07-20 07:12:36 GMT 50.021255 -0.010408 37,000 161 442 64
2018-07-20 07:12:33 GMT 50.028214 -0.013950 37,000 161 442 0
2018-07-20 07:12:30 GMT 50.035603 -0.017741 37,000 161 442 0
2018-07-20 07:12:27 GMT 50.039108 -0.019587 37,000 161 443 0
2018-07-20 07:12:24 GMT 50.044914 -0.022641 37,000 161 443 0
2018-07-20 07:12:21 GMT 50.051514 -0.026020 37,000 161 442 0
2018-07-20 07:12:18 GMT 50.056137 -0.028478 37,000 161 442 0
2018-07-20 07:12:15 GMT 50.061951 -0.031474 37,000 161 443 0
2018-07-20 07:12:12 GMT 50.070469 -0.035928 37,000 161 443 0
2018-07-20 07:12:09 GMT 50.075127 -0.038378 37,000 161 443 0
2018-07-20 07:12:06 GMT 50.078613 -0.040187 37,000 161 443 0
2018-07-20 07:12:03 GMT 50.086395 -0.044234 37,000 161 443 0
2018-07-20 07:12:00 GMT 50.091419 -0.046840 37,000 161 443 0
2018-07-20 07:11:57 GMT 50.097244 -0.049872 37,000 161 443 -64
2018-07-20 07:11:54 GMT 50.101475 -0.052111 37,000 161 442 0
2018-07-20 07:11:51 GMT 50.109249 -0.056119 37,000 161 442 0
2018-07-20 07:11:48 GMT 50.115829 -0.059557 37,000 161 442 0
2018-07-20 07:11:44 GMT 50.122055 -0.062738 37,000 161 442 0
2018-07-20 07:11:41 GMT 50.128613 -0.066141 37,000 161 442 0
2018-07-20 07:11:38 GMT 50.133682 -0.068737 37,000 161 442 64
2018-07-20 07:11:35 GMT 50.139462 -0.071708 37,000 161 442 0
2018-07-20 07:11:32 GMT 50.144115 -0.074158 37,000 161 442 0
2018-07-20 07:11:29 GMT 50.153824 -0.079145 37,000 161 442 0
2018-07-20 07:11:25 GMT 50.161201 -0.082991 37,000 161 442 64
2018-07-20 07:11:22 GMT 50.165066 -0.084996 37,000 161 442 0
2018-07-20 07:11:19 GMT 50.171631 -0.088397 37,000 161 442 0
2018-07-20 07:11:15 GMT 50.178635 -0.092010 37,000 161 442 0
2018-07-20 07:11:12 GMT 50.184036 -0.094829 37,000 161 442 0
2018-07-20 07:11:09 GMT 50.191040 -0.098443 37,000 161 442 0
2018-07-20 07:11:06 GMT 50.197605 -0.101846 37,000 161 442 0
2018-07-20 07:11:03 GMT 50.201515 -0.103850 37,000 161 443 0
2018-07-20 07:11:00 GMT 50.210033 -0.108304 37,000 161 443 0
2018-07-20 07:10:57 GMT 50.212738 -0.109719 37,000 161 443 0
2018-07-20 07:10:54 GMT 50.219742 -0.113333 37,000 161 443 0
2018-07-20 07:10:51 GMT 50.224411 -0.115790 37,000 161 443 0
2018-07-20 07:10:48 GMT 50.231030 -0.119217 37,000 161 443 0
2018-07-20 07:10:45 GMT 50.238010 -0.122854 37,000 161 443 0
2018-07-20 07:10:42 GMT 50.243866 -0.125909 37,000 161 443 0
2018-07-20 07:10:39 GMT 50.250092 -0.129162 37,000 161 443 0
2018-07-20 07:10:35 GMT 50.255539 -0.131980 37,000 161 443 0
2018-07-20 07:10:32 GMT 50.262917 -0.135844 37,000 161 444 0
2018-07-20 07:10:29 GMT 50.267990 -0.138486 37,000 161 444 0
2018-07-20 07:10:26 GMT 50.273392 -0.141377 37,000 161 444 64
2018-07-20 07:10:23 GMT 50.280003 -0.144901 37,000 161 444 0
2018-07-20 07:10:20 GMT 50.285446 -0.147722 37,000 161 444 0
2018-07-20 07:10:17 GMT 50.290894 -0.150617 37,000 161 444 0
2018-07-20 07:10:14 GMT 50.298668 -0.154699 37,000 161 444 0
2018-07-20 07:10:11 GMT 50.303696 -0.157423 37,000 161 444 0
2018-07-20 07:10:08 GMT 50.310699 -0.161109 37,000 161 443 0
2018-07-20 07:10:05 GMT 50.314171 -0.162939 37,000 161 443 0
2018-07-20 07:10:02 GMT 50.320408 -0.166205 37,000 161 443 0
2018-07-20 07:09:59 GMT 50.326218 -0.169276 37,000 161 443 0
2018-07-20 07:09:56 GMT 50.333176 -0.172962 37,000 161 443 0
2018-07-20 07:09:53 GMT 50.338238 -0.175633 37,000 161 443 0
2018-07-20 07:09:50 GMT 50.346012 -0.179716 37,025 161 442 384
2018-07-20 07:09:47 GMT 50.349472 -0.181564 37,025 161 443 0
2018-07-20 07:09:44 GMT 50.354919 -0.184455 37,025 161 442 384
2018-07-20 07:09:41 GMT 50.362656 -0.188502 37,000 161 442 576
2018-07-20 07:09:38 GMT 50.366123 -0.190331 37,000 161 442 576
2018-07-20 07:09:35 GMT 50.373505 -0.194212 36,950 161 440 576
2018-07-20 07:09:32 GMT 50.380417 -0.197898 36,925 161 440 704
2018-07-20 07:09:29 GMT 50.386234 -0.200872 36,850 161 440 832
2018-07-20 07:09:26 GMT 50.389709 -0.202741 36,875 161 440 832
2018-07-20 07:09:23 GMT 50.394707 -0.205326 36,825 161 440 576
2018-07-20 07:09:20 GMT 50.401642 -0.208963 36,800 161 440 512
2018-07-20 07:09:17 GMT 50.409760 -0.213149 36,725 161 435 -64
2018-07-20 07:09:14 GMT 50.413605 -0.215173 36,725 161 437 832
2018-07-20 07:09:11 GMT 50.418961 -0.217992 36,725 161 438 512
2018-07-20 07:09:08 GMT 50.426651 -0.221967 36,575 161 432 448
2018-07-20 07:09:05 GMT 50.430496 -0.223991 36,650 161 437 832
2018-07-20 07:09:02 GMT 50.437408 -0.227605 36,625 161 437 768
2018-07-20 07:08:59 GMT 50.441986 -0.229990 36,600 161 437 576
2018-07-20 07:08:56 GMT 50.447727 -0.232940 36,550 161 436 256
2018-07-20 07:08:53 GMT 50.453083 -0.235761 36,550 161 435 64
2018-07-20 07:08:50 GMT 50.459229 -0.238878 36,550 161 432 768
2018-07-20 07:08:47 GMT 50.466862 -0.242887 36,550 161 432 960
2018-07-20 07:08:44 GMT 50.471008 -0.245096 36,425 161 432 640
2018-07-20 07:08:41 GMT 50.477829 -0.248710 36,500 161 432 1088
2018-07-20 07:08:38 GMT 50.480850 -0.250300 36,450 161 432 1152
2018-07-20 07:08:35 GMT 50.489182 -0.254709 36,375 161 432 1216
2018-07-20 07:08:32 GMT 50.493351 -0.256917 36,325 161 432 1280
2018-07-20 07:08:29 GMT 50.499023 -0.259913 36,075 161 433 1344
2018-07-20 07:08:25 GMT 50.506989 -0.264117 36,175 161 433 1408
2018-07-20 07:08:22 GMT 50.511154 -0.266346 36,100 161 433 1408
2018-07-20 07:08:19 GMT 50.519138 -0.270501 36,050 161 435 1536
2018-07-20 07:08:16 GMT 50.525192 -0.273767 36,000 161 434 1472
2018-07-20 07:08:13 GMT 50.530151 -0.276393 35,900 161 435 1536
2018-07-20 07:08:10 GMT 50.535107 -0.278964 35,500 161 436 1664
2018-07-20 07:08:07 GMT 50.541996 -0.282601 35,750 161 436 1664
2018-07-20 07:08:04 GMT 50.548462 -0.286006 35,675 161 437 1664
2018-07-20 07:08:01 GMT 50.551167 -0.287426 35,575 161 438 1600
2018-07-20 07:07:58 GMT 50.559219 -0.291716 35,525 161 439 1536
2018-07-20 07:07:55 GMT 50.563065 -0.293740 35,400 161 439 1472
2018-07-20 07:07:52 GMT 50.570755 -0.297787 35,325 161 439 1472
2018-07-20 07:07:49 GMT 50.576111 -0.300606 35,250 161 440 1472
2018-07-20 07:07:46 GMT 50.581146 -0.303238 35,200 161 441 1472
2018-07-20 07:07:43 GMT 50.587692 -0.306750 35,100 161 442 1344
2018-07-20 07:07:40 GMT 50.595020 -0.310586 35,075 161 442 1344
2018-07-20 07:07:37 GMT 50.598141 -0.312294 35,000 161 442 1344
2018-07-20 07:07:34 GMT 50.606659 -0.316748 34,925 161 442 1344
2018-07-20 07:07:31 GMT 50.611267 -0.319197 34,625 161 443 1408
2018-07-20 07:07:28 GMT 50.615177 -0.321276 34,825 161 443 1408
2018-07-20 07:07:25 GMT 50.623306 -0.325615 34,725 161 443 1408
2018-07-20 07:07:22 GMT 50.628353 -0.328328 34,675 161 443 1472
2018-07-20 07:07:19 GMT 50.634933 -0.331830 34,500 161 444 1472
2018-07-20 07:07:16 GMT 50.639557 -0.334288 34,450 161 444 1472
2018-07-20 07:07:13 GMT 50.646973 -0.338201 34,375 161 445 1280
2018-07-20 07:07:10 GMT 50.653164 -0.341541 34,375 161 444 1408
2018-07-20 07:07:06 GMT 50.658611 -0.344436 34,250 161 445 1408
2018-07-20 07:07:03 GMT 50.665642 -0.348222 34,200 161 445 1344
2018-07-20 07:07:00 GMT 50.670685 -0.350912 34,125 161 445 1280
2018-07-20 07:06:57 GMT 50.676533 -0.354004 34,050 161 445 1280
2018-07-20 07:06:54 GMT 50.683563 -0.357742 34,000 161 445 1280
2018-07-20 07:06:51 GMT 50.688629 -0.360470 33,950 161 445 1280
2018-07-20 07:06:48 GMT 50.697575 -0.365295 33,850 161 445 1152
2018-07-20 07:06:45 GMT 50.699524 -0.366335 33,825 161 445 1152
2018-07-20 07:06:42 GMT 50.706528 -0.370046 33,775 161 445 1152
2018-07-20 07:06:39 GMT 50.710419 -0.372125 33,700 161 445 1088
2018-07-20 07:06:36 GMT 50.717033 -0.375671 33,675 161 444 1088
2018-07-20 07:06:33 GMT 50.723648 -0.379177 33,575 161 444 1088
2018-07-20 07:06:30 GMT 50.727928 -0.381470 33,325 161 444 1216
2018-07-20 07:06:27 GMT 50.734165 -0.384827 33,375 161 444 1152
2018-07-20 07:06:24 GMT 50.739990 -0.387936 33,400 161 444 1152
2018-07-20 07:06:21 GMT 50.745804 -0.391006 33,350 161 443 1152
2018-07-20 07:06:18 GMT 50.751617 -0.394172 33,275 161 443 1152
2018-07-20 07:06:15 GMT 50.759399 -0.398329 33,225 161 443 1152
2018-07-20 07:06:12 GMT 50.764023 -0.400778 33,100 161 443 1216
2018-07-20 07:06:09 GMT 50.769871 -0.403900 33,125 161 443 1216
2018-07-20 07:06:06 GMT 50.774918 -0.406643 33,100 161 443 1216
2018-07-20 07:06:03 GMT 50.781509 -0.410156 33,000 161 443 1152
2018-07-20 07:06:00 GMT 50.789234 -0.414276 32,975 161 443 1152
2018-07-20 07:05:57 GMT 50.792725 -0.416144 32,875 161 442 1216
2018-07-20 07:05:54 GMT 50.798546 -0.419312 32,825 161 442 1152
2018-07-20 07:05:51 GMT 50.805485 -0.423050 32,775 161 442 1088
2018-07-20 07:05:48 GMT 50.809753 -0.425275 32,600 161 440 1216
2018-07-20 07:05:45 GMT 50.818268 -0.429877 32,650 161 441 1152
2018-07-20 07:05:42 GMT 50.822113 -0.431956 32,600 161 441 1152
2018-07-20 07:05:39 GMT 50.826736 -0.434405 32,525 161 441 1216
2018-07-20 07:05:36 GMT 50.835251 -0.438934 32,500 161 441 1152
2018-07-20 07:05:33 GMT 50.839874 -0.441457 32,425 161 440 1152
2018-07-20 07:05:30 GMT 50.844498 -0.443907 32,200 161 440 1216
2018-07-20 07:05:27 GMT 50.851059 -0.447464 32,175 161 440 1280
2018-07-20 07:05:24 GMT 50.856411 -0.450363 32,125 161 439 1280
2018-07-20 07:05:21 GMT 50.864502 -0.454671 31,900 161 439 1280
2018-07-20 07:05:18 GMT 50.867210 -0.456085 32,125 161 439 1216
2018-07-20 07:05:15 GMT 50.875637 -0.460663 32,050 161 439 1280
2018-07-20 07:05:12 GMT 50.879501 -0.462723 32,050 161 439 1216
2018-07-20 07:05:09 GMT 50.886795 -0.466622 31,950 161 438 1344
2018-07-20 07:05:06 GMT 50.891792 -0.469284 31,900 161 438 1280
2018-07-20 07:05:03 GMT 50.897507 -0.472338 31,825 161 438 1344
2018-07-20 07:05:00 GMT 50.903290 -0.475464 31,700 161 438 1344
2018-07-20 07:04:57 GMT 50.910179 -0.479202 31,575 161 437 1216
2018-07-20 07:04:54 GMT 50.913620 -0.481023 31,475 161 437 1280
2018-07-20 07:04:51 GMT 50.923168 -0.486221 31,525 161 437 1280
2018-07-20 07:04:48 GMT 50.925064 -0.487184 31,475 161 437 1472
2018-07-20 07:04:45 GMT 50.932709 -0.491341 31,400 161 437 1472
2018-07-20 07:04:42 GMT 50.937286 -0.493791 31,350 161 437 1472
2018-07-20 07:04:39 GMT 50.943420 -0.497131 31,200 161 434 1664
2018-07-20 07:04:35 GMT 50.952576 -0.502105 31,200 161 436 1536
2018-07-20 07:04:32 GMT 50.955643 -0.503738 31,100 161 436 1472
2018-07-20 07:04:29 GMT 50.964386 -0.508489 31,025 161 436 1472
2018-07-20 07:04:26 GMT 50.967819 -0.510345 30,975 161 436 1600
2018-07-20 07:04:23 GMT 50.975464 -0.514427 30,875 161 436 1792
2018-07-20 07:04:20 GMT 50.979263 -0.516510 30,825 161 436 1664
2018-07-20 07:04:17 GMT 50.985779 -0.520020 30,700 161 436 1664
2018-07-20 07:04:14 GMT 50.990715 -0.522690 30,575 161 436 1984
2018-07-20 07:04:11 GMT 50.996429 -0.525785 30,300 161 436 1920
2018-07-20 07:04:08 GMT 51.003296 -0.529496 30,500 161 436 1984
2018-07-20 07:04:05 GMT 51.007874 -0.531946 30,100 161 434 1472
2018-07-20 07:04:02 GMT 51.014374 -0.535435 30,300 161 437 1344
2018-07-20 07:03:59 GMT 51.018970 -0.537949 30,200 161 436 1280
2018-07-20 07:03:56 GMT 51.024307 -0.540854 30,175 161 435 1344
2018-07-20 07:03:53 GMT 51.030422 -0.544128 30,100 161 436 1472
2018-07-20 07:03:50 GMT 51.034985 -0.546646 30,000 161 436 1408
2018-07-20 07:03:47 GMT 51.041874 -0.550385 29,825 161 435 1280
2018-07-20 07:03:44 GMT 51.048340 -0.553845 29,925 161 435 1344
2018-07-20 07:03:41 GMT 51.055561 -0.557785 29,800 161 434 1472
2018-07-20 07:03:38 GMT 51.061249 -0.560897 29,775 161 434 1536
2018-07-20 07:03:35 GMT 51.065781 -0.563346 29,625 161 434 1664
2018-07-20 07:03:32 GMT 51.071869 -0.566687 29,625 161 434 1600
2018-07-20 07:03:29 GMT 51.076790 -0.569382 29,525 161 434 1728
2018-07-20 07:03:26 GMT 51.082142 -0.572281 29,450 161 434 1728
2018-07-20 07:03:23 GMT 51.087067 -0.575001 29,325 161 434 1664
2018-07-20 07:03:20 GMT 51.094292 -0.578918 29,300 161 434 1664
2018-07-20 07:03:17 GMT 51.099976 -0.581978 29,200 161 434 1728
2018-07-20 07:03:14 GMT 51.105652 -0.585098 28,975 161 434 1792
2018-07-20 07:03:11 GMT 51.112106 -0.588585 28,975 161 434 1792
2018-07-20 07:03:08 GMT 51.117416 -0.591480 28,950 161 434 1792
2018-07-20 07:03:05 GMT 51.122364 -0.594177 28,675 161 434 1664
2018-07-20 07:03:01 GMT 51.129547 -0.598087 28,750 161 434 1664
2018-07-20 07:02:58 GMT 51.136005 -0.601578 28,650 161 434 1792
2018-07-20 07:02:55 GMT 51.141678 -0.604693 28,450 161 434 1792
2018-07-20 07:02:52 GMT 51.148155 -0.608215 28,425 161 434 1600
2018-07-20 07:02:49 GMT 51.152344 -0.610484 28,225 161 434 1792
2018-07-20 07:02:46 GMT 51.159897 -0.614641 28,300 161 434 1792
2018-07-20 07:02:43 GMT 51.165253 -0.617536 28,175 161 434 1664
2018-07-20 07:02:40 GMT 51.170563 -0.620431 28,150 161 434 1536
2018-07-20 07:02:37 GMT 51.176224 -0.623550 28,025 161 433 1600
2018-07-20 07:02:34 GMT 51.181534 -0.626450 27,950 161 433 1664
2018-07-20 07:02:31 GMT 51.186092 -0.628967 27,725 161 433 1664
2018-07-20 07:02:28 GMT 51.193268 -0.632902 27,825 161 433 1664
2018-07-20 07:02:25 GMT 51.199734 -0.636368 27,725 161 433 1664
2018-07-20 07:02:22 GMT 51.203506 -0.638428 27,300 160 432 1664
2018-07-20 07:02:19 GMT 51.209152 -0.641587 27,550 160 432 1728
2018-07-20 07:02:16 GMT 51.214817 -0.644684 27,475 160 431 1856
2018-07-20 07:02:13 GMT 51.219379 -0.647125 25,400 160 431 1856
2018-07-20 07:02:10 GMT 51.225384 -0.650482 27,225 160 431 1856
2018-07-20 07:02:07 GMT 51.231812 -0.653983 27,175 160 431 1792
2018-07-20 07:02:04 GMT 51.236694 -0.656662 26,875 160 431 1856
2018-07-20 07:02:01 GMT 51.241959 -0.659561 27,000 160 431 1856
2018-07-20 07:01:58 GMT 51.249496 -0.663681 26,950 160 431 1856
2018-07-20 07:01:55 GMT 51.256294 -0.667419 26,725 161 430 1920
2018-07-20 07:01:52 GMT 51.260422 -0.669721 26,725 161 430 1856
2018-07-20 07:01:49 GMT 51.264580 -0.671997 26,600 161 430 1920
2018-07-20 07:01:46 GMT 51.272076 -0.676117 26,575 161 430 1984
2018-07-20 07:01:43 GMT 51.276947 -0.678777 26,425 161 430 1984
2018-07-20 07:01:40 GMT 51.284088 -0.682678 26,375 161 430 1984
2018-07-20 07:01:37 GMT 51.289349 -0.685577 26,250 161 430 1856
2018-07-20 07:01:34 GMT 51.293118 -0.687637 26,175 161 430 1856
2018-07-20 07:01:31 GMT 51.301357 -0.692139 26,075 160 429 1856
2018-07-20 07:01:28 GMT 51.306244 -0.694811 26,025 160 429 1920
2018-07-20 07:01:25 GMT 51.311134 -0.697479 25,875 160 428 1984
2018-07-20 07:01:22 GMT 51.315994 -0.700156 25,800 160 428 2048
2018-07-20 07:01:19 GMT 51.321991 -0.703496 25,600 160 428 1984
2018-07-20 07:01:16 GMT 51.326820 -0.706177 25,625 160 428 1984
2018-07-20 07:01:13 GMT 51.335060 -0.710678 25,500 160 428 1984
2018-07-20 07:01:10 GMT 51.337692 -0.712181 25,250 160 427 1984
2018-07-20 07:01:07 GMT 51.344421 -0.715893 25,250 160 426 1728
2018-07-20 07:01:04 GMT 51.350372 -0.719159 25,250 160 427 1920
2018-07-20 07:01:01 GMT 51.355965 -0.722275 25,125 160 426 1792
2018-07-20 07:00:58 GMT 51.361923 -0.725555 25,075 160 426 1728
2018-07-20 07:00:55 GMT 51.368626 -0.729294 24,925 160 425 1792
2018-07-20 07:00:52 GMT 51.373093 -0.731735 24,900 160 425 1856
2018-07-20 07:00:49 GMT 51.381638 -0.736455 24,750 160 424 1728
2018-07-20 07:00:46 GMT 51.384220 -0.737915 24,725 160 424 1664
2018-07-20 07:00:43 GMT 51.390133 -0.741196 24,625 160 423 1792
2018-07-20 07:00:40 GMT 51.394554 -0.743637 24,500 160 422 1856
2018-07-20 07:00:37 GMT 51.400131 -0.746699 24,450 160 420 1792
2018-07-20 07:00:34 GMT 51.407822 -0.750961 24,350 160 421 1728
2018-07-20 07:00:31 GMT 51.412247 -0.753403 24,225 160 420 1792
2018-07-20 07:00:28 GMT 51.417366 -0.756302 24,225 160 420 1856
2018-07-20 07:00:25 GMT 51.422882 -0.759319 24,025 160 418 2048
2018-07-20 07:00:22 GMT 51.427277 -0.761768 23,975 160 418 2112
2018-07-20 07:00:19 GMT 51.433823 -0.765480 23,850 160 417 1984
2018-07-20 07:00:15 GMT 51.440037 -0.768890 23,450 160 412 1984
2018-07-20 07:00:12 GMT 51.446602 -0.772552 23,700 160 417 1856
2018-07-20 07:00:09 GMT 51.450932 -0.774994 23,500 160 415 1920
2018-07-20 07:00:06 GMT 51.456390 -0.778025 23,500 160 413 1856
2018-07-20 07:00:03 GMT 51.462204 -0.781291 23,375 160 413 1856
2018-07-20 07:00:00 GMT 51.467239 -0.784112 23,325 160 413 1856
2018-07-20 06:59:57 GMT 51.474113 -0.787888 23,200 160 413 1856
2018-07-20 06:59:54 GMT 51.479885 -0.791092 23,025 160 412 1984
2018-07-20 06:59:50 GMT 51.488113 -0.795766 23,000 165 408 2304
2018-07-20 06:59:46 GMT 51.493149 -0.798587 22,900 160 410 2176
2018-07-20 06:59:43 GMT 51.498138 -0.801408 22,725 163 409 1984
2018-07-20 06:59:40 GMT 51.504639 -0.804674 22,675 163 409 1984
2018-07-20 06:59:37 GMT 51.510452 -0.807421 22,550 173 404 2496
2018-07-20 06:59:34 GMT 51.515171 -0.809479 22,475 166 407 2304
2018-07-20 06:59:31 GMT 51.519928 -0.811355 22,325 167 406 2176
2018-07-20 06:59:28 GMT 51.525414 -0.813370 22,200 168 406 2112
2018-07-20 06:59:25 GMT 51.530228 -0.814993 21,950 171 405 2368
2018-07-20 06:59:22 GMT 51.538681 -0.817413 22,025 173 404 2496
2018-07-20 06:59:19 GMT 51.542038 -0.818185 21,675 173 404 2496
2018-07-20 06:59:16 GMT 51.549454 -0.819743 21,800 174 404 2560
2018-07-20 06:59:13 GMT 51.552788 -0.820312 21,625 175 404 2560
2018-07-20 06:59:10 GMT 51.560234 -0.821304 21,550 176 404 2624
2018-07-20 06:59:07 GMT 51.563957 -0.821609 21,400 178 405 1920
2018-07-20 06:59:04 GMT 51.572945 -0.821991 21,325 178 405 2112
2018-07-20 06:59:01 GMT 51.576668 -0.822144 21,200 178 404 1024
2018-07-20 06:58:58 GMT 51.580765 -0.822342 21,150 178 403 704
2018-07-20 06:58:55 GMT 51.587143 -0.822525 21,125 178 403 704
2018-07-20 06:58:52 GMT 51.591980 -0.822713 21,075 179 402 640
2018-07-20 06:58:49 GMT 51.598663 -0.822861 21,025 202 391 2112
2018-07-20 06:58:46 GMT 51.606079 -0.822935 21,000 181 401 704
2018-07-20 06:58:43 GMT 51.609009 -0.822935 20,975 183 400 704
2018-07-20 06:58:40 GMT 51.614559 -0.822678 20,950 186 398 1088
2018-07-20 06:58:37 GMT 51.620087 -0.821970 20,900 189 396 1536
2018-07-20 06:58:34 GMT 51.626247 -0.820618 20,850 191 396 1664
2018-07-20 06:58:31 GMT 51.630936 -0.819150 20,250 204 391 2048
2018-07-20 06:58:28 GMT 51.636208 -0.816956 20,525 198 393 2048
2018-07-20 06:58:25 GMT 51.640350 -0.814819 20,525 202 391 2112
2018-07-20 06:58:22 GMT 51.645447 -0.811652 20,225 213 385 2304
2018-07-20 06:58:19 GMT 51.651615 -0.807037 20,350 211 387 2048
2018-07-20 06:58:16 GMT 51.656040 -0.803146 20,225 213 385 2304
2018-07-20 06:58:13 GMT 51.660275 -0.798874 20,150 214 386 2368
2018-07-20 06:58:10 GMT 51.664764 -0.794208 19,600 214 385 2368
2018-07-20 06:58:07 GMT 51.671310 -0.787230 19,875 214 383 2368
2018-07-20 06:58:04 GMT 51.673962 -0.784378 19,850 214 383 2368
2018-07-20 06:58:01 GMT 51.677502 -0.780640 19,675 214 383 2432
2018-07-20 06:57:58 GMT 51.682201 -0.775604 19,600 214 382 2560
2018-07-20 06:57:55 GMT 51.687508 -0.769958 19,350 214 382 2688
2018-07-20 06:57:52 GMT 51.691315 -0.765851 19,100 214 380 2880
2018-07-20 06:57:49 GMT 51.696030 -0.760803 19,125 214 381 2880
2018-07-20 06:57:46 GMT 51.701008 -0.755463 19,050 214 381 2816
2018-07-20 06:57:43 GMT 51.705711 -0.750504 18,850 214 380 2880
2018-07-20 06:57:40 GMT 51.709488 -0.746402 18,750 214 380 2752
2018-07-20 06:57:37 GMT 51.715069 -0.740509 18,600 214 380 2944
2018-07-20 06:57:34 GMT 51.718323 -0.737123 18,375 214 379 3072
2018-07-20 06:57:31 GMT 51.723911 -0.731201 18,325 214 379 3136
2018-07-20 06:57:28 GMT 51.725636 -0.729370 17,725 214 380 2944
2018-07-20 06:57:25 GMT 51.732712 -0.721893 17,750 214 380 2816
2018-07-20 06:57:22 GMT 51.737137 -0.717303 17,750 214 379 2752
2018-07-20 06:57:19 GMT 51.740662 -0.713592 17,725 214 379 2752
2018-07-20 06:57:16 GMT 51.745926 -0.707950 17,600 214 379 2816
2018-07-20 06:57:13 GMT 51.750000 -0.703570 17,450 214 379 2688
2018-07-20 06:57:10 GMT 51.754402 -0.698929 17,375 214 378 2496
2018-07-20 06:57:07 GMT 51.758194 -0.694811 17,150 214 371 1856
2018-07-20 06:57:04 GMT 51.761673 -0.691099 17,100 214 377 2112
2018-07-20 06:57:01 GMT 51.767765 -0.684586 17,000 214 374 1920
2018-07-20 06:56:58 GMT 51.770920 -0.681152 16,925 214 371 1856
2018-07-20 06:56:55 GMT 51.774948 -0.676847 16,775 214 371 1984
2018-07-20 06:56:52 GMT 51.779774 -0.671539 16,750 214 371 2048
2018-07-20 06:56:49 GMT 51.783218 -0.667877 16,625 215 368 2368
2018-07-20 06:56:46 GMT 51.788544 -0.662001 16,450 215 368 2432
2018-07-20 06:56:43 GMT 51.792206 -0.658035 16,425 215 367 2240
2018-07-20 06:56:40 GMT 51.796967 -0.652796 16,325 215 366 1920
2018-07-20 06:56:37 GMT 51.801746 -0.647583 16,225 215 366 1472
2018-07-20 06:56:34 GMT 51.806217 -0.642700 16,125 215 364 832
2018-07-20 06:56:31 GMT 51.809566 -0.638962 16,075 215 364 832
2018-07-20 06:56:28 GMT 51.813992 -0.634079 16,050 215 364 896
2018-07-20 06:56:24 GMT 51.818459 -0.629196 16,000 215 364 896
2018-07-20 06:56:21 GMT 51.822601 -0.624588 15,925 215 362 1280
2018-07-20 06:56:18 GMT 51.827591 -0.619169 14,425 215 361 1728
2018-07-20 06:56:15 GMT 51.831776 -0.614624 15,800 215 361 1728
2018-07-20 06:56:12 GMT 51.835079 -0.610962 15,725 215 361 1728
2018-07-20 06:56:09 GMT 51.840317 -0.605213 15,525 215 360 1856
2018-07-20 06:56:06 GMT 51.844711 -0.600388 15,175 215 359 2304
2018-07-20 06:56:03 GMT 51.848053 -0.596751 15,425 215 359 2048
2018-07-20 06:56:00 GMT 51.851604 -0.592804 15,350 215 357 2624
2018-07-20 06:55:57 GMT 51.855743 -0.588288 15,150 215 357 3072
2018-07-20 06:55:53 GMT 51.861473 -0.581970 14,300 222 356 2880
2018-07-20 06:55:50 GMT 51.864990 -0.578044 14,950 219 357 2944
2018-07-20 06:55:47 GMT 51.869015 -0.573425 14,500 231 354 2688
2018-07-20 06:55:43 GMT 51.875114 -0.565338 14,475 235 351 3072
2018-07-20 06:55:40 GMT 51.877537 -0.561676 14,425 228 355 2816
2018-07-20 06:55:37 GMT 51.882423 -0.553131 14,275 231 354 2688
2018-07-20 06:55:34 GMT 51.884472 -0.549011 14,125 234 354 2752
2018-07-20 06:55:31 GMT 51.887218 -0.543060 13,975 235 352 2944
2018-07-20 06:55:28 GMT 51.890617 -0.535355 13,900 235 352 2944
2018-07-20 06:55:25 GMT 51.893463 -0.528946 13,600 235 351 2944
2018-07-20 06:55:22 GMT 51.896484 -0.522079 13,600 235 351 2880
2018-07-20 06:55:19 GMT 51.899139 -0.516052 13,200 235 351 2688
2018-07-20 06:55:15 GMT 51.902718 -0.507961 13,250 235 349 3136
2018-07-20 06:55:12 GMT 51.905701 -0.501212 13,075 235 349 3328
2018-07-20 06:55:09 GMT 51.907562 -0.496974 12,575 235 349 2944
2018-07-20 06:55:06 GMT 51.911911 -0.487137 12,350 246 347 2880
2018-07-20 06:55:03 GMT 51.913937 -0.482457 12,575 236 348 3008
2018-07-20 06:55:00 GMT 51.917290 -0.474766 12,525 236 348 3008
2018-07-20 06:54:56 GMT 51.919968 -0.468292 12,150 246 347 2880
2018-07-20 06:54:53 GMT 51.923435 -0.458915 12,150 248 347 2880
2018-07-20 06:54:50 GMT 51.925156 -0.453343 12,025 248 347 2880
2018-07-20 06:54:47 GMT 51.926739 -0.447693 11,375 256 346 2624
2018-07-20 06:54:44 GMT 51.928665 -0.439377 11,425 253 346 2944
2018-07-20 06:54:41 GMT 51.930233 -0.430978 10,975 256 340 1728
2018-07-20 06:54:38 GMT 51.931320 -0.424500 11,500 256 346 2880
2018-07-20 06:54:34 GMT 51.934002 -0.407985 11,300 256 346 2560
2018-07-20 06:54:31 GMT 51.935211 -0.400467 11,100 256 345 2240
2018-07-20 06:54:28 GMT 51.935585 -0.397940 11,075 256 342 2624
2018-07-20 06:54:24 GMT 51.937168 -0.388053 10,900 256 341 2816
2018-07-20 06:54:21 GMT 51.938145 -0.382089 10,675 256 341 2304
2018-07-20 06:54:18 GMT 51.939404 -0.374241 10,650 256 341 1984
2018-07-20 06:54:15 GMT 51.940704 -0.366316 10,275 256 338 1344
2018-07-20 06:54:12 GMT 51.941730 -0.359488 10,500 257 335 2048
2018-07-20 06:54:09 GMT 51.942856 -0.352097 10,375 257 334 2432
2018-07-20 06:54:06 GMT 51.943863 -0.345306 10,300 257 333 2880
2018-07-20 06:54:03 GMT 51.945282 -0.335617 9,900 257 332 3008
2018-07-20 06:54:00 GMT 51.945919 -0.331316 10,000 257 332 2944
2018-07-20 06:53:57 GMT 51.947365 -0.321664 9,800 257 332 2880
2018-07-20 06:53:53 GMT 51.948578 -0.313416 9,500 257 331 2752
2018-07-20 06:53:50 GMT 51.949642 -0.306205 9,550 257 331 2688
2018-07-20 06:53:47 GMT 51.950527 -0.300398 9,350 257 329 2880
2018-07-20 06:53:44 GMT 51.951973 -0.290824 9,250 257 329 2880
2018-07-20 06:53:40 GMT 51.953274 -0.282192 9,075 256 329 3264
2018-07-20 06:53:37 GMT 51.954437 -0.274501 8,725 256 329 3264
2018-07-20 06:53:34 GMT 51.955399 -0.268326 8,775 256 329 3264
2018-07-20 06:53:31 GMT 51.956772 -0.259705 8,550 256 330 3136
2018-07-20 06:53:28 GMT 51.957504 -0.254898 8,450 256 330 3136
2018-07-20 06:53:25 GMT 51.958557 -0.248184 8,250 256 330 3136
2018-07-20 06:53:22 GMT 51.959747 -0.240555 8,150 256 330 3136
2018-07-20 06:53:19 GMT 51.960800 -0.233841 8,025 256 330 3200
2018-07-20 06:53:16 GMT 51.961933 -0.226632 7,725 256 330 0
2018-07-20 06:53:13 GMT 51.962906 -0.220413 7,725 256 330 2304
2018-07-20 06:53:10 GMT 51.964073 -0.213213 7,500 256 330 2048
2018-07-20 06:53:07 GMT 51.965286 -0.205601 7,375 256 330 2176
2018-07-20 06:53:04 GMT 51.966888 -0.195541 7,300 256 330 1728
2018-07-20 06:53:01 GMT 51.967804 -0.189819 7,175 256 329 1024
2018-07-20 06:52:58 GMT 51.969360 -0.180283 7,150 256 329 960
2018-07-20 06:52:54 GMT 51.970459 -0.173569 7,075 256 327 768
2018-07-20 06:52:50 GMT 51.972363 -0.161734 7,025 256 326 384
2018-07-20 06:52:47 GMT 51.973248 -0.156006 7,025 256 326 448
2018-07-20 06:52:44 GMT 51.974316 -0.149414 7,000 256 326 64
2018-07-20 06:52:41 GMT 51.975311 -0.143280 7,000 256 326 0
2018-07-20 06:52:38 GMT 51.976822 -0.133820 7,000 256 326 0
2018-07-20 06:52:35 GMT 51.977600 -0.129089 7,000 256 326 64
2018-07-20 06:52:31 GMT 51.979343 -0.118260 7,000 256 326 0
2018-07-20 06:52:28 GMT 51.980556 -0.110726 7,000 256 326 0
2018-07-20 06:52:24 GMT 51.981857 -0.102692 7,000 256 326 0
2018-07-20 06:52:21 GMT 51.983231 -0.094147 7,000 256 326 0
2018-07-20 06:52:18 GMT 51.984512 -0.086164 7,000 256 326 0
2018-07-20 06:52:15 GMT 51.985165 -0.082397 7,000 256 326 0
2018-07-20 06:52:12 GMT 51.986374 -0.074786 7,000 256 325 -64
2018-07-20 06:52:09 GMT 51.987671 -0.066757 7,000 256 325 0
2018-07-20 06:52:06 GMT 51.989227 -0.057373 7,000 256 325 -64
2018-07-20 06:52:03 GMT 51.989960 -0.052643 7,025 264 301 0
2018-07-20 06:52:00 GMT 51.990936 -0.046535 7,025 256 321 -128
2018-07-20 06:51:57 GMT 51.992386 -0.037689 7,025 256 319 0
2018-07-20 06:51:54 GMT 51.993347 -0.031204 7,025 257 313 0
2018-07-20 06:51:50 GMT 51.994614 -0.022522 7,050 260 305 -64
2018-07-20 06:51:47 GMT 51.995640 -0.013497 7,050 264 301 0
2018-07-20 06:51:44 GMT 51.995964 -0.008083 7,050 268 296 0
2018-07-20 06:51:40 GMT 51.996094 -0.000610 7,025 273 290 0
2018-07-20 06:51:37 GMT 51.995773 0.007172 7,025 305 274 0
2018-07-20 06:51:34 GMT 51.995266 0.012634 7,025 286 276 128
2018-07-20 06:51:31 GMT 51.994400 0.018692 7,025 289 274 64
2018-07-20 06:51:28 GMT 51.993172 0.024562 7,000 293 274 0
2018-07-20 06:51:25 GMT 51.991882 0.029449 7,000 296 274 0
2018-07-20 06:51:22 GMT 51.990005 0.035248 7,000 303 274 0
2018-07-20 06:51:19 GMT 51.988358 0.039368 7,000 322 277 -64
2018-07-20 06:51:16 GMT 51.985443 0.045672 7,000 312 276 0
2018-07-20 06:51:12 GMT 51.982132 0.051346 7,025 322 277 -64
2018-07-20 06:51:09 GMT 51.979065 0.055771 7,000 325 277 -64
2018-07-20 06:51:06 GMT 51.975529 0.059875 7,000 331 277 64
2018-07-20 06:51:03 GMT 51.972919 0.062544 7,000 346 277 1216
2018-07-20 06:51:00 GMT 51.969288 0.065604 7,000 339 278 448
2018-07-20 06:50:57 GMT 51.965939 0.067801 6,975 346 277 1216
2018-07-20 06:50:54 GMT 51.962265 0.069733 6,950 347 277 1280
2018-07-20 06:50:51 GMT 51.957275 0.071716 6,775 350 278 1280
2018-07-20 06:50:47 GMT 51.953751 0.072861 6,775 350 278 1280
2018-07-20 06:50:44 GMT 51.948212 0.074539 6,725 350 278 1216
2018-07-20 06:50:41 GMT 51.946152 0.075226 6,575 350 278 1152
2018-07-20 06:50:38 GMT 51.941620 0.076599 6,625 350 278 1152
2018-07-20 06:50:35 GMT 51.938049 0.077667 6,475 350 279 1152
2018-07-20 06:50:32 GMT 51.934235 0.078788 6,500 350 280 1344
2018-07-20 06:50:28 GMT 51.929443 0.080261 6,450 350 280 1344
2018-07-20 06:50:25 GMT 51.925323 0.081406 6,375 350 280 1472
2018-07-20 06:50:22 GMT 51.920746 0.082779 6,275 350 279 2176
2018-07-20 06:50:19 GMT 51.917431 0.083653 6,125 351 278 3072
2018-07-20 06:50:16 GMT 51.913147 0.084915 6,025 351 278 3392
2018-07-20 06:50:13 GMT 51.910583 0.085602 5,950 351 278 3456
2018-07-20 06:50:10 GMT 51.907059 0.086517 5,650 351 278 3520
2018-07-20 06:50:07 GMT 51.903488 0.087433 5,600 352 278 3456
2018-07-20 06:50:04 GMT 51.897598 0.088911 5,350 352 279 3136
2018-07-20 06:50:00 GMT 51.892776 0.090118 4,900 352 278 2944
2018-07-20 06:49:56 GMT 51.889454 0.091019 5,025 352 278 2880
2018-07-20 06:49:53 GMT 51.884377 0.092239 4,825 354 275 2880
2018-07-20 06:49:50 GMT 51.880840 0.092926 4,575 359 274 2944
2018-07-20 06:49:47 GMT 51.875767 0.093536 4,500 359 274 2944
2018-07-20 06:49:43 GMT 51.871204 0.093536 4,350 2 273 2752
2018-07-20 06:49:39 GMT 51.867153 0.093307 4,075 1 271 2432
2018-07-20 06:49:35 GMT 51.861923 0.092938 4,025 359 269 2048
2018-07-20 06:49:32 GMT 51.858170 0.093002 3,875 353 266 1536
2018-07-20 06:49:29 GMT 51.854214 0.093613 3,775 348 264 1280
2018-07-20 06:49:26 GMT 51.851120 0.094646 3,300 341 263 1280
2018-07-20 06:49:23 GMT 51.847229 0.096817 3,650 336 261 1280
2018-07-20 06:49:20 GMT 51.843979 0.099471 3,575 309 251 1280
2018-07-20 06:49:16 GMT 51.840134 0.103925 3,550 291 242 1408
2018-07-20 06:49:13 GMT 51.837753 0.107636 3,425 311 252 1280
2018-07-20 06:49:10 GMT 51.835823 0.111389 3,400 306 250 1280
2018-07-20 06:49:07 GMT 51.833263 0.118408 3,250 276 233 1344
2018-07-20 06:49:04 GMT 51.832489 0.121443 3,250 291 242 1408
2018-07-20 06:49:01 GMT 51.831528 0.126937 3,200 281 237 1408
2018-07-20 06:48:58 GMT 51.831028 0.132828 3,150 271 230 1152
2018-07-20 06:48:55 GMT 51.830982 0.136948 3,000 253 217 960
2018-07-20 06:48:52 GMT 51.831436 0.142600 3,050 244 209 1536
2018-07-20 06:48:49 GMT 51.832169 0.147053 3,000 251 214 1088
2018-07-20 06:48:43 GMT 51.834751 0.155792 2,825 223 199 2304
2018-07-20 06:48:40 GMT 51.836708 0.160294 2,725 224 200 2624
2018-07-20 06:48:35 GMT 51.839127 0.164498 2,575 225 200 2624
2018-07-20 06:48:32 GMT 51.841782 0.168655 2,375 223 199 2304
2018-07-20 06:48:29 GMT 51.843430 0.171105 2,250 223 199 2176
2018-07-20 06:48:25 GMT 51.845810 0.174742 2,200 223 196 1984
2018-07-20 06:48:21 GMT 51.848114 0.178146 2,075 223 195 1984
2018-07-20 06:48:17 GMT 51.851791 0.183640 1,900 223 191 1920
2018-07-20 06:48:12 GMT 51.854351 0.187531 1,750 223 186 1344
2018-07-20 06:48:09 GMT 51.857254 0.191815 1,675 223 179 1024
2018-07-20 06:48:05 GMT 51.858994 0.194413 1,625 223 178 1024
2018-07-20 06:48:00 GMT 51.862564 0.199758 1,500 224 169 1728
2018-07-20 06:47:57 GMT 51.863708 0.201466 1,475 225 167 1920
2018-07-20 06:47:52 GMT 51.866455 0.205841 1,150 225 165 2496
2018-07-20 06:47:48 GMT 51.868515 0.209186 1,125 225 165 2496

Making use of Plane Finder data

You are free to use the raw flight data, aircraft information and images provided in this report for your own purposes provided the data is correctly attributed to Plane Finder. We ask that you please credit Plane Finder and link to planefinder.net in close proximity to the content.

Optionally one of the following logos (no smaller then 150x24px) can be used and must link to planefinder.net

Embedding the Plane Finder map

You are welcome to embed the Plane Finder playback map on your website to offer visitors a more interactive experience. We suggest using the following HTML code:

<iframe src="//planefinder.net/data/report/BY5516-G-FDZD-7700-squawk-2018-07-20/map" width="800" height="600" seamless="seamless"></iframe>

Where our data comes from

Plane Finder has a global network of data feeds and antenna radars that receive data broadcast directly from aircraft. The primary technologies used are ADS-B and MLAT. We also show feeds from the FAA and a FLARM glider feed.

Click here to find out more about the Plane Finder network.

How we collect our data